Provisional Data: Snake Creek near Lawsville Center, PA


Please select a monitoring station.
Please select start date.
Please select start date.

</
Toggle Unit: C/F Toggle Unit: C/F
Sample Time Temperature (C) Temperature (F) Specific Conductivity (mS/cm) pH   Turbidity (NTU+) DO (mg/L)
6/22/2021 12:00:00 AM 21.19 70.142 0.116 7.1 7.59 7.02
6/22/2021 12:15:00 AM 21.11 69.998 0.116 7.11 7.53 7.1
6/22/2021 12:30:00 AM 21.05 69.89 0.117 7.11 7.94 7.17
6/22/2021 12:45:00 AM 21 69.8 0.117 7.12 8.06 7.18
6/22/2021 1:00:00 AM 20.94 69.692 0.118 7.13 7.91 7.23
6/22/2021 1:15:00 AM 20.9 69.62 0.118 7.12 7.74 7.23
6/22/2021 1:30:00 AM 20.86 69.548 0.118 7.12 7.46 7.24
6/22/2021 1:45:00 AM 20.81 69.458 0.119 7.12 6.7 7.24
6/22/2021 2:00:00 AM 20.77 69.386 0.119 7.13 6.84 7.23
6/22/2021 2:15:00 AM 20.72 69.296 0.119 7.11 6.29 7.24
6/22/2021 2:30:00 AM 20.67 69.206 0.119 7.12 6.25 7.22
6/22/2021 2:45:00 AM 20.61 69.098 0.119 7.12 6.24 7.27
6/22/2021 3:00:00 AM 20.55 68.99 0.119 7.11 6.24 7.26
6/22/2021 3:15:00 AM 20.46 68.828 0.119 7.1 6.14 7.25
6/22/2021 3:30:00 AM 20.39 68.702 0.118 7.11 6.04 7.27
6/22/2021 3:45:00 AM 20.32 68.576 0.118 7.12 5.88 7.28
6/22/2021 4:00:00 AM 20.24 68.432 0.118 7.12 5.67 7.29
6/22/2021 4:15:00 AM 20.15 68.27 0.118 7.12 5.2 7.33
6/22/2021 4:30:00 AM 20.07 68.126 0.118 7.12 5.22 7.33
6/22/2021 4:45:00 AM 20.02 68.036 0.118 7.1 6.2 7.32
6/22/2021 5:00:00 AM 19.94 67.892 0.118 7.12 5.77 7.35
6/22/2021 5:15:00 AM 19.85 67.73 0.117 7.12 5.59 7.37
6/22/2021 5:30:00 AM 19.79 67.622 0.117 7.11 5.36 7.35
6/22/2021 5:45:00 AM 19.71 67.478 0.117 7.11 4.71 7.4
6/22/2021 6:00:00 AM 19.64 67.352 0.117 7.11 4.57 7.41
6/22/2021 6:15:00 AM 19.57 67.226 0.117 7.11 4.79 7.42
6/22/2021 6:30:00 AM 19.5 67.1 0.117 7.11 4.84 7.45
6/22/2021 6:45:00 AM 19.45 67.01 0.117 7.12 4.37 7.47
6/22/2021 7:00:00 AM 19.37 66.866 0.117 7.13 4.07 7.54
6/22/2021 7:15:00 AM 19.33 66.794 0.117 7.11 3.83 7.54
6/22/2021 7:30:00 AM 19.28 66.704 0.117 7.12 3.56 7.56
6/22/2021 7:45:00 AM 19.22 66.596 0.116 7.12 3.71 7.64
6/22/2021 8:00:00 AM 19.18 66.524 0.116 7.13 3.53 7.68
6/22/2021 8:15:00 AM 19.14 66.452 0.116 7.14 3.39 7.74
6/22/2021 8:30:00 AM 19.09 66.362 0.116 7.15 3.35 7.8
6/22/2021 8:45:00 AM 19.05 66.29 0.116 7.15 3.3 7.86
6/22/2021 9:00:00 AM 19 66.2 0.115 7.15 3.44 7.92
6/22/2021 9:15:00 AM 18.95 66.11 0.115 7.17 3.43 7.97
6/22/2021 9:30:00 AM 18.92 66.056 0.115 7.17 3.15 8.01
6/22/2021 9:45:00 AM 18.88 65.984 0.115 7.17 3.12 8.01
6/22/2021 10:00:00 AM 18.86 65.948 0.115 7.18 3.09 8.11
6/22/2021 10:15:00 AM 18.84 65.912 0.115 7.19 3.19 8.17
6/22/2021 10:30:00 AM 18.8 65.84 0.115 7.2 3.3 8.24
6/22/2021 10:45:00 AM 18.76 65.768 0.115 7.2 3.15 8.28
6/22/2021 11:00:00 AM 18.73 65.714 0.115 7.2 3.18 8.3
6/22/2021 11:15:00 AM 18.7 65.66 0.115 7.22 3.15 8.33
6/22/2021 11:30:00 AM 18.67 65.606 0.115 7.23 3.12 8.42
6/22/2021 11:45:00 AM 18.66 65.588 0.115 7.23 3.31 8.43
6/22/2021 12:00:00 PM 18.67 65.606 0.115 7.23 3.29 8.5
6/22/2021 12:15:00 PM 18.68 65.624 0.115 7.25 3.11 8.52
6/22/2021 12:30:00 PM 18.68 65.624 0.115 7.26 3.13 8.66
6/22/2021 12:45:00 PM 18.68 65.624 0.115 7.28 3.22 8.72
6/22/2021 1:00:00 PM 18.66 65.588 0.114 7.29 2.97 8.76
6/22/2021 1:15:00 PM 18.64 65.552 0.114 7.3 2.84 8.77
6/22/2021 1:30:00 PM 18.61 65.498 0.114 7.29 2.83 8.76
6/22/2021 1:45:00 PM 18.59 65.462 0.114 7.3 2.82 8.8
6/22/2021 2:00:00 PM 18.58 65.444 0.114 7.32 2.87 8.82
6/22/2021 2:15:00 PM 18.57 65.426 0.114 7.33 2.93 8.88
6/22/2021 2:30:00 PM 18.55 65.39 0.114 7.33 2.68 8.86
6/22/2021 2:45:00 PM 18.51 65.318 0.114 7.34 2.77 8.87
6/22/2021 3:00:00 PM 18.45 65.21 0.114 7.33 2.9 8.83
6/22/2021 3:15:00 PM 18.4 65.12 0.114 7.32 2.87 8.81
6/22/2021 3:30:00 PM 18.35 65.03 0.114 7.33 2.9 8.81
6/22/2021 3:45:00 PM 18.32 64.976 0.114 7.33 2.85 8.8
6/22/2021 4:00:00 PM 18.28 64.904 0.114 7.34 2.8 8.81
6/22/2021 4:15:00 PM 18.26 64.868 0.114 7.32 2.95 8.86
6/22/2021 4:30:00 PM 18.24 64.832 0.114 7.35 2.62 8.88
6/22/2021 4:45:00 PM 18.22 64.796 0.114 7.36 2.69 8.92
6/22/2021 5:00:00 PM 18.19 64.742 0.114 7.34 2.84 8.92
6/22/2021 5:15:00 PM 18.15 64.67 0.114 7.35 2.71 8.91
6/22/2021 5:30:00 PM 18.08 64.544 0.114 7.34 2.82 8.88
6/22/2021 5:45:00 PM 18.02 64.436 0.114 7.35 3.01 8.86
6/22/2021 6:00:00 PM 18.01 64.418 0.114 7.33 2.73 8.84
6/22/2021 6:15:00 PM 18 64.4 0.114 7.35 2.64 8.89
6/22/2021 6:30:00 PM 17.99 64.382 0.114 7.34 2.6 8.89
6/22/2021 6:45:00 PM 17.97 64.346 0.114 7.35 2.7 8.96
6/22/2021 7:00:00 PM 17.96 64.328 0.114 7.35 2.81 8.97
6/22/2021 7:15:00 PM 17.91 64.238 0.114 7.35 2.76 8.98
6/22/2021 7:30:00 PM 17.85 64.13 0.114 7.35 2.69 8.96
6/22/2021 7:45:00 PM 17.79 64.022 0.114 7.34 2.77 8.92
6/22/2021 8:00:00 PM 17.71 63.878 0.114 7.33 2.89 8.88
6/22/2021 8:15:00 PM 17.63 63.734 0.114 7.32 2.77 8.82
6/22/2021 8:30:00 PM 17.53 63.554 0.115 7.31 2.89 8.77
6/22/2021 8:45:00 PM 17.43 63.374 0.115 7.29 2.87 8.7
6/22/2021 9:00:00 PM 17.32 63.176 0.115 7.26 3.09 8.63
6/22/2021 9:15:00 PM 17.2 62.96 0.115 7.25 3.21 8.56
6/22/2021 9:30:00 PM 17.1 62.78 0.115 7.23 3.33 8.49
6/22/2021 9:45:00 PM 16.97 62.546 0.115 7.22 3.39 8.47
6/22/2021 10:00:00 PM 16.87 62.366 0.115 7.21 3.49 8.42
6/22/2021 10:15:00 PM 16.76 62.168 0.115 7.19 3.27 8.42
6/22/2021 10:30:00 PM 16.67 62.006 0.115 7.19 3.39 8.37
6/22/2021 10:45:00 PM 16.58 61.844 0.116 7.18 3.98 8.37
6/22/2021 11:00:00 PM 16.46 61.628 0.116 7.18 3.81 8.38
6/22/2021 11:15:00 PM 16.36 61.448 0.116 7.16 3.57 8.39
6/22/2021 11:30:00 PM 16.26 61.268 0.116 7.17 3.59 8.4
6/22/2021 11:45:00 PM 16.16 61.088 0.116 7.15 4.03 8.38
6/23/2021 12:00:00 AM 16.05 60.89 0.116 7.16 3.85 8.4
6/23/2021 12:15:00 AM 15.95 60.71 0.116 7.15 3.82 8.41
6/23/2021 12:30:00 AM 15.84 60.512 0.116 7.14 3.84 8.44
6/23/2021 12:45:00 AM 15.76 60.368 0.116 7.14 3.94 8.42
6/23/2021 1:00:00 AM 15.63 60.134 0.116 7.14 3.59 8.48
6/23/2021 1:15:00 AM 15.55 59.99 0.116 7.14 3.87 8.48
6/23/2021 1:30:00 AM 15.43 59.774 0.117 7.15 3.73 8.52
6/23/2021 1:45:00 AM 15.33 59.594 0.117 7.14 3.62 8.54
6/23/2021 2:00:00 AM 15.24 59.432 0.117 7.13 3.57 8.55
6/23/2021 2:15:00 AM 15.13 59.234 0.117 7.14 3.76 8.58
6/23/2021 2:30:00 AM 15.02 59.036 0.117 7.14 3.6 8.6
6/23/2021 2:45:00 AM 14.93 58.874 0.117 7.14 4.15 8.64
6/23/2021 3:00:00 AM 14.83 58.694 0.117 7.13 4.37 8.66
6/23/2021 3:15:00 AM 14.74 58.532 0.117 7.13 4.01 8.66
6/23/2021 3:30:00 AM 14.65 58.37 0.117 7.13 3.65 8.7
6/23/2021 3:45:00 AM 14.56 58.208 0.117 7.13 3.74 8.7
6/23/2021 4:00:00 AM 14.46 58.028 0.117 7.12 3.59 8.77
6/23/2021 4:15:00 AM 14.38 57.884 0.117 7.09 3.53 8.78
6/23/2021 4:30:00 AM 14.31 57.758 0.117 7.08 4.03 8.75
6/23/2021 4:45:00 AM 14.24 57.632 0.117 7.08 4.2 8.8
6/23/2021 5:00:00 AM 14.15 57.47 0.117 7.08 4.06 8.83
6/23/2021 5:15:00 AM 14.08 57.344 0.117 7.07 7.36 8.83
6/23/2021 5:30:00 AM 14.02 57.236 0.117 7.08 4.24 8.84
6/23/2021 5:45:00 AM 13.96 57.128 0.117 7.06 3.22 8.86
6/23/2021 6:00:00 AM 13.9 57.02 0.117 7.08 3.24 8.88
6/23/2021 6:15:00 AM 13.85 56.93 0.117 7.07 2.9 8.89
6/23/2021 6:30:00 AM 13.79 56.822 0.117 7.07 2.84 8.98
6/23/2021 6:45:00 AM 13.75 56.75 0.117 7.08 2.8 9.02
6/23/2021 7:00:00 AM 13.72 56.696 0.117 7.08 2.63 9.07
6/23/2021 7:15:00 AM 14.04 57.272 0.116 7.09 2.75 8.97
6/23/2021 7:30:00 AM 14.01 57.218 0.116 7.1 2.71 9.06
6/23/2021 7:45:00 AM 13.99 57.182 0.116 7.11 2.51 9.12
6/23/2021 8:00:00 AM 13.98 57.164 0.116 7.12 2.52 9.21
6/23/2021 8:15:00 AM 14 57.2 0.116 7.13 2.59 9.2
6/23/2021 8:30:00 AM 14.01 57.218 0.116 7.13 2.48 9.24
6/23/2021 8:45:00 AM 14.03 57.254 0.116 7.15 2.45 9.3
6/23/2021 9:00:00 AM 14.05 57.29 0.116 7.15 2.41 9.34
6/23/2021 9:15:00 AM 14.11 57.398 0.116 7.17 2.37 9.4
6/23/2021 9:30:00 AM 14.2 57.56 0.116 7.18 2.33 9.51
6/23/2021 9:45:00 AM 14.29 57.722 0.116 7.2 2.49 9.53
6/23/2021 10:00:00 AM 14.39 57.902 0.116 7.21 2.35 9.57
6/23/2021 10:15:00 AM 14.5 58.1 0.116 7.22 2.36 9.6
6/23/2021 10:30:00 AM 14.6 58.28 0.116 7.22 2.61 9.62
6/23/2021 10:45:00 AM 14.75 58.55 0.116 7.23 2.44 9.63
6/23/2021 11:00:00 AM 14.86 58.748 0.116 7.25 2.39 9.65
6/23/2021 11:15:00 AM 15.05 59.09 0.116 7.25 2.32 9.68
6/23/2021 11:30:00 AM 15.25 59.45 0.116 7.27 2.25 9.71
6/23/2021 11:45:00 AM 15.46 59.828 0.116 7.28 2.64 9.72
6/23/2021 12:00:00 PM 15.62 60.116 0.116 7.29 2.33 9.73
6/23/2021 12:15:00 PM 15.8 60.44 0.116 7.29 2.3 9.72
6/23/2021 12:30:00 PM 15.99 60.782 0.116 7.29 2.28 9.74
6/23/2021 12:45:00 PM 16.3 61.34 0.115 7.31 2.26 9.7
6/23/2021 1:00:00 PM 16.55 61.79 0.115 7.33 2.2 9.74
6/23/2021 1:15:00 PM 16.87 62.366 0.115 7.33 2.84 9.72
6/23/2021 1:30:00 PM 17.07 62.726 0.115 7.33 2.22 9.7
6/23/2021 1:45:00 PM 17.34 63.212 0.115 7.34 2.2 9.67
6/23/2021 2:00:00 PM 17.67 63.806 0.115 7.35 2.24 9.63
6/23/2021 2:15:00 PM 17.82 64.076 0.115 7.35 2.28 9.61
6/23/2021 2:30:00 PM 18.01 64.418 0.115 7.35 2.61 9.57
6/23/2021 2:45:00 PM 18.28 64.904 0.115 7.36 2.2 9.55
6/23/2021 3:00:00 PM 18.57 65.426 0.115 7.36 2.19 9.52
6/23/2021 3:15:00 PM 18.83 65.894 0.115 7.37 2.13 9.5
6/23/2021 3:30:00 PM 19.09 66.362 0.115 7.35 2.27 9.45
6/23/2021 3:45:00 PM 19.3 66.74 0.115 7.37 2.2 9.41
6/23/2021 4:00:00 PM 19.52 67.136 0.115 7.36 2.21 9.35
6/23/2021 4:15:00 PM 19.68 67.424 0.115 7.35 2.25 9.32
6/23/2021 4:30:00 PM 19.83 67.694 0.115 7.37 2.29 9.26
6/23/2021 4:45:00 PM 19.92 67.856 0.115 7.36 2.22 9.2
6/23/2021 5:00:00 PM 20.08 68.144 0.115 7.35 2.32 9.15
6/23/2021 5:15:00 PM 20.15 68.27 0.115 7.35 2.31 9.09
6/23/2021 5:30:00 PM 20.18 68.324 0.115 7.35 2.4 9.02
6/23/2021 5:45:00 PM 20.17 68.306 0.115 7.33 2.67 8.95
6/23/2021 6:00:00 PM 20.2 68.36 0.115 7.32 2.69 8.89
6/23/2021 6:15:00 PM 20.19 68.342 0.115 7.31 3.29 8.83
6/23/2021 6:30:00 PM 20.11 68.198 0.115 7.3 3.09 8.77
6/23/2021 6:45:00 PM 20.07 68.126 0.115 7.31 3.36 8.74
6/23/2021 7:00:00 PM 19.93 67.874 0.116 7.3 3.25 8.69
6/23/2021 7:15:00 PM 19.77 67.586 0.116 7.29 3.39 8.63
6/23/2021 7:30:00 PM 19.61 67.298 0.116 7.26 3.36 8.58
6/23/2021 7:45:00 PM 19.47 67.046 0.116 7.25 3.42 8.53
6/23/2021 8:00:00 PM 19.32 66.776 0.116 7.25 3.94 8.49
6/23/2021 8:15:00 PM 19.14 66.452 0.116 7.24 3.08 8.46
6/23/2021 8:30:00 PM 18.99 66.182 0.116 7.23 3.11 8.39
6/23/2021 8:45:00 PM 18.78 65.804 0.116 7.21 3.55 8.34
6/23/2021 9:00:00 PM 18.64 65.552 0.116 7.19 3.74 8.27
6/23/2021 9:15:00 PM 18.49 65.282 0.117 7.19 4.38 8.21
6/23/2021 9:30:00 PM 18.35 65.03 0.117 7.17 4.14 8.14
6/23/2021 9:45:00 PM 18.22 64.796 0.117 7.16 4.29 8.08
6/23/2021 10:00:00 PM 18.07 64.526 0.117 7.15 4.27 8.03
6/23/2021 10:15:00 PM 17.93 64.274 0.117 7.14 4.47 8
6/23/2021 10:30:00 PM 17.79 64.022 0.117 7.12 4.35 7.97
6/23/2021 10:45:00 PM 17.67 63.806 0.117 7.11 4.08 7.95
6/23/2021 11:00:00 PM 17.54 63.572 0.117 7.11 4.33 7.93
6/23/2021 11:15:00 PM 17.43 63.374 0.117 7.1 4.43 7.92
6/23/2021 11:30:00 PM 17.31 63.158 0.117 7.09 4.67 7.93
6/23/2021 11:45:00 PM 17.18 62.924 0.117 7.09 4.92 7.93
6/24/2021 12:00:00 AM 17.05 62.69 0.118 7.09 4.62 7.96
6/24/2021 12:15:00 AM 16.94 62.492 0.118 7.07 4.96 7.97
6/24/2021 12:30:00 AM 16.81 62.258 0.118 7.09 5 8
6/24/2021 12:45:00 AM 16.71 62.078 0.118 7.08 4.41 7.99
6/24/2021 1:00:00 AM 16.59 61.862 0.118 7.07 5.74 8
6/24/2021 1:15:00 AM 16.47 61.646 0.118 7.06 4.54 8.04
6/24/2021 1:30:00 AM 16.37 61.466 0.118 7.06 5.22 8.04
6/24/2021 1:45:00 AM 16.25 61.25 0.118 7.07 4.85 8.08
6/24/2021 2:00:00 AM 16.14 61.052 0.118 7.07 4.81 8.11
6/24/2021 2:15:00 AM 16.01 60.818 0.118 7.07 4.2 8.14
6/24/2021 2:30:00 AM 15.94 60.692 0.118 7.04 12.19 8.12
6/24/2021 2:45:00 AM 15.82 60.476 0.118 7.06 8.93 8.18
6/24/2021 3:00:00 AM 15.73 60.314 0.118 7.06 5.21 8.19
6/24/2021 3:15:00 AM 15.61 60.098 0.118 7.07 4.75 8.23
6/24/2021 3:30:00 AM 15.53 59.954 0.118 7.06 3.97 8.24
6/24/2021 3:45:00 AM 15.43 59.774 0.119 7.05 4.35 8.27
6/24/2021 4:00:00 AM 15.32 59.576 0.119 7.06 4.76 8.31
6/24/2021 4:15:00 AM 15.26 59.468 0.119 7.05 4.02 8.29
6/24/2021 4:30:00 AM 15.15 59.27 0.119 7.06 4.19 8.35
6/24/2021 4:45:00 AM 15.08 59.144 0.119 7.06 4.65 8.34
6/24/2021 5:00:00 AM 14.98 58.964 0.119 7.06 4.93 8.4
6/24/2021 5:15:00 AM 14.9 58.82 0.119 7.05 5.2 8.37
6/24/2021 5:30:00 AM 14.83 58.694 0.119 7.04 3.54 8.43
6/24/2021 5:45:00 AM 14.75 58.55 0.119 7.05 3.24 8.47
6/24/2021 6:00:00 AM 14.68 58.424 0.119 7.06 3.07 8.48
6/24/2021 6:15:00 AM 14.57 58.226 0.119 7.05 2.73 8.53
6/24/2021 6:30:00 AM 14.55 58.19 0.119 7.06 2.97 8.52
6/24/2021 6:45:00 AM 14.48 58.064 0.119 7.06 2.87 8.57
6/24/2021 7:00:00 AM 14.43 57.974 0.119 7.06 2.78 8.62
6/24/2021 7:15:00 AM 14.38 57.884 0.119 7.05 3.05 8.71
6/24/2021 7:30:00 AM 14.35 57.83 0.119 7.07 2.65 8.79
6/24/2021 7:45:00 AM 14.33 57.794 0.119 7.08 2.49 8.87
6/24/2021 8:00:00 AM 14.33 57.794 0.119 7.09 2.55 8.96
6/24/2021 8:15:00 AM 14.34 57.812 0.119 7.09 2.41 8.99
6/24/2021 8:30:00 AM 14.37 57.866 0.119 7.09 2.45 9.02
6/24/2021 8:45:00 AM 14.4 57.92 0.119 7.1 2.48 9.07
6/24/2021 9:00:00 AM 14.46 58.028 0.119 7.1 2.59 9.18
6/24/2021 9:15:00 AM 14.53 58.154 0.119 7.12 2.35 9.25
6/24/2021 9:30:00 AM 14.58 58.244 0.119 7.12 2.4 9.23
6/24/2021 9:45:00 AM 14.68 58.424 0.119 7.13 2.8 9.33
6/24/2021 10:00:00 AM 14.79 58.622 0.119 7.14 2.34 9.36
6/24/2021 10:15:00 AM 14.91 58.838 0.119 7.13 2.59 9.4
6/24/2021 10:30:00 AM 15.04 59.072 0.119 7.16 2.44 9.44
6/24/2021 10:45:00 AM 15.24 59.432 0.118 7.15 2.29 9.48
6/24/2021 11:00:00 AM 15.43 59.774 0.118 7.16 2.23 9.51
6/24/2021 11:15:00 AM 15.77 60.386 0.118 7.18 2.29 9.56
6/24/2021 11:30:00 AM 16.06 60.908 0.118 7.2 2.3 9.57
6/24/2021 11:45:00 AM 16.35 61.43 0.118 7.2 2.35 9.59
6/24/2021 12:00:00 PM 16.63 61.934 0.118 7.21 2.26 9.58
6/24/2021 12:15:00 PM 16.93 62.474 0.117 7.22 2.19 9.59
6/24/2021 12:30:00 PM 17.23 63.014 0.117 7.21 2.24 9.57
6/24/2021 12:45:00 PM 17.52 63.536 0.117 7.24 2.4 9.58
6/24/2021 1:00:00 PM 17.82 64.076 0.117 7.24 2.32 9.56
6/24/2021 1:15:00 PM 18.15 64.67 0.117 7.25 2.27 9.55
6/24/2021 1:30:00 PM 18.44 65.192 0.117 7.26 2.16 9.54
6/24/2021 1:45:00 PM 18.85 65.93 0.117 7.27 2.45 9.52
6/24/2021 2:00:00 PM 19.05 66.29 0.117 7.25 2.4 9.5
6/24/2021 2:15:00 PM 19.39 66.902 0.117 7.28 2.78 9.46
6/24/2021 2:30:00 PM 19.71 67.478 0.117 7.29 2.48 9.44
6/24/2021 2:45:00 PM 20.07 68.126 0.117 7.29 2.67 9.4
6/24/2021 3:00:00 PM 20.3 68.54 0.117 7.29 2.54 9.36
6/24/2021 3:15:00 PM 20.49 68.882 0.117 7.3 2.72 9.3
6/24/2021 3:30:00 PM 20.73 69.314 0.117 7.28 2.77 9.26
6/24/2021 3:45:00 PM 20.91 69.638 0.117 7.3 3.29 9.22
6/24/2021 4:00:00 PM 21.07 69.926 0.117 7.3 2.73 9.17
6/24/2021 4:15:00 PM 21.22 70.196 0.117 7.3 2.81 9.13
6/24/2021 4:30:00 PM 21.35 70.43 0.117 7.3 3.52 9.06
6/24/2021 4:45:00 PM 21.38 70.484 0.117 7.27 4.14 8.99
6/24/2021 5:00:00 PM 21.46 70.628 0.117 7.28 3.6 8.91
6/24/2021 5:15:00 PM 21.47 70.646 0.117 7.25 4.29 8.85
6/24/2021 5:30:00 PM 21.48 70.664 0.117 7.25 3.85 8.78
6/24/2021 5:45:00 PM 21.49 70.682 0.117 7.25 4.98 8.73
6/24/2021 6:00:00 PM 21.47 70.646 0.117 7.26 3.69 8.69
6/24/2021 6:15:00 PM 21.44 70.592 0.117 7.25 3.67 8.6
6/24/2021 6:30:00 PM 21.38 70.484 0.117 7.24 3.5 8.54
6/24/2021 6:45:00 PM 21.32 70.376 0.117 7.23 3.53 8.48
6/24/2021 7:00:00 PM 21.23 70.214 0.117 7.22 3.89 8.42
6/24/2021 7:15:00 PM 21.11 69.998 0.117 7.2 3.87 8.31
6/24/2021 7:30:00 PM 20.96 69.728 0.117 7.2 4.16 8.26
6/24/2021 7:45:00 PM 20.81 69.458 0.117 7.19 3.91 8.21
6/24/2021 8:00:00 PM 20.66 69.188 0.117 7.18 5.03 8.14
6/24/2021 8:15:00 PM 20.46 68.828 0.117 7.17 3.45 8.09
6/24/2021 8:30:00 PM 20.28 68.504 0.118 7.15 3.48 8.01
6/24/2021 8:45:00 PM 20.12 68.216 0.118 7.14 4.02 7.95
6/24/2021 9:00:00 PM 19.97 67.946 0.118 7.13 3.83 7.89
6/24/2021 9:15:00 PM 19.79 67.622 0.118 7.11 4.46 7.81
6/24/2021 9:30:00 PM 19.6 67.28 0.118 7.09 4.41 7.75
6/24/2021 9:45:00 PM 19.42 66.956 0.118 7.08 4.16 7.69
6/24/2021 10:00:00 PM 19.25 66.65 0.119 7.07 5.09 7.62
6/24/2021 10:15:00 PM 19.09 66.362 0.119 7.04 3.7 7.58
6/24/2021 10:30:00 PM 18.95 66.11 0.119 7.04 4.83 7.55
6/24/2021 10:45:00 PM 18.82 65.876 0.119 7.05 4.13 7.51
6/24/2021 11:00:00 PM 18.67 65.606 0.119 7.04 4.11 7.5
6/24/2021 11:15:00 PM 18.56 65.408 0.119 7.03 3.92 7.48
6/24/2021 11:30:00 PM 18.44 65.192 0.119 7.03 4.75 7.48
6/24/2021 11:45:00 PM 18.33 64.994 0.119 7 4.61 7.48
6/25/2021 12:00:00 AM 18.22 64.796 0.119 7.01 4.84 7.46
6/25/2021 12:15:00 AM 18.11 64.598 0.119 7.02 4.63 7.47
6/25/2021 12:30:00 AM 17.99 64.382 0.119 7 5.06 7.49
6/25/2021 12:45:00 AM 17.9 64.22 0.119 7.01 4.31 7.48
6/25/2021 1:00:00 AM 17.79 64.022 0.119 7.01 5.33 7.5
6/25/2021 1:15:00 AM 17.7 63.86 0.119 6.98 4.37 7.51
6/25/2021 1:30:00 AM 17.6 63.68 0.119 7.01 4.77 7.51
6/25/2021 1:45:00 AM 17.5 63.5 0.119 7 4.33 7.53
6/25/2021 2:00:00 AM 17.38 63.284 0.119 7 5.1 7.58
6/25/2021 2:15:00 AM 17.28 63.104 0.119 7 4.14 7.59
6/25/2021 2:30:00 AM 17.18 62.924 0.12 6.98 4.05 7.61
6/25/2021 2:45:00 AM 17.09 62.762 0.12 6.99 4.26 7.62
6/25/2021 3:00:00 AM 16.99 62.582 0.12 7 4.72 7.64
6/25/2021 3:15:00 AM 16.9 62.42 0.12 6.99 4.67 7.67
6/25/2021 3:30:00 AM 16.79 62.222 0.12 6.99 3.99 7.69
6/25/2021 3:45:00 AM 16.72 62.096 0.12 6.99 4.7 7.69
6/25/2021 4:00:00 AM 16.61 61.898 0.12 6.98 5.91 7.71
6/25/2021 4:15:00 AM 16.52 61.736 0.12 6.99 4.47 7.74
6/25/2021 4:30:00 AM 16.43 61.574 0.12 6.99 4.81 7.77
6/25/2021 4:45:00 AM 16.34 61.412 0.12 6.99 5.35 7.77
6/25/2021 5:00:00 AM 16.26 61.268 0.12 6.98 4.85 7.79
6/25/2021 5:15:00 AM 16.17 61.106 0.12 6.98 4.24 7.83
6/25/2021 5:30:00 AM 16.08 60.944 0.12 7 14.05 7.83
6/25/2021 5:45:00 AM 15.99 60.782 0.12 7 14.11 7.84
6/25/2021 6:00:00 AM 15.9 60.62 0.12 7 9.71 7.85
6/25/2021 6:15:00 AM 15.83 60.494 0.116 7 20.93 7.9
6/25/2021 6:30:00 AM 15.77 60.386 0.12 6.97 34.43 7.96
6/25/2021 6:45:00 AM 15.72 60.296 0.12 6.99 8.23 8
6/25/2021 7:00:00 AM 15.67 60.206 0.12 7 11.77 8.03
6/25/2021 7:15:00 AM 15.63 60.134 0.12 7.01 4.1 8.12
6/25/2021 7:30:00 AM 15.6 60.08 0.12 7.01 8.55 8.17
6/25/2021 7:45:00 AM 15.56 60.008 0.12 7.02 11.21 8.34
6/25/2021 8:00:00 AM 15.54 59.972 0.12 7.03 16.57 8.41
6/25/2021 8:15:00 AM 15.55 59.99 0.12 7.04 3.62 8.51
6/25/2021 8:30:00 AM 15.57 60.026 0.12 7.05 5.56 8.58
6/25/2021 8:45:00 AM 15.6 60.08 0.12 7.06 2.4 8.68
6/25/2021 9:00:00 AM 15.63 60.134 0.12 7.05 2.46 8.77
6/25/2021 9:15:00 AM 15.68 60.224 0.12 7.07 2.3 8.86
6/25/2021 9:30:00 AM 15.78 60.404 0.12 7.09 6.44 8.96
6/25/2021 9:45:00 AM 15.85 60.53 0.12 7.1 2.84 9.05
6/25/2021 10:00:00 AM 15.96 60.728 0.12 7.11 2.18 9.12
6/25/2021 10:15:00 AM 16.07 60.926 0.119 7.12 2.23 9.16
6/25/2021 10:30:00 AM 16.21 61.178 0.119 7.13 2.07 9.26
6/25/2021 10:45:00 AM 16.38 61.484 0.119 7.13 2.09 9.31
6/25/2021 11:00:00 AM 16.53 61.754 0.119 7.14 2.48 9.33
6/25/2021 11:15:00 AM 16.73 62.114 0.119 7.16 2.51 9.41
6/25/2021 11:30:00 AM 16.97 62.546 0.119 7.15 2.23 9.43
6/25/2021 11:45:00 AM 17.15 62.87 0.119 7.18 2.04 9.44
6/25/2021 12:00:00 PM 17.42 63.356 0.118 7.18 1.95 9.48
6/25/2021 12:15:00 PM 17.69 63.842 0.118 7.19 2.96 9.51
6/25/2021 12:30:00 PM 17.97 64.346 0.118 7.19 2.32 9.47
6/25/2021 12:45:00 PM 18.23 64.814 0.118 7.2 4 9.49
6/25/2021 1:00:00 PM 18.5 65.3 0.118 7.22 4.65 9.54
6/25/2021 1:15:00 PM 18.74 65.732 0.118 7.22 3.12 9.53
6/25/2021 1:30:00 PM 18.99 66.182 0.118 7.23 2.37 9.53
6/25/2021 1:45:00 PM 19.24 66.632 0.118 7.21 3.95 9.52
6/25/2021 2:00:00 PM 19.49 67.082 0.118 7.22 3.17 9.45
6/25/2021 2:15:00 PM 19.72 67.496 0.118 7.23 9.76 9.48
6/25/2021 2:30:00 PM 19.96 67.92799 0.118 7.25 2.5 9.48
6/25/2021 2:45:00 PM 20.15 68.27 0.118 7.25 2.22 9.45
6/25/2021 3:00:00 PM 20.36 68.648 0.117 7.24 1.92 9.44
6/25/2021 3:15:00 PM 20.5 68.9 0.117 7.26 1.95 9.38
6/25/2021 3:30:00 PM 20.65 69.17 0.117 7.27 1.88 9.36
6/25/2021 3:45:00 PM 20.86 69.548 0.117 7.27 2.23 9.32
6/25/2021 4:00:00 PM 21 69.8 0.117 7.25 1.95 9.29
6/25/2021 4:15:00 PM 21.12 70.016 0.117 7.26 1.97 9.24
6/25/2021 4:30:00 PM 21.22 70.196 0.117 7.27 2.34 9.22
6/25/2021 4:45:00 PM 21.32 70.376 0.117 7.28 3.87 9.14
6/25/2021 5:00:00 PM 21.34 70.412 0.117 7.27 2.16 9.13
6/25/2021 5:15:00 PM 21.34 70.412 0.117 7.27 3.6 9.07
6/25/2021 5:30:00 PM 21.44 70.592 0.117 7.26 4.36 9.06
6/25/2021 5:45:00 PM 21.46 70.628 0.117 7.26 3.02 9.02
6/25/2021 6:00:00 PM 21.46 70.628 0.117 7.25 2.74 8.96
6/25/2021 6:15:00 PM 21.41 70.538 0.117 7.26 2.57 8.86
6/25/2021 6:30:00 PM 21.4 70.52 0.117 7.24 2.76 8.79
6/25/2021 6:45:00 PM 21.34 70.412 0.117 7.24 2.62 8.72
6/25/2021 7:00:00 PM 21.26 70.268 0.117 7.23 2.56 8.61
6/25/2021 7:15:00 PM 21.16 70.088 0.117 7.2 2.27 8.51
6/25/2021 7:30:00 PM 21.09 69.962 0.117 7.2 2.57 8.42
6/25/2021 7:45:00 PM 21.01 69.818 0.117 7.18 2.48 8.35
6/25/2021 8:00:00 PM 20.92 69.656 0.117 7.17 3.01 8.28
6/25/2021 8:15:00 PM 20.81 69.458 0.118 7.16 3.03 8.19
6/25/2021 8:30:00 PM 20.7 69.26 0.118 7.15 3.68 8.1
6/25/2021 8:45:00 PM 20.59 69.062 0.118 7.14 3.01 8.01
6/25/2021 9:00:00 PM 20.46 68.828 0.118 7.12 3.34 7.9
6/25/2021 9:15:00 PM 20.32 68.576 0.118 7.1 2.89 7.8
6/25/2021 9:30:00 PM 20.17 68.306 0.119 7.09 3.07 7.72
6/25/2021 9:45:00 PM 20.02 68.036 0.119 7.08 2.74 7.64
6/25/2021 10:00:00 PM 19.89 67.802 0.119 7.06 3.16 7.56
6/25/2021 10:15:00 PM 19.76 67.568 0.119 7.05 4.1 7.49
6/25/2021 10:30:00 PM 19.61 67.298 0.119 7.04 3.22 7.43
6/25/2021 10:45:00 PM 19.49 67.082 0.119 7.03 3.67 7.38
6/25/2021 11:00:00 PM 19.36 66.848 0.119 7.03 3.21 7.33
6/25/2021 11:15:00 PM 19.24 66.632 0.12 7.01 2.48 7.3
6/25/2021 11:30:00 PM 19.15 66.47 0.12 7.01 4.65 7.27
6/25/2021 11:45:00 PM 19.03 66.254 0.12 7.01 3.1 7.26
6/26/2021 12:00:00 AM 18.95 66.11 0.12 7 4.14 7.23
6/26/2021 12:15:00 AM 18.83 65.894 0.12 6.97 3.99 7.23
6/26/2021 12:30:00 AM 18.75 65.75 0.12 7 2.91 7.24
6/26/2021 12:45:00 AM 18.66 65.588 0.12 6.99 3.1 7.24
6/26/2021 1:00:00 AM 18.59 65.462 0.12 6.99 2.9 7.22
6/26/2021 1:15:00 AM 18.51 65.318 0.12 6.99 4.91 7.21
6/26/2021 1:30:00 AM 18.42 65.156 0.12 6.97 3.47 7.22
6/26/2021 1:45:00 AM 18.35 65.03 0.12 6.99 3.4 7.21
6/26/2021 2:00:00 AM 18.25 64.85 0.12 6.99 2.9 7.24
6/26/2021 2:15:00 AM 18.18 64.724 0.12 6.98 2.99 7.26
6/26/2021 2:30:00 AM 18.1 64.58 0.12 6.98 3.22 7.26
6/26/2021 2:45:00 AM 18.03 64.454 0.12 6.96 3.18 7.26
6/26/2021 3:00:00 AM 17.97 64.346 0.12 6.98 3.96 7.28
6/26/2021 3:15:00 AM 17.9 64.22 0.12 6.98 3.31 7.29
6/26/2021 3:30:00 AM 17.85 64.13 0.12 6.98 2.97 7.28
6/26/2021 3:45:00 AM 17.79 64.022 0.12 6.96 3.26 7.3
6/26/2021 4:00:00 AM 17.71 63.878 0.12 6.97 3.11 7.33
6/26/2021 4:15:00 AM 17.66 63.788 0.12 6.96 2.59 7.36
6/26/2021 4:30:00 AM 17.62 63.716 0.12 6.97 3.49 7.36
6/26/2021 4:45:00 AM 17.59 63.662 0.12 6.97 2.89 7.33
6/26/2021 5:00:00 AM 17.56 63.608 0.12 6.96 3.17 7.35
6/26/2021 5:15:00 AM 17.53 63.554 0.12 6.97 2.96 7.38
6/26/2021 5:30:00 AM 17.51 63.518 0.121 6.97 3.21 7.34
6/26/2021 5:45:00 AM 17.49 63.482 0.121 6.95 2.97 7.36
6/26/2021 6:00:00 AM 17.46 63.428 0.121 6.96 2.73 7.41
6/26/2021 6:15:00 AM 17.44 63.392 0.121 6.98 2.73 7.45
6/26/2021 6:30:00 AM 17.43 63.374 0.121 6.97 2.84 7.44
6/26/2021 6:45:00 AM 17.43 63.374 0.121 6.97 3.31 7.47
6/26/2021 7:00:00 AM 17.44 63.392 0.121 6.98 2.39 7.56
6/26/2021 7:15:00 AM 17.47 63.446 0.121 6.99 2.17 7.66
6/26/2021 7:30:00 AM 17.49 63.482 0.12 6.99 2.43 7.72
6/26/2021 7:45:00 AM 17.52 63.536 0.12 7 2.08 7.79
6/26/2021 8:00:00 AM 17.57 63.626 0.12 7.01 2.06 7.89
6/26/2021 8:15:00 AM 17.63 63.734 0.12 7.01 1.97 8.06
6/26/2021 8:30:00 AM 17.69 63.842 0.12 7.02 2.09 8.15
6/26/2021 8:45:00 AM 17.73 63.914 0.12 7.04 2.12 8.22
6/26/2021 9:00:00 AM 17.8 64.04 0.12 7.03 2.18 8.31
6/26/2021 9:15:00 AM 17.87 64.166 0.12 7.06 2.26 8.46
6/26/2021 9:30:00 AM 17.95 64.31 0.12 7.07 2.34 8.53
6/26/2021 9:45:00 AM 18.05 64.49 0.119 7.08 2.09 8.62
6/26/2021 10:00:00 AM 18.16 64.688 0.119 7.07 1.9 8.71
6/26/2021 10:15:00 AM 18.28 64.904 0.119 7.1 2.07 8.8
6/26/2021 10:30:00 AM 18.38 65.084 0.119 7.12 1.99 8.86
6/26/2021 10:45:00 AM 18.49 65.282 0.119 7.12 1.9 8.93
6/26/2021 11:00:00 AM 18.63 65.534 0.119 7.14 1.81 9
6/26/2021 11:15:00 AM 18.76 65.768 0.119 7.14 1.9 9.06
6/26/2021 11:30:00 AM 18.85 65.93 0.119 7.16 1.92 9.09
6/26/2021 11:45:00 AM 19.06 66.308 0.119 7.17 1.89 9.17
6/26/2021 12:00:00 PM 19.25 66.65 0.119 7.17 1.91 9.21
6/26/2021 12:15:00 PM 19.43 66.974 0.118 7.17 2.25 9.24
6/26/2021 12:30:00 PM 19.61 67.298 0.118 7.19 1.97 9.26
6/26/2021 12:45:00 PM 19.8 67.64 0.118 7.17 2.23 9.29
6/26/2021 1:00:00 PM 19.97 67.946 0.118 7.19 2.02 9.31
6/26/2021 1:15:00 PM 20.15 68.27 0.118 7.2 1.8 9.32
6/26/2021 1:30:00 PM 20.28 68.504 0.118 7.21 1.83 9.32
6/26/2021 1:45:00 PM 20.51 68.918 0.118 7.22 2.2 9.33
6/26/2021 2:00:00 PM 20.72 69.296 0.118 7.22 2.02 9.33
6/26/2021 2:15:00 PM 20.9 69.62 0.118 7.22 1.99 9.31
6/26/2021 2:30:00 PM 20.97 69.746 0.118 7.24 1.8 9.3
6/26/2021 2:45:00 PM 21.23 70.214 0.118 7.23 1.81 9.28
6/26/2021 3:00:00 PM 21.42 70.556 0.118 7.23 1.78 9.27
6/26/2021 3:15:00 PM 21.58 70.844 0.118 7.24 2.41 9.25
6/26/2021 3:30:00 PM 21.61 70.898 0.118 7.25 2.09 9.21
6/26/2021 3:45:00 PM 21.68 71.024 0.118 7.23 1.88 9.17
6/26/2021 4:00:00 PM 21.75 71.15 0.118 7.23 2.06 9.12
6/26/2021 4:15:00 PM 21.84 71.312 0.118 7.24 2.08 9.1
6/26/2021 4:30:00 PM 21.88 71.384 0.118 7.25 2.26 9.08
6/26/2021 4:45:00 PM 21.95 71.51 0.118 7.24 2.37 9.03
6/26/2021 5:00:00 PM 21.96 71.528 0.118 7.24 2.27 9
6/26/2021 5:15:00 PM 22.04 71.672 0.118 7.24 2.76 8.97
6/26/2021 5:30:00 PM 22.08 71.744 0.118 7.24 2.12 8.93
6/26/2021 5:45:00 PM 22.08 71.744 0.118 7.24 2.37 8.88
6/26/2021 6:00:00 PM 22.09 71.762 0.118 7.22 2.28 8.84
6/26/2021 6:15:00 PM 22.06 71.708 0.118 7.22 2.63 8.79
6/26/2021 6:30:00 PM 22.03 71.654 0.118 7.22 2.53 8.72
6/26/2021 6:45:00 PM 21.99 71.582 0.118 7.21 2.45 8.64
6/26/2021 7:00:00 PM 21.97 71.546 0.118 7.18 3.35 8.54
6/26/2021 7:15:00 PM 21.9 71.42 0.118 7.2 3.76 8.51
6/26/2021 7:30:00 PM 21.84 71.312 0.118 7.18 2.71 8.44
6/26/2021 7:45:00 PM 21.79 71.222 0.118 7.15 3.32 8.34
6/26/2021 8:00:00 PM 21.72 71.096 0.118 7.16 2.77 8.23
6/26/2021 8:15:00 PM 21.66 70.988 0.118 7.14 3.37 8.12
6/26/2021 8:30:00 PM 21.6 70.88 0.118 7.12 4.32 8
6/26/2021 8:45:00 PM 21.52 70.736 0.118 7.11 3.93 7.9
6/26/2021 9:00:00 PM 21.42 70.556 0.118 7.09 3.95 7.78
6/26/2021 9:15:00 PM 21.33 70.394 0.119 7.07 2.93 7.66
6/26/2021 9:30:00 PM 21.24 70.232 0.119 7.05 3.62 7.57
6/26/2021 9:45:00 PM 21.13 70.034 0.119 7.04 3.72 7.44
6/26/2021 10:00:00 PM 21.05 69.89 0.119 7.04 3.3 7.36
6/26/2021 10:15:00 PM 20.95 69.71 0.119 7.01 3.06 7.26
6/26/2021 10:30:00 PM 20.86 69.548 0.12 7.01 2.89 7.16
6/26/2021 10:45:00 PM 20.78 69.404 0.12 7 3.63 7.07
6/26/2021 11:00:00 PM 20.68 69.224 0.12 7 3.29 7
6/26/2021 11:15:00 PM 20.59 69.062 0.12 6.99 3.15 6.94
6/26/2021 11:30:00 PM 20.49 68.882 0.12 6.98 3.3 6.89
6/26/2021 11:45:00 PM 20.4 68.72 0.12 6.95 3.72 6.85
6/27/2021 12:00:00 AM 20.32 68.576 0.12 6.96 4.3 6.82
6/27/2021 12:15:00 AM 20.24 68.432 0.121 6.95 6.34 6.79
6/27/2021 12:30:00 AM 20.16 68.288 0.121 6.94 2.83 6.77
6/27/2021 12:45:00 AM 20.11 68.198 0.121 6.94 3.29 6.72
6/27/2021 1:00:00 AM 20.02 68.036 0.121 6.95 2.95 6.74
6/27/2021 1:15:00 AM 19.97 67.946 0.121 6.92 5.79 6.72
6/27/2021 1:30:00 AM 19.92 67.856 0.121 6.95 3.56 6.69
6/27/2021 1:45:00 AM 19.85 67.73 0.121 6.95 2.95 6.72
6/27/2021 2:00:00 AM 19.81 67.658 0.121 6.94 5.02 6.68
6/27/2021 2:15:00 AM 19.75 67.55 0.121 6.94 4.44 6.68
6/27/2021 2:30:00 AM 19.7 67.46 0.121 6.94 4.68 6.69
6/27/2021 2:45:00 AM 19.63 67.334 0.121 6.93 6.58 6.67
6/27/2021 3:00:00 AM 19.58 67.244 0.121 6.93 5.52 6.69
6/27/2021 3:15:00 AM 19.51 67.118 0.121 6.93 5.18 6.72
6/27/2021 3:30:00 AM 19.48 67.064 0.121 6.93 5.55 6.69
6/27/2021 3:45:00 AM 19.41 66.938 0.121 6.93 5.08 6.7
6/27/2021 4:00:00 AM 19.36 66.848 0.121 6.9 4.86 6.73
6/27/2021 4:15:00 AM 19.32 66.776 0.121 6.91 3.47 6.71
6/27/2021 4:30:00 AM 19.26 66.668 0.121 6.91 5.48 6.72
6/27/2021 4:45:00 AM 19.21 66.578 0.121 6.92 5.5 6.72
6/27/2021 5:00:00 AM 19.15 66.47 0.121 6.92 4.54 6.75
6/27/2021 5:15:00 AM 19.09 66.362 0.121 6.92 5.22 6.75
6/27/2021 5:30:00 AM 19.02 66.236 0.122 6.91 9.15 6.78
6/27/2021 5:45:00 AM 18.98 66.164 0.122 6.89 8.69 6.75
6/27/2021 6:00:00 AM 18.93 66.074 0.122 6.92 22.37 6.74
6/27/2021 6:15:00 AM 18.87 65.966 0.122 6.92 7.12 6.81
6/27/2021 6:30:00 AM 18.84 65.912 0.122 6.92 14.85 6.82
6/27/2021 6:45:00 AM 18.81 65.858 0.122 6.91 13.16 6.85
6/27/2021 7:00:00 AM 18.79 65.82201 0.122 6.9 5.83 6.92
6/27/2021 7:15:00 AM 18.78 65.804 0.122 6.91 4.94 7
6/27/2021 7:30:00 AM 18.78 65.804 0.122 6.93 5.1 7.07
6/27/2021 7:45:00 AM 18.78 65.804 0.122 6.93 4.96 7.16
6/27/2021 8:00:00 AM 18.8 65.84 0.122 6.95 4.19 7.32
6/27/2021 8:15:00 AM 18.83 65.894 0.121 6.94 4.21 7.44
6/27/2021 8:30:00 AM 18.9 66.02 0.121 6.95 4.23 7.53
6/27/2021 8:45:00 AM 18.95 66.11 0.121 6.96 3.57 7.64
6/27/2021 9:00:00 AM 19.03 66.254 0.121 6.99 3.44 7.73
6/27/2021 9:15:00 AM 19.11 66.398 0.121 6.99 3.51 7.79
6/27/2021 9:30:00 AM 19.22 66.596 0.121 7 2.93 7.9
6/27/2021 9:45:00 AM 19.31 66.758 0.121 7.02 2.86 7.97
6/27/2021 10:00:00 AM 19.42 66.956 0.121 7.02 3.6 8.01
6/27/2021 10:15:00 AM 19.53 67.154 0.121 7.03 2.81 8.06
6/27/2021 10:30:00 AM 19.65 67.37 0.121 7.04 2.54 8.14
6/27/2021 10:45:00 AM 19.78 67.604 0.121 7.05 3.13 8.2
6/27/2021 11:00:00 AM 19.98 67.964 0.121 7.06 2.18 8.29
6/27/2021 11:15:00 AM 20.09 68.162 0.121 7.06 2.2 8.35
6/27/2021 11:30:00 AM 20.25 68.45 0.121 7.06 2.09 8.4
6/27/2021 11:45:00 AM 20.45 68.81 0.121 7.09 2.04 8.49
6/27/2021 12:00:00 PM 20.67 69.206 0.121 7.07 2.06 8.53
6/27/2021 12:15:00 PM 20.83 69.494 0.12 7.1 8.47 8.61
6/27/2021 12:30:00 PM 21.02 69.836 0.12 7.12 2.35 8.65
6/27/2021 12:45:00 PM 21.18 70.124 0.12 7.12 3.12 8.66
6/27/2021 1:00:00 PM 21.32 70.376 0.12 7.13 2.64 8.7
6/27/2021 1:15:00 PM 21.6 70.88 0.12 7.12 3.69 8.73
6/27/2021 1:30:00 PM 21.77 71.186 0.12 7.15 2.57 8.79
6/27/2021 1:45:00 PM 21.97 71.546 0.12 7.15 3.88 8.81
6/27/2021 2:00:00 PM 22.2 71.96 0.117 7.14 8.04 8.85
6/27/2021 2:15:00 PM 22.39 72.302 0.12 7.17 2.23 8.85
6/27/2021 2:30:00 PM 22.58 72.644 0.12 7.18 2.4 8.83
6/27/2021 2:45:00 PM 22.79 73.022 0.119 7.18 2.08 8.84
6/27/2021 3:00:00 PM 22.99 73.382 0.119 7.18 2.02 8.83
6/27/2021 3:15:00 PM 23.21 73.778 0.119 7.17 2.97 8.83
6/27/2021 3:30:00 PM 23.37 74.066 0.119 7.18 2.02 8.81
6/27/2021 3:45:00 PM 23.56 74.408 0.119 7.18 3.04 8.78
6/27/2021 4:00:00 PM 23.68 74.624 0.119 7.2 2.32 8.74
6/27/2021 4:15:00 PM 23.87 74.966 0.119 7.19 2.3 8.71
6/27/2021 4:30:00 PM 23.9 75.02 0.119 7.19 2.45 8.64
6/27/2021 4:45:00 PM 24.05 75.29 0.119 7.2 4.17 8.59
6/27/2021 5:00:00 PM 24.12 75.416 0.119 7.19 2.65 8.57
6/27/2021 5:15:00 PM 24.22 75.596 0.119 7.2 2.64 8.52
6/27/2021 5:30:00 PM 24.25 75.65 0.119 7.17 2.62 8.46
6/27/2021 5:45:00 PM 24.3 75.74 0.119 7.19 2.41 8.35
6/27/2021 6:00:00 PM 24.32 75.776 0.119 7.18 2.97 8.37
6/27/2021 6:15:00 PM 24.34 75.812 0.119 7.18 4.37 8.3
6/27/2021 6:30:00 PM 24.34 75.812 0.119 7.17 3.83 8.25
6/27/2021 6:45:00 PM 24.34 75.812 0.119 7.15 2.82 8.17
6/27/2021 7:00:00 PM 24.3 75.74 0.119 7.15 3.05 8.11
6/27/2021 7:15:00 PM 24.2 75.56 0.119 7.15 5.1 7.96
6/27/2021 7:30:00 PM 24.14 75.452 0.119 7.14 4.68 7.88
6/27/2021 7:45:00 PM 24.06 75.308 0.119 7.12 3.8 7.8
6/27/2021 8:00:00 PM 23.99 75.182 0.119 7.09 4.63 7.68
6/27/2021 8:15:00 PM 23.91 75.038 0.12 7.1 4.96 7.57
6/27/2021 8:30:00 PM 23.82 74.876 0.12 7.09 5.08 7.49
6/27/2021 8:45:00 PM 23.74 74.732 0.12 7.07 5.58 7.39
6/27/2021 9:00:00 PM 23.61 74.498 0.12 7.04 4.78 7.26
6/27/2021 9:15:00 PM 23.49 74.282 0.12 7.05 6.07 7.13
6/27/2021 9:30:00 PM 23.38 74.084 0.12 7.04 4.69 7.04
6/27/2021 9:45:00 PM 23.26 73.868 0.121 7.02 4.77 6.93
6/27/2021 10:00:00 PM 23.14 73.652 0.121 7.01 5.43 6.82
6/27/2021 10:15:00 PM 23 73.4 0.121 7 5.25 6.71
6/27/2021 10:30:00 PM 22.89 73.202 0.121 6.98 4.34 6.61
6/27/2021 10:45:00 PM 22.75 72.95 0.122 6.97 4.48 6.52
6/27/2021 11:00:00 PM 22.61 72.698 0.122 6.96 4.97 6.42
6/27/2021 11:15:00 PM 22.5 72.5 0.122 6.95 4.42 6.38
6/27/2021 11:30:00 PM 22.37 72.266 0.122 6.95 3.9 6.33
6/27/2021 11:45:00 PM 22.27 72.086 0.122 6.93 4.1 6.28
6/28/2021 12:00:00 AM 22.16 71.888 0.122 6.94 3.29 6.27
6/28/2021 12:15:00 AM 22.06 71.708 0.122 6.93 3.77 6.22
6/28/2021 12:30:00 AM 21.97 71.546 0.122 6.92 3.85 6.2
6/28/2021 12:45:00 AM 21.88 71.384 0.123 6.92 4.56 6.17
6/28/2021 1:00:00 AM 21.78 71.204 0.123 6.89 4.19 6.18
6/28/2021 1:15:00 AM 21.7 71.06 0.123 6.92 4.02 6.16
6/28/2021 1:30:00 AM 21.61 70.898 0.123 6.91 4.55 6.15
6/28/2021 1:45:00 AM 21.53 70.754 0.123 6.89 4.23 6.16
6/28/2021 2:00:00 AM 21.46 70.628 0.123 6.89 3.92 6.13
6/28/2021 2:15:00 AM 21.38 70.484 0.123 6.9 3.53 6.14
6/28/2021 2:30:00 AM 21.31 70.358 0.123 6.88 4.36 6.14
6/28/2021 2:45:00 AM 21.25 70.25 0.123 6.88 3.83 6.14
6/28/2021 3:00:00 AM 21.18 70.124 0.123 6.9 4.32 6.13
6/28/2021 3:15:00 AM 21.1 69.98 0.123 6.89 3.81 6.14
6/28/2021 3:30:00 AM 21.05 69.89 0.123 6.87 4.61 6.13
6/28/2021 3:45:00 AM 20.98 69.764 0.123 6.89 4.33 6.15
6/28/2021 4:00:00 AM 20.91 69.638 0.123 6.89 3.39 6.17
6/28/2021 4:15:00 AM 20.86 69.548 0.123 6.86 4.52 6.17
6/28/2021 4:30:00 AM 20.8 69.44 0.123 6.88 3.93 6.19
6/28/2021 4:45:00 AM 20.74 69.332 0.123 6.88 19.8 6.15
6/28/2021 5:00:00 AM 20.7 69.26 0.123 6.89 5.36 6.18
6/28/2021 5:15:00 AM 20.63 69.134 0.123 6.88 7.55 6.17
6/28/2021 5:30:00 AM 20.58 69.044 0.123 6.87 6.93 6.17
6/28/2021 5:45:00 AM 20.51 68.918 0.123 6.88 18.27 6.19
6/28/2021 6:00:00 AM 20.47 68.846 0.123 6.87 6.34 6.21
6/28/2021 6:15:00 AM 20.43 68.774 0.123 6.89 5.37 6.2
6/28/2021 6:30:00 AM 20.38 68.684 0.123 6.89 4.08 6.25
6/28/2021 6:45:00 AM 20.34 68.612 0.123 6.89 4.69 6.29
6/28/2021 7:00:00 AM 20.3 68.54 0.123 6.87 5.97 6.35
6/28/2021 7:15:00 AM 20.28 68.504 0.123 6.9 3.94 6.41
6/28/2021 7:30:00 AM 20.28 68.504 0.123 6.88 4.92 6.47
6/28/2021 7:45:00 AM 20.26 68.468 0.123 6.9 18.85 6.57
6/28/2021 8:00:00 AM 20.26 68.468 0.123 6.91 5.49 6.67
6/28/2021 8:15:00 AM 20.27 68.486 0.123 6.91 3.94 6.78
6/28/2021 8:30:00 AM 20.32 68.576 0.123 6.91 3.32 6.87
6/28/2021 8:45:00 AM 20.35 68.63 0.123 6.92 2.71 6.96
6/28/2021 9:00:00 AM 20.4 68.72 0.123 6.93 2.36 7.09
6/28/2021 9:15:00 AM 20.46 68.828 0.123 6.95 2.31 7.19
6/28/2021 9:30:00 AM 20.55 68.99 0.123 6.96 2.24 7.27
6/28/2021 9:45:00 AM 20.62 69.116 0.123 6.97 2.44 7.34
6/28/2021 10:00:00 AM 20.73 69.314 0.123 6.97 22.76 7.46
6/28/2021 10:15:00 AM 20.86 69.548 0.123 6.96 2.77 7.57
6/28/2021 10:30:00 AM 20.96 69.728 0.122 7 4.79 7.65
6/28/2021 10:45:00 AM 21.05 69.89 0.122 7 2.57 7.73
6/28/2021 11:00:00 AM 21.21 70.17799 0.122 7.01 2.7 7.85
6/28/2021 11:15:00 AM 21.29 70.32201 0.122 7.01 3.53 7.87
6/28/2021 11:30:00 AM 21.41 70.538 0.122 7 25.22 7.94
6/28/2021 11:45:00 AM 21.58 70.844 0.122 7.04 4.48 8.05
6/28/2021 12:00:00 PM 21.75 71.15 0.122 7.04 2.74 8.11
6/28/2021 12:15:00 PM 22.02 71.636 0.122 7.05 3.06 8.18
6/28/2021 12:30:00 PM 22.2 71.96 0.122 7.04 10.59 8.27
6/28/2021 12:45:00 PM 22.37 72.266 0.122 7.07 6.62 8.3
6/28/2021 1:00:00 PM 22.52 72.536 0.122 7.05 2.02 8.35
6/28/2021 1:15:00 PM 22.73 72.914 0.122 7.08 2.14 8.4
6/28/2021 1:30:00 PM 22.93 73.274 0.121 7.09 2.98 8.43
6/28/2021 1:45:00 PM 23.06 73.508 0.121 7.08 3.31 8.45
6/28/2021 2:00:00 PM 23.36 74.048 0.121 7.1 2.23 8.46
6/28/2021 2:15:00 PM 23.66 74.588 0.121 7.11 3.56 8.48
6/28/2021 2:30:00 PM 23.78 74.804 0.121 7.11 3.39 8.49
6/28/2021 2:45:00 PM 24.05 75.29 0.121 7.12 2.14 8.53
6/28/2021 3:00:00 PM 24.16 75.488 0.121 7.11 5 8.51
6/28/2021 3:15:00 PM 24.36 75.848 0.121 7.12 4.85 8.49
6/28/2021 3:30:00 PM 24.58 76.244 0.121 7.12 2.8 8.48
6/28/2021 3:45:00 PM 24.7 76.46 0.121 7.12 5.51 8.46
6/28/2021 4:00:00 PM 24.86 76.748 0.121 7.13 2.44 8.43
6/28/2021 4:15:00 PM 25.03 77.054 0.121 7.14 3 8.39
6/28/2021 4:30:00 PM 25.1 77.18 0.121 7.11 2.37 8.36
6/28/2021 4:45:00 PM 25.22 77.396 0.121 7.13 5.44 8.33
6/28/2021 5:00:00 PM 25.29 77.522 0.121 7.13 2.89 8.24
6/28/2021 5:15:00 PM 25.32 77.576 0.121 7.1 2.96 8.15
6/28/2021 5:30:00 PM 25.4 77.72 0.121 7.11 2.27 8.11
6/28/2021 5:45:00 PM 25.47 77.846 0.121 7.12 2.88 8.07
6/28/2021 6:00:00 PM 25.36 77.648 0.121 7.1 2.11 7.96
6/28/2021 6:15:00 PM 25.42 77.756 0.121 7.11 2.31 7.89
6/28/2021 6:30:00 PM 25.34 77.612 0.121 7.1 2.28 7.77
6/28/2021 6:45:00 PM 25.35 77.63 0.121 7.09 2.46 7.75
6/28/2021 7:00:00 PM 25.31 77.558 0.121 7.07 2.58 7.66
6/28/2021 7:15:00 PM 25.23 77.414 0.121 7.07 2.79 7.57
6/28/2021 7:30:00 PM 25.16 77.288 0.121 7.06 14.65 7.44
6/28/2021 7:45:00 PM 25.09 77.162 0.121 7.06 4.71 7.37
6/28/2021 8:00:00 PM 25.02 77.036 0.121 7.02 3.76 7.26
6/28/2021 8:15:00 PM 24.94 76.892 0.121 7.02 3.76 7.15
6/28/2021 8:30:00 PM 24.85 76.73 0.121 7.02 6.62 7.02
6/28/2021 8:45:00 PM 24.76 76.568 0.122 7 4.4 6.92
6/28/2021 9:00:00 PM 24.65 76.37 0.122 6.97 3.2 6.79
6/28/2021 9:15:00 PM 24.54 76.172 0.122 6.98 4.15 6.67
6/28/2021 9:30:00 PM 24.41 75.938 0.122 6.95 4.03 6.56
6/28/2021 9:45:00 PM 24.27 75.686 0.123 6.96 3.85 6.44
6/28/2021 10:00:00 PM 24.16 75.488 0.123 6.95 2.83 6.35
6/28/2021 10:15:00 PM 24.04 75.272 0.123 6.94 3.53 6.24
6/28/2021 10:30:00 PM 23.91 75.038 0.123 6.93 3.1 6.15
6/28/2021 10:45:00 PM 23.79 74.82201 0.123 6.91 2.82 6.09
6/28/2021 11:00:00 PM 23.65 74.57 0.124 6.91 3.54 6.01
6/28/2021 11:15:00 PM 23.55 74.39 0.124 6.9 3.85 5.94
6/28/2021 11:30:00 PM 23.44 74.192 0.124 6.91 3.82 5.92
6/28/2021 11:45:00 PM 23.33 73.994 0.124 6.9 4.11 5.86
6/29/2021 12:00:00 AM 23.22 73.796 0.124 6.87 3.42 5.83
6/29/2021 12:15:00 AM 23.11 73.598 0.124 6.9 2.94 5.8
6/29/2021 12:30:00 AM 23.03 73.454 0.124 6.87 3.93 5.76
6/29/2021 12:45:00 AM 22.92 73.256 0.124 6.87 4.18 5.75
6/29/2021 1:00:00 AM 22.84 73.112 0.124 6.87 2.86 5.74
6/29/2021 1:15:00 AM 22.76 72.968 0.124 6.87 3.22 5.72
6/29/2021 1:30:00 AM 22.68 72.824 0.125 6.87 3.28 5.73
6/29/2021 1:45:00 AM 22.59 72.662 0.125 6.88 3.56 5.72
6/29/2021 2:00:00 AM 22.51 72.518 0.125 6.88 3.07 5.72
6/29/2021 2:15:00 AM 22.44 72.392 0.125 6.88 3.15 5.7
6/29/2021 2:30:00 AM 22.36 72.248 0.125 6.86 4.68 5.72
6/29/2021 2:45:00 AM 22.29 72.122 0.125 6.86 3.03 5.72
6/29/2021 3:00:00 AM 22.22 71.996 0.125 6.87 3 5.72
6/29/2021 3:15:00 AM 22.15 71.87 0.125 6.86 3.27 5.73
6/29/2021 3:30:00 AM 22.08 71.744 0.125 6.85 3.17 5.73
6/29/2021 3:45:00 AM 22.01 71.618 0.125 6.86 3.66 5.74
6/29/2021 4:00:00 AM 21.95 71.51 0.125 6.86 3.31 5.75
6/29/2021 4:15:00 AM 21.89 71.402 0.125 6.84 4.52 5.74
6/29/2021 4:30:00 AM 21.83 71.294 0.125 6.86 3.77 5.76
6/29/2021 4:45:00 AM 21.79 71.222 0.125 6.85 4.51 5.74
6/29/2021 5:00:00 AM 21.71 71.078 0.125 6.86 5.04 5.76
6/29/2021 5:15:00 AM 21.66 70.988 0.125 6.86 5.21 5.73
6/29/2021 5:30:00 AM 21.58 70.844 0.125 6.83 6.36 5.79
6/29/2021 5:45:00 AM 21.53 70.754 0.125 6.84 12.52 5.76
6/29/2021 6:00:00 AM 21.47 70.646 0.125 6.86 7.14 5.8
6/29/2021 6:15:00 AM 21.41 70.538 0.125 6.85 5.23 5.8
6/29/2021 6:30:00 AM 21.37 70.466 0.125 6.85 4.66 5.82
6/29/2021 6:45:00 AM 21.32 70.376 0.125 6.85 4.56 5.84
6/29/2021 7:00:00 AM 21.27 70.286 0.125 6.85 4.37 5.93
6/29/2021 7:15:00 AM 21.24 70.232 0.125 6.86 3.59 5.96
6/29/2021 7:30:00 AM 21.21 70.17799 0.125 6.85 4.52 6.03
6/29/2021 7:45:00 AM 21.19 70.142 0.125 6.86 4.31 6.17
6/29/2021 8:00:00 AM 21.17 70.106 0.125 6.88 3.54 6.3
6/29/2021 8:15:00 AM 21.17 70.106 0.125 6.88 2.95 6.37
6/29/2021 8:30:00 AM 21.17 70.106 0.124 6.87 2.63 6.51
6/29/2021 8:45:00 AM 21.21 70.17799 0.124 6.9 2.77 6.59
6/29/2021 9:00:00 AM 21.24 70.232 0.124 6.91 2.65 6.77
6/29/2021 9:15:00 AM 21.29 70.32201 0.124 6.91 3.09 6.83
6/29/2021 9:30:00 AM 21.37 70.466 0.124 6.9 2.25 6.88
6/29/2021 9:45:00 AM 21.46 70.628 0.124 6.91 2.84 6.99
6/29/2021 10:00:00 AM 21.57 70.826 0.124 6.92 7.64 7.12
6/29/2021 10:15:00 AM 21.67 71.006 0.124 6.93 2.63 7.2
6/29/2021 10:30:00 AM 21.76 71.168 0.124 6.95 2.24 7.29
6/29/2021 10:45:00 AM 21.92 71.456 0.124 6.95 5.09 7.4
6/29/2021 11:00:00 AM 22.04 71.672 0.124 6.96 4.7 7.46
6/29/2021 11:15:00 AM 22.22 71.996 0.124 6.98 2.65 7.58
6/29/2021 11:30:00 AM 22.35 72.23 0.124 6.98 3.08 7.58
6/29/2021 11:45:00 AM 22.53 72.554 0.123 6.98 2.31 7.78
6/29/2021 12:00:00 PM 22.69 72.842 0.123 7.01 2.99 7.79
6/29/2021 12:15:00 PM 22.98 73.364 0.123 7.02 4.75 7.94
6/29/2021 12:30:00 PM 23.2 73.76 0.123 7.03 1.86 7.99
6/29/2021 12:45:00 PM 23.32 73.976 0.123 7.02 1.88 8.03
6/29/2021 1:00:00 PM 23.48 74.264 0.123 7.04 1.84 8.05
6/29/2021 1:15:00 PM 23.65 74.57 0.123 7.04 2.1 8.11
6/29/2021 1:30:00 PM 23.96 75.128 0.123 7.05 1.74 8.17
6/29/2021 1:45:00 PM 24.07 75.326 0.123 7.05 1.91 8.21
6/29/2021 2:00:00 PM 24.2 75.56 0.123 7.07 1.78 8.23
6/29/2021 2:15:00 PM 24.41 75.938 0.123 7.07 1.84 8.24
6/29/2021 2:30:00 PM 24.54 76.172 0.123 7.07 2.16 8.25
6/29/2021 2:45:00 PM 24.67 76.406 0.122 7.08 2.01 8.27
6/29/2021 3:00:00 PM 24.97 76.946 0.122 7.08 2.37 8.28
6/29/2021 3:15:00 PM 24.98 76.964 0.122 7.07 2.25 8.25
6/29/2021 3:30:00 PM 25.09 77.162 0.122 7.08 1.96 8.26
6/29/2021 3:45:00 PM 25.27 77.486 0.122 7.08 1.89 8.25
6/29/2021 4:00:00 PM 25.39 77.702 0.122 7.09 1.69 8.2
6/29/2021 4:15:00 PM 25.53 77.954 0.122 7.07 1.82 8.21
6/29/2021 4:30:00 PM 25.71 78.278 0.122 7.1 1.78 8.18
6/29/2021 4:45:00 PM 25.75 78.35 0.122 7.07 2.02 8.15
6/29/2021 5:00:00 PM 25.87 78.566 0.122 7.07 1.93 8.1
6/29/2021 5:15:00 PM 25.94 78.692 0.122 7.07 2.24 8.01
6/29/2021 5:30:00 PM 25.95 78.71 0.122 7.09 1.84 7.98
6/29/2021 5:45:00 PM 26.04 78.872 0.122 7.09 1.75 7.89
6/29/2021 6:00:00 PM 26.13 79.034 0.122 7.08 1.66 7.83
6/29/2021 6:15:00 PM 26.2 79.16 0.122 7.08 2.13 7.8
6/29/2021 6:30:00 PM 26.12 79.016 0.122 7.06 2.13 7.77
6/29/2021 6:45:00 PM 26.08 78.944 0.122 7.07 2.5 7.68
6/29/2021 7:00:00 PM 25.99 78.782 0.122 7.05 2.55 7.52
6/29/2021 7:15:00 PM 25.93 78.674 0.122 7.04 3.08 7.38
6/29/2021 7:30:00 PM 25.89 78.602 0.122 7.03 3.01 7.3
6/29/2021 7:45:00 PM 25.84 78.512 0.122 7.03 3.01 7.2
6/29/2021 8:00:00 PM 25.77 78.386 0.122 7.02 2.98 7.08
6/29/2021 8:15:00 PM 25.69 78.242 0.122 7.01 3.4 6.98
6/29/2021 8:30:00 PM 25.59 78.062 0.123 6.99 2.98 6.84
6/29/2021 8:45:00 PM 25.48 77.864 0.123 6.98 4.29 6.7
6/29/2021 9:00:00 PM 25.38 77.684 0.123 6.95 3.32 6.59
6/29/2021 9:15:00 PM 25.29 77.522 0.123 6.95 3.23 6.49
6/29/2021 9:30:00 PM 25.18 77.324 0.123 6.96 3.98 6.38
6/29/2021 9:45:00 PM 25.07 77.126 0.123 6.92 4.09 6.26
6/29/2021 10:00:00 PM 24.96 76.92799 0.123 6.93 4.69 6.14
6/29/2021 10:15:00 PM 24.85 76.73 0.123 6.93 3.91 6.11
6/29/2021 10:30:00 PM 24.71 76.478 0.123 6.92 3.39 5.99
6/29/2021 10:45:00 PM 24.58 76.244 0.123 6.93 3.31 5.98
6/29/2021 11:00:00 PM 24.46 76.028 0.123 6.93 3.52 5.83
6/29/2021 11:15:00 PM 24.33 75.794 0.123 6.92 3.36 5.88
6/29/2021 11:30:00 PM 24.18 75.524 0.123 6.92 3.38 5.68
6/29/2021 11:45:00 PM 24.03 75.254 0.123 6.92 3.01 5.75
6/30/2021 12:00:00 AM 23.91 75.038 0.123 6.91 3.46 5.76
6/30/2021 12:15:00 AM 23.8 74.84 0.123 6.91 5.55 5.81
6/30/2021 12:30:00 AM 23.69 74.642 0.123 6.91 3.05 5.78
6/30/2021 12:45:00 AM 23.59 74.462 0.123 6.91 3.3 5.77
6/30/2021 1:00:00 AM 23.49 74.282 0.122 6.91 3.28 5.77
6/30/2021 1:15:00 AM 23.41 74.138 0.122 6.9 3.6 5.72
6/30/2021 1:30:00 AM 23.33 73.994 0.123 6.88 2.85 5.68
6/30/2021 1:45:00 AM 23.25 73.85 0.123 6.88 3.41 5.66
6/30/2021 2:00:00 AM 23.16 73.688 0.122 6.9 2.93 5.74
6/30/2021 2:15:00 AM 23.08 73.544 0.122 6.88 3.81 5.72
6/30/2021 2:30:00 AM 23 73.4 0.122 6.89 4.3 5.76
6/30/2021 2:45:00 AM 22.94 73.292 0.123 6.9 4.32 5.77
6/30/2021 3:00:00 AM 22.86 73.148 0.123 6.9 4.05 5.8
6/30/2021 3:15:00 AM 22.77 72.986 0.123 6.91 4.42 5.84
6/30/2021 3:30:00 AM 22.74 72.932 0.123 6.89 4.97 5.79
6/30/2021 3:45:00 AM 22.66 72.788 0.123 6.89 4.79 5.8
6/30/2021 4:00:00 AM 22.6 72.68 0.123 6.9 4.2 5.81
6/30/2021 4:15:00 AM 22.53 72.554 0.123 6.9 4.45 5.83
6/30/2021 4:30:00 AM 22.48 72.464 0.124 6.9 4.29 5.83
6/30/2021 4:45:00 AM 22.4 72.32 0.124 6.9 4.05 5.87
6/30/2021 5:00:00 AM 22.37 72.266 0.124 6.89 5.01 5.82
6/30/2021 5:15:00 AM 22.29 72.122 0.124 6.9 5.35 5.84
6/30/2021 5:30:00 AM 22.21 71.978 0.124 6.9 4.85 5.9
6/30/2021 5:45:00 AM 22.17 71.906 0.124 6.89 4.34 5.85
6/30/2021 6:00:00 AM 22.1 71.78 0.124 6.9 3.39 5.89
6/30/2021 6:15:00 AM 22.04 71.672 0.124 6.9 3.71 5.92
6/30/2021 6:30:00 AM 21.97 71.546 0.124 6.9 5.25 5.97
6/30/2021 6:45:00 AM 21.9 71.42 0.124 6.91 4.85 6.03
6/30/2021 7:00:00 AM 21.88 71.384 0.124 6.91 5.1 6.07
6/30/2021 7:15:00 AM 21.85 71.33 0.124 6.9 4.3 6.16
6/30/2021 7:30:00 AM 21.81 71.258 0.124 6.92 3.94 6.27
6/30/2021 7:45:00 AM 21.78 71.204 0.124 6.93 3.57 6.37
6/30/2021 8:00:00 AM 21.76 71.168 0.124 6.94 3.73 6.48
6/30/2021 8:15:00 AM 21.75 71.15 0.124 6.95 3.14 6.59
6/30/2021 8:30:00 AM 21.75 71.15 0.124 6.96 3.94 6.7
6/30/2021 8:45:00 AM 21.77 71.186 0.124 6.96 4.28 6.68
6/30/2021 9:00:00 AM 21.82 71.276 0.124 6.99 3.13 6.92
6/30/2021 9:15:00 AM 21.86 71.348 0.124 7 2.91 7.02
6/30/2021 9:30:00 AM 21.92 71.456 0.123 7.02 2.94 7.14
6/30/2021 9:45:00 AM 21.99 71.582 0.123 7.04 2.47 7.33
6/30/2021 10:00:00 AM 22.01 71.618 0.123 7.03 3.09 7.31
6/30/2021 10:15:00 AM 22.11 71.798 0.123 7.06 2.69 7.51
6/30/2021 10:30:00 AM 22.25 72.05 0.123 7.08 2.56 7.64
6/30/2021 10:45:00 AM 22.41 72.338 0.122 7.1 2.09 7.81
6/30/2021 11:00:00 AM 22.54 72.57201 0.122 7.11 2.21 7.85
6/30/2021 11:15:00 AM 22.71 72.878 0.122 7.12 2.34 7.93
6/30/2021 11:30:00 AM 22.97 73.346 0.122 7.13 2.25 8.06
6/30/2021 11:45:00 AM 23.2 73.76 0.122 7.15 2.17 8.16
6/30/2021 12:00:00 PM 23.42 74.156 0.121 7.16 2.5 8.22
6/30/2021 12:15:00 PM 23.6 74.48 0.121 7.17 2.09 8.26
6/30/2021 12:30:00 PM 23.88 74.984 0.121 7.19 2.22 8.34
6/30/2021 12:45:00 PM 24.1 75.38 0.121 7.2 2.03 8.37
6/30/2021 1:00:00 PM 24.26 75.668 0.121 7.2 2.07 8.38
6/30/2021 1:15:00 PM 24.5 76.1 0.12 7.21 2.09 8.43
6/30/2021 1:30:00 PM 24.81 76.658 0.12 7.22 2 8.42
6/30/2021 1:45:00 PM 24.96 76.92799 0.12 7.22 2.02 8.41
6/30/2021 2:00:00 PM 25.18 77.324 0.12 7.22 1.87 8.39
6/30/2021 2:15:00 PM 25.42 77.756 0.12 7.23 1.93 8.39
6/30/2021 2:30:00 PM 25.62 78.116 0.12 7.23 2.03 8.38
6/30/2021 2:45:00 PM 25.68 78.224 0.12 7.22 1.95 8.34
6/30/2021 3:00:00 PM 25.75 78.35 0.12 7.22 2.11 8.26
6/30/2021 3:15:00 PM 25.8 78.44 0.119 7.22 2.51 8.15
6/30/2021 3:30:00 PM 25.91 78.638 0.119 7.21 2.02 8.08
6/30/2021 3:45:00 PM 25.91 78.638 0.119 7.22 2.06 8.1
6/30/2021 4:00:00 PM 25.92 78.656 0.119 7.22 2.34 8.05
6/30/2021 4:15:00 PM 25.96 78.728 0.119 7.2 2.45 7.96
6/30/2021 4:30:00 PM 25.91 78.638 0.119 7.2 2.63 7.88
6/30/2021 4:45:00 PM 25.87 78.566 0.119 7.19 2.31 7.79
6/30/2021 5:00:00 PM 25.81 78.458 0.119 7.18 2.87 7.66
6/30/2021 5:15:00 PM 25.71 78.278 0.119 7.16 2.71 7.52
6/30/2021 5:30:00 PM 25.56 78.008 0.119 7.14 3.08 7.4
6/30/2021 5:45:00 PM 25.42 77.756 0.119 7.13 2.76 7.32
6/30/2021 6:00:00 PM 25.28 77.504 0.119 7.13 2.36 7.19
6/30/2021 6:15:00 PM 25.14 77.252 0.119 7.12 2.8 7.11
6/30/2021 6:30:00 PM 24.99 76.982 0.119 7.11 2.75 7
6/30/2021 6:45:00 PM 24.84 76.712 0.118 7.09 2.61 6.91
6/30/2021 7:00:00 PM 24.72 76.496 0.119 7.08 3.66 6.82
6/30/2021 7:15:00 PM 24.57 76.226 0.119 7.07 4.01 6.75
6/30/2021 7:30:00 PM 24.42 75.956 0.118 7.07 3.28 6.7
6/30/2021 7:45:00 PM 24.29 75.722 0.118 7.05 4.29 6.66
6/30/2021 8:00:00 PM 24.14 75.452 0.118 7.05 3.55 6.66
6/30/2021 8:15:00 PM 24.03 75.254 0.118 7.07 3.89 6.63
6/30/2021 8:30:00 PM 23.9 75.02 0.118 7.07 3.34 6.62
6/30/2021 8:45:00 PM 23.79 74.82201 0.118 7.05 4.18 6.59
6/30/2021 9:00:00 PM 23.67 74.606 0.118 7.06 4.93 6.58
6/30/2021 9:15:00 PM 23.57 74.426 0.118 7.05 7.84 6.59
6/30/2021 9:30:00 PM 23.47 74.246 0.118 7.05 10.24 6.59
6/30/2021 9:45:00 PM 23.37 74.066 0.118 7.06 11.17 6.59
6/30/2021 10:00:00 PM 23.24 73.832 0.119 7.08 9.64 6.7
6/30/2021 10:15:00 PM 23.11 73.598 0.119 7.11 9.5 6.86
6/30/2021 10:30:00 PM 23.04 73.472 0.119 7.14 8.22 7
6/30/2021 10:45:00 PM 22.98 73.364 0.119 7.16 8.22 7.12
6/30/2021 11:00:00 PM 22.93 73.274 0.119 7.18 7.26 7.16
6/30/2021 11:15:00 PM 22.86 73.148 0.118 7.2 7.05 7.27
6/30/2021 11:30:00 PM 22.79 73.022 0.119 7.21 8.15 7.32
6/30/2021 11:45:00 PM 22.73 72.914 0.119 7.22 8.33 7.34
7/1/2021 12:00:00 AM 22.67 72.806 0.119 7.23 7.68 7.34
7/1/2021 12:15:00 AM 22.61 72.698 0.118 7.23 7.63 7.35
7/1/2021 12:30:00 AM 22.55 72.59 0.118 7.23 7.31 7.4
7/1/2021 12:45:00 AM 22.49 72.482 0.118 7.23 7.91 7.41
7/1/2021 1:00:00 AM 22.42 72.356 0.118 7.24 7.09 7.47
7/1/2021 1:15:00 AM 22.37 72.266 0.118 7.23 7.1 7.43
7/1/2021 1:30:00 AM 22.31 72.158 0.119 7.23 6.89 7.44
7/1/2021 1:45:00 AM 22.25 72.05 0.119 7.23 7.69 7.43
7/1/2021 2:00:00 AM 22.19 71.942 0.119 7.23 6.51 7.49
7/1/2021 2:15:00 AM 22.13 71.834 0.119 7.23 6.55 7.48
7/1/2021 2:30:00 AM 22.08 71.744 0.119 7.23 6.88 7.48
7/1/2021 2:45:00 AM 22.03 71.654 0.119 7.22 6.61 7.47
7/1/2021 3:00:00 AM 21.97 71.546 0.119 7.22 6.79 7.47
7/1/2021 3:15:00 AM 21.92 71.456 0.119 7.21 6.14 7.5
7/1/2021 3:30:00 AM 21.87 71.366 0.118 7.21 6.36 7.48
7/1/2021 3:45:00 AM 21.82 71.276 0.118 7.21 6.32 7.48
7/1/2021 4:00:00 AM 21.78 71.204 0.118 7.21 6.45 7.49
7/1/2021 4:15:00 AM 21.73 71.114 0.118 7.19 6.49 7.48
7/1/2021 4:30:00 AM 21.69 71.042 0.118 7.2 6.17 7.48
7/1/2021 4:45:00 AM 21.64 70.952 0.118 7.2 6.28 7.48
7/1/2021 5:00:00 AM 21.59 70.862 0.118 7.19 6.2 7.5
7/1/2021 5:15:00 AM 21.55 70.79 0.118 7.2 5.78 7.47
7/1/2021 5:30:00 AM 21.52 70.736 0.118 7.19 6.35 7.46
7/1/2021 5:45:00 AM 21.48 70.664 0.118 7.19 6.86 7.47
7/1/2021 6:00:00 AM 21.44 70.592 0.118 7.19 6.16 7.48
7/1/2021 6:15:00 AM 21.41 70.538 0.118 7.18 5.6 7.48
7/1/2021 6:30:00 AM 21.37 70.466 0.118 7.18 6.21 7.51
7/1/2021 6:45:00 AM 21.32 70.376 0.118 7.18 5.36 7.53
7/1/2021 7:00:00 AM 21.29 70.32201 0.118 7.19 5.1 7.56
7/1/2021 7:15:00 AM 21.26 70.268 0.118 7.19 4.53 7.54
7/1/2021 7:30:00 AM 21.22 70.196 0.118 7.2 4.37 7.61
7/1/2021 7:45:00 AM 21.2 70.16 0.118 7.19 4.26 7.62
7/1/2021 8:00:00 AM 21.17 70.106 0.118 7.2 4.12 7.66
7/1/2021 8:15:00 AM 21.16 70.088 0.118 7.21 4.26 7.73
7/1/2021 8:30:00 AM 21.15 70.07 0.118 7.22 5.22 7.83
7/1/2021 8:45:00 AM 21.14 70.052 0.118 7.23 5.05 7.87
7/1/2021 9:00:00 AM 21.14 70.052 0.118 7.23 4.75 7.93
7/1/2021 9:15:00 AM 21.14 70.052 0.118 7.24 4.4 7.98
7/1/2021 9:30:00 AM 21.13 70.034 0.118 7.24 4.61 7.97
7/1/2021 9:45:00 AM 21.13 70.034 0.118 7.25 4.1 8.02
7/1/2021 10:00:00 AM 21.14 70.052 0.118 7.26 4.36 8.08
7/1/2021 10:15:00 AM 21.17 70.106 0.118 7.27 3.99 8.17
7/1/2021 10:30:00 AM 21.21 70.17799 0.118 7.29 3.75 8.32
7/1/2021 10:45:00 AM 21.24 70.232 0.118 7.29 4.15 8.33
7/1/2021 11:00:00 AM 21.27 70.286 0.119 7.32 3.45 8.39
7/1/2021 11:15:00 AM 21.32 70.376 0.118 7.33 3.65 8.45
7/1/2021 11:30:00 AM 21.36 70.448 0.119 7.35 3.5 8.52
7/1/2021 11:45:00 AM 21.38 70.484 0.119 7.37 3.08 8.58
7/1/2021 12:00:00 PM 21.42 70.556 0.119 7.37 3.27 8.58
7/1/2021 12:15:00 PM 21.46 70.628 0.119 7.39 3.15 8.62
7/1/2021 12:30:00 PM 21.5 70.7 0.119 7.4 3.16 8.65
7/1/2021 12:45:00 PM 21.55 70.79 0.119 7.42 3.13 8.71
7/1/2021 1:00:00 PM 21.61 70.898 0.119 7.44 3.13 8.74
7/1/2021 1:15:00 PM 21.65 70.97 0.119 7.44 2.96 8.75
7/1/2021 1:30:00 PM 21.67 71.006 0.119 7.44 2.79 8.73
7/1/2021 1:45:00 PM 21.67 71.006 0.119 7.45 2.99 8.69
7/1/2021 2:00:00 PM 21.65 70.97 0.12 7.45 3.01 8.66
7/1/2021 2:15:00 PM 21.63 70.934 0.12 7.43 2.98 8.53
7/1/2021 2:30:00 PM 21.6 70.88 0.119 7.42 2.94 8.52
7/1/2021 2:45:00 PM 21.56 70.808 0.119 7.42 3.11 8.47
7/1/2021 3:00:00 PM 21.52 70.736 0.119 7.41 2.81 8.43
7/1/2021 3:15:00 PM 21.46 70.628 0.117 7.4 2.96 8.36
7/1/2021 3:30:00 PM 21.39 70.502 0.116 7.38 2.79 8.3
7/1/2021 3:45:00 PM 21.33 70.394 0.116 7.38 3.05 8.27
7/1/2021 4:00:00 PM 21.26 70.268 0.115 7.38 3.3 8.25
7/1/2021 4:15:00 PM 21.2 70.16 0.114 7.37 7.93 8.2
7/1/2021 4:30:00 PM 21.14 70.052 0.113 7.35 67.3 8.09
7/1/2021 4:45:00 PM 21.07 69.926 0.113 7.32 120.19 7.98
7/1/2021 5:00:00 PM 20.99 69.782 0.112 7.33 77.64 8.04
7/1/2021 5:15:00 PM 20.95 69.71 0.112 7.34 61.1 8.12
7/1/2021 5:30:00 PM 20.87 69.566 0.111 7.35 77.27 8.15
7/1/2021 5:45:00 PM 20.71 69.278 0.111 7.37 213.3 8.23
7/1/2021 6:00:00 PM 20.54 68.972 0.117 7.39 122.05 8.3
7/1/2021 6:15:00 PM 20.38 68.684 0.112 7.38 85.25 8.35
7/1/2021 6:30:00 PM 20.26 68.468 0.106 7.35 89.61 8.38
7/1/2021 6:45:00 PM 20.17 68.306 0.102 7.35 121.14 8.41
7/1/2021 7:00:00 PM 20.09 68.162 0.1 7.34 71.61 8.42
7/1/2021 7:15:00 PM 20.02 68.036 0.099 7.34 65.41 8.44
7/1/2021 7:30:00 PM 19.96 67.92799 0.097 7.33 78.77 8.44
7/1/2021 7:45:00 PM 19.92 67.856 0.096 7.31 85.35 8.42
7/1/2021 8:00:00 PM 19.88 67.784 0.095 7.31 57.7 8.42
7/1/2021 8:15:00 PM 19.85 67.73 0.094 7.3 49.63 8.41
7/1/2021 8:30:00 PM 19.81 67.658 0.093 7.29 47.7 8.41
7/1/2021 8:45:00 PM 19.78 67.604 0.093 7.28 44.4 8.41
7/1/2021 9:00:00 PM 19.74 67.532 0.093 7.28 34.57 8.4
7/1/2021 9:15:00 PM 19.71 67.478 0.093 7.28 39.57 8.39
7/1/2021 9:30:00 PM 19.68 67.424 0.093 7.27 32.36 8.37
7/1/2021 9:45:00 PM 19.66 67.388 0.094 7.27 28.03 8.36
7/1/2021 10:00:00 PM 19.63 67.334 0.095 7.27 31.61 8.37
7/1/2021 10:15:00 PM 19.61 67.298 0.096 7.27 26.29 8.35
7/1/2021 10:30:00 PM 19.59 67.262 0.096 7.27 23.5 8.34
7/1/2021 10:45:00 PM 19.56 67.208 0.097 7.27 23.09 8.34
7/1/2021 11:00:00 PM 19.53 67.154 0.098 7.27 20.71 8.33
7/1/2021 11:15:00 PM 19.51 67.118 0.098 7.26 20.3 8.33
7/1/2021 11:30:00 PM 19.48 67.064 0.099 7.26 18.34 8.32
7/1/2021 11:45:00 PM 19.46 67.028 0.099 7.27 19.15 8.32
7/2/2021 12:00:00 AM 19.43 66.974 0.1 7.26 18.43 8.31
7/2/2021 12:15:00 AM 19.4 66.92 0.1 7.27 16.86 8.32
7/2/2021 12:30:00 AM 19.37 66.866 0.1 7.26 16.53 8.31
7/2/2021 12:45:00 AM 19.35 66.83 0.101 7.26 15.84 8.32
7/2/2021 1:00:00 AM 19.32 66.776 0.101 7.26 15.8 8.32
7/2/2021 1:15:00 AM 19.29 66.722 0.101 7.26 14.77 8.28
7/2/2021 1:30:00 AM 19.27 66.686 0.102 7.26 15.7 8.3
7/2/2021 1:45:00 AM 19.25 66.65 0.102 7.26 13.61 8.31
7/2/2021 2:00:00 AM 19.22 66.596 0.102 7.26 13.05 8.28
7/2/2021 2:15:00 AM 19.2 66.56 0.103 7.26 13.59 8.27
7/2/2021 2:30:00 AM 19.17 66.506 0.103 7.26 12.42 8.31
7/2/2021 2:45:00 AM 19.14 66.452 0.103 7.26 11.83 8.3
7/2/2021 3:00:00 AM 19.12 66.416 0.104 7.26 11.88 8.31
7/2/2021 3:15:00 AM 19.1 66.38 0.104 7.26 11.45 8.3
7/2/2021 3:30:00 AM 19.07 66.326 0.105 7.26 10.99 8.32
7/2/2021 3:45:00 AM 19.05 66.29 0.105 7.26 10.86 8.31
7/2/2021 4:00:00 AM 19.03 66.254 0.106 7.25 10.76 8.3
7/2/2021 4:15:00 AM 19 66.2 0.106 7.26 9.99 8.3
7/2/2021 4:30:00 AM 18.98 66.164 0.107 7.26 10.35 8.31
7/2/2021 4:45:00 AM 18.95 66.11 0.107 7.26 10.44 8.3
7/2/2021 5:00:00 AM 18.93 66.074 0.108 7.26 9.92 8.31
7/2/2021 5:15:00 AM 18.92 66.056 0.109 7.26 9.33 8.24
7/2/2021 5:30:00 AM 18.9 66.02 0.109 7.26 8.76 8.3
7/2/2021 5:45:00 AM 18.88 65.984 0.11 7.26 9.42 8.31
7/2/2021 6:00:00 AM 18.86 65.948 0.111 7.26 8.59 8.3
7/2/2021 6:15:00 AM 18.84 65.912 0.112 7.26 7.91 8.3
7/2/2021 6:30:00 AM 18.83 65.894 0.113 7.27 7.78 8.36
7/2/2021 6:45:00 AM 18.82 65.876 0.114 7.26 7.74 8.38
7/2/2021 7:00:00 AM 18.81 65.858 0.114 7.28 7.59 8.4
7/2/2021 7:15:00 AM 18.82 65.876 0.115 7.29 6.97 8.42
7/2/2021 7:30:00 AM 18.82 65.876 0.116 7.29 6.6 8.46
7/2/2021 7:45:00 AM 18.82 65.876 0.117 7.31 6.9 8.53
7/2/2021 8:00:00 AM 18.84 65.912 0.117 7.33 6.17 8.6
7/2/2021 8:15:00 AM 18.85 65.93 0.118 7.33 6.35 8.58
7/2/2021 8:30:00 AM 18.86 65.948 0.118 7.35 5.8 8.65
7/2/2021 8:45:00 AM 18.88 65.984 0.119 7.36 5.9 8.71
7/2/2021 9:00:00 AM 18.91 66.038 0.119 7.36 5.75 8.71
7/2/2021 9:15:00 AM 18.92 66.056 0.12 7.37 5.45 8.72
7/2/2021 9:30:00 AM 18.93 66.074 0.12 7.36 5.52 8.71
7/2/2021 9:45:00 AM 18.93 66.074 0.12 7.37 5.34 8.69
7/2/2021 10:00:00 AM 18.95 66.11 0.121 7.37 5.08 8.68
7/2/2021 10:15:00 AM 18.96 66.128 0.121 7.37 5.17 8.7
7/2/2021 10:30:00 AM 19 66.2 0.121 7.37 4.98 8.64
7/2/2021 10:45:00 AM 19.06 66.308 0.122 7.39 4.6 8.77
7/2/2021 11:00:00 AM 19.13 66.434 0.122 7.4 4.57 8.81
7/2/2021 11:15:00 AM 19.2 66.56 0.122 7.42 4.3 8.85
7/2/2021 11:30:00 AM 19.34 66.812 0.122 7.44 4.43 8.93
7/2/2021 11:45:00 AM 19.48 67.064 0.122 7.45 4.42 8.96
7/2/2021 12:00:00 PM 19.65 67.37 0.123 7.47 6.02 9
7/2/2021 12:15:00 PM 19.79 67.622 0.123 7.48 4.27 9
7/2/2021 12:30:00 PM 19.91 67.838 0.123 7.5 4.05 9
7/2/2021 12:45:00 PM 20.07 68.126 0.123 7.51 4.02 8.99
7/2/2021 1:00:00 PM 20.19 68.342 0.123 7.5 4.04 8.97
7/2/2021 1:15:00 PM 20.3 68.54 0.124 7.5 3.91 8.96
7/2/2021 1:30:00 PM 20.53 68.954 0.124 7.53 3.87 8.96
7/2/2021 1:45:00 PM 20.76 69.368 0.124 7.54 3.96 8.97
7/2/2021 2:00:00 PM 21.04 69.872 0.124 7.54 3.47 8.95
7/2/2021 2:15:00 PM 21.26 70.268 0.124 7.55 3.53 8.92
7/2/2021 2:30:00 PM 21.5 70.7 0.125 7.56 3.59 8.88
7/2/2021 2:45:00 PM 21.68 71.024 0.125 7.56 3.58 8.9
7/2/2021 3:00:00 PM 21.8 71.24 0.125 7.55 3.74 8.85
7/2/2021 3:15:00 PM 21.95 71.51 0.125 7.56 3.74 8.83
7/2/2021 3:30:00 PM 22.13 71.834 0.126 7.57 3.81 8.79
7/2/2021 3:45:00 PM 22.33 72.194 0.126 7.56 3.61 8.75
7/2/2021 4:00:00 PM 22.51 72.518 0.126 7.56 3.61 8.67
7/2/2021 4:15:00 PM 22.68 72.824 0.126 7.56 3.42 8.59
7/2/2021 4:30:00 PM 22.84 73.112 0.126 7.56 3.43 8.61
7/2/2021 4:45:00 PM 22.9 73.22 0.127 7.54 3.8 8.55
7/2/2021 5:00:00 PM 22.95 73.31 0.127 7.54 3.57 8.51
7/2/2021 5:15:00 PM 22.96 73.328 0.127 7.54 3.51 8.48
7/2/2021 5:30:00 PM 22.85 73.13 0.127 7.54 3.58 8.45
7/2/2021 5:45:00 PM 22.75 72.95 0.127 7.51 3.54 8.39
7/2/2021 6:00:00 PM 22.65 72.77 0.127 7.5 3.65 8.35
7/2/2021 6:15:00 PM 22.51 72.518 0.128 7.49 3.64 8.36
7/2/2021 6:30:00 PM 22.37 72.266 0.128 7.46 3.97 8.22
7/2/2021 6:45:00 PM 22.17 71.906 0.128 7.46 3.72 8.19
7/2/2021 7:00:00 PM 22.01 71.618 0.128 7.43 4.04 8.11
7/2/2021 7:15:00 PM 21.77 71.186 0.128 7.4 3.77 8
7/2/2021 7:30:00 PM 21.4 70.52 0.126 7.38 4.06 7.88
7/2/2021 7:45:00 PM 21.2 70.16 0.126 7.35 4.28 7.92
7/2/2021 8:00:00 PM 20.98 69.764 0.124 7.34 4.51 7.95
7/2/2021 8:15:00 PM 20.88 69.584 0.125 7.32 7.2 7.92
7/2/2021 8:30:00 PM 20.76 69.368 0.125 7.31 45.65 7.87
7/2/2021 8:45:00 PM 20.61 69.098 0.125 7.32 60.54 7.94
7/2/2021 9:00:00 PM 20.46 68.828 0.125 7.33 34.25 8.02
7/2/2021 9:15:00 PM 20 68 0.126 7.37 158.54 8.33
7/2/2021 9:30:00 PM 19.33 66.794 0.114 7.29 260.16 8.52
7/2/2021 9:45:00 PM 18.7 65.66 0.098 7.23 247.6 8.7
7/2/2021 10:00:00 PM 18.15 64.67 0.089 7.08 264.61 8.82
7/2/2021 10:15:00 PM 17.69 63.842 0.083 7.04 281.88 8.91
7/2/2021 10:30:00 PM 17.29 63.122 0.08 7.04 277.88 8.99
7/2/2021 10:45:00 PM 17 62.6 0.079 7.02 240.16 9.06
7/2/2021 11:00:00 PM 16.78 62.204 0.078 7 210.05 9.1
7/2/2021 11:15:00 PM 16.6 61.88 0.078 7.03 137.69 9.13
7/2/2021 11:30:00 PM 16.48 61.664 0.077 7.08 107.29 9.15
7/2/2021 11:45:00 PM 16.41 61.538 0.077 7.12 117.25 9.15
7/3/2021 12:00:00 AM 16.37 61.466 0.077 7.17 80.73 9.16
7/3/2021 12:15:00 AM 16.35 61.43 0.078 7.18 80.29 9.16
7/3/2021 12:30:00 AM 16.32 61.376 0.078 7.19 83.83 9.15
7/3/2021 12:45:00 AM 16.3 61.34 0.079 7.2 60.4 9.15
7/3/2021 1:00:00 AM 16.29 61.322 0.079 7.2 61.49 9.13
7/3/2021 1:15:00 AM 16.31 61.358 0.08 7.21 50.95 9.12
7/3/2021 1:30:00 AM 16.32 61.376 0.081 7.21 43.14 9.12
7/3/2021 1:45:00 AM 16.33 61.394 0.081 7.22 44.39 9.11
7/3/2021 2:00:00 AM 16.34 61.412 0.082 7.22 42.69 9.09
7/3/2021 2:15:00 AM 16.35 61.43 0.083 7.22 41.49 9.08
7/3/2021 2:30:00 AM 16.35 61.43 0.083 7.23 41.16 9.07
7/3/2021 2:45:00 AM 16.36 61.448 0.084 7.23 39.11 9.06
7/3/2021 3:00:00 AM 16.36 61.448 0.085 7.23 52.48 9.06
7/3/2021 3:15:00 AM 16.37 61.466 0.086 7.23 40.77 9.04
7/3/2021 3:30:00 AM 16.39 61.502 0.086 7.23 30.78 9.03
7/3/2021 3:45:00 AM 16.41 61.538 0.087 7.24 36.26 9.02
7/3/2021 4:00:00 AM 16.42 61.556 0.088 7.24 34.72 9
7/3/2021 4:15:00 AM 16.44 61.592 0.089 7.24 28.54 9
7/3/2021 4:30:00 AM 16.45 61.61 0.089 7.24 27.78 8.99
7/3/2021 4:45:00 AM 16.47 61.646 0.09 7.24 26.52 8.97
7/3/2021 5:00:00 AM 16.48 61.664 0.091 7.24 24.07 8.97
7/3/2021 5:15:00 AM 16.48 61.664 0.091 7.24 25.7 8.96
7/3/2021 5:30:00 AM 16.48 61.664 0.092 7.24 22.81 8.97
7/3/2021 5:45:00 AM 16.49 61.682 0.092 7.24 22.07 8.95
7/3/2021 6:00:00 AM 16.51 61.718 0.093 7.24 19.91 8.94
7/3/2021 6:15:00 AM 16.52 61.736 0.093 7.25 19.71 8.94
7/3/2021 6:30:00 AM 16.53 61.754 0.094 7.25 19.16 8.94
7/3/2021 6:45:00 AM 16.54 61.772 0.095 7.25 18.85 8.94
7/3/2021 7:00:00 AM 16.54 61.772 0.095 7.26 17.97 8.95
7/3/2021 7:15:00 AM 16.56 61.808 0.096 7.26 17.46 8.97
7/3/2021 7:30:00 AM 16.58 61.844 0.096 7.27 15.76 8.97
7/3/2021 7:45:00 AM 16.6 61.88 0.097 7.28 15.08 8.99
7/3/2021 8:00:00 AM 16.63 61.934 0.098 7.28 13.46 9.01
7/3/2021 8:15:00 AM 16.66 61.988 0.097 7.29 13.7 9.02
7/3/2021 8:30:00 AM 16.71 62.078 0.097 7.3 13.11 9.06
7/3/2021 8:45:00 AM 16.8 62.24 0.098 7.31 14.07 9.1
7/3/2021 9:00:00 AM 16.86 62.348 0.098 7.32 13.57 9.13
7/3/2021 9:15:00 AM 16.87 62.366 0.098 7.33 12.64 9.14
7/3/2021 9:30:00 AM 16.93 62.474 0.098 7.33 11.74 9.15
7/3/2021 9:45:00 AM 17.05 62.69 0.099 7.35 10.89 9.2
7/3/2021 10:00:00 AM 17.12 62.816 0.099 7.38 11.16 9.23
7/3/2021 10:15:00 AM 17.14 62.852 0.099 7.38 10.41 9.19
7/3/2021 10:30:00 AM 17.21 62.978 0.099 7.39 9.94 9.19
7/3/2021 10:45:00 AM 17.31 63.158 0.099 7.39 9.51 9.19
7/3/2021 11:00:00 AM 17.39 63.302 0.099 7.41 9.32 9.22
7/3/2021 11:15:00 AM 17.57 63.626 0.099 7.4 9 9.23
7/3/2021 11:30:00 AM 17.69 63.842 0.099 7.43 8.77 9.24
7/3/2021 11:45:00 AM 17.78 64.004 0.099 7.43 8.46 9.23
7/3/2021 12:00:00 PM 17.99 64.382 0.1 7.44 8.19 9.22
7/3/2021 12:15:00 PM 18.17 64.706 0.1 7.44 7.79 9.22
7/3/2021 12:30:00 PM 18.41 65.138 0.1 7.47 7.83 9.22
7/3/2021 12:45:00 PM 18.58 65.444 0.1 7.47 7.63 9.21
7/3/2021 1:00:00 PM 18.63 65.534 0.1 7.48 7.35 9.16
7/3/2021 1:15:00 PM 18.72 65.696 0.1 7.48 7.4 9.13
7/3/2021 1:30:00 PM 19.04 66.272 0.1 7.48 6.59 9.11
7/3/2021 1:45:00 PM 19.34 66.812 0.1 7.49 6.88 9.1
7/3/2021 2:00:00 PM 19.61 67.298 0.1 7.5 6.75 9.1
7/3/2021 2:15:00 PM 19.76 67.568 0.101 7.51 6.71 9.02
7/3/2021 2:30:00 PM 19.72 67.496 0.101 7.48 7.02 8.87
7/3/2021 2:45:00 PM 19.66 67.388 0.101 7.46 6.52 8.78
7/3/2021 3:00:00 PM 19.8 67.64 0.101 7.45 6.44 8.8
7/3/2021 3:15:00 PM 19.98 67.964 0.102 7.47 6.1 8.85
7/3/2021 3:30:00 PM 19.97 67.946 0.102 7.47 5.83 8.82
7/3/2021 3:45:00 PM 19.89 67.802 0.102 7.46 6.12 8.76
7/3/2021 4:00:00 PM 19.91 67.838 0.102 7.47 6.08 8.78
7/3/2021 4:15:00 PM 20.04 68.07201 0.102 7.49 6.26 8.84
7/3/2021 4:30:00 PM 20.17 68.306 0.102 7.52 6.79 8.9
7/3/2021 4:45:00 PM 20.11 68.198 0.102 7.51 6.79 8.88
7/3/2021 5:00:00 PM 20.01 68.018 0.101 7.52 7.1 8.85
7/3/2021 5:15:00 PM 19.94 67.892 0.102 7.51 8.12 8.81
7/3/2021 5:30:00 PM 19.91 67.838 0.102 7.51 8.93 8.8
7/3/2021 5:45:00 PM 19.81 67.658 0.102 7.5 11.75 8.76
7/3/2021 6:00:00 PM 19.69 67.442 0.102 7.48 13.14 8.7
7/3/2021 6:15:00 PM 19.6 67.28 0.102 7.47 15.41 8.7
7/3/2021 6:30:00 PM 19.48 67.064 0.101 7.47 19.66 8.7
7/3/2021 6:45:00 PM 19.33 66.794 0.099 7.46 23.63 8.74
7/3/2021 7:00:00 PM 19.17 66.506 0.097 7.45 18.6 8.75
7/3/2021 7:15:00 PM 19.01 66.218 0.096 7.43 23 8.75
7/3/2021 7:30:00 PM 18.89 66.002 0.096 7.41 19.9 8.76
7/3/2021 7:45:00 PM 18.77 65.786 0.095 7.4 23.31 8.75
7/3/2021 8:00:00 PM 18.66 65.588 0.094 7.39 58.11 8.73
7/3/2021 8:15:00 PM 18.55 65.39 0.092 7.37 26.65 8.73
7/3/2021 8:30:00 PM 18.47 65.246 0.092 7.36 24.54 8.74
7/3/2021 8:45:00 PM 18.38 65.084 0.091 7.35 25.13 8.72
7/3/2021 9:00:00 PM 18.3 64.94 0.091 7.34 27.84 8.72
7/3/2021 9:15:00 PM 18.23 64.814 0.091 7.33 22.99 8.72
7/3/2021 9:30:00 PM 18.16 64.688 0.091 7.32 24.12 8.72
7/3/2021 9:45:00 PM 18.09 64.562 0.091 7.31 23.58 8.73
7/3/2021 10:00:00 PM 18.02 64.436 0.091 7.31 21.88 8.72
7/3/2021 10:15:00 PM 17.95 64.31 0.091 7.3 20.95 8.74
7/3/2021 10:30:00 PM 17.89 64.202 0.092 7.3 19.46 8.74
7/3/2021 10:45:00 PM 17.84 64.112 0.092 7.3 18.62 8.74
7/3/2021 11:00:00 PM 17.78 64.004 0.092 7.29 17.56 8.75
7/3/2021 11:15:00 PM 17.73 63.914 0.092 7.29 16.1 8.75
7/3/2021 11:30:00 PM 17.68 63.824 0.093 7.29 15.92 8.76
7/3/2021 11:45:00 PM 17.62 63.716 0.093 7.28 15.57 8.76
7/4/2021 12:00:00 AM 17.56 63.608 0.093 7.28 14.52 8.77
7/4/2021 12:15:00 AM 17.5 63.5 0.093 7.28 14.43 8.77
7/4/2021 12:30:00 AM 17.44 63.392 0.094 7.28 13.61 8.78
7/4/2021 12:45:00 AM 17.39 63.302 0.094 7.27 12.86 8.79
7/4/2021 1:00:00 AM 17.33 63.194 0.094 7.27 13.13 8.79
7/4/2021 1:15:00 AM 17.29 63.122 0.094 7.27 12.48 8.79
7/4/2021 1:30:00 AM 17.25 63.05 0.094 7.27 11.96 8.81
7/4/2021 1:45:00 AM 17.21 62.978 0.094 7.27 11.7 8.81
7/4/2021 2:00:00 AM 17.17 62.906 0.095 7.27 11.27 8.82
7/4/2021 2:15:00 AM 17.12 62.816 0.095 7.27 10.7 8.83
7/4/2021 2:30:00 AM 17.07 62.726 0.095 7.27 10.48 8.83
7/4/2021 2:45:00 AM 17.01 62.618 0.095 7.27 10.12 8.85
7/4/2021 3:00:00 AM 16.96 62.528 0.095 7.27 9.58 8.85
7/4/2021 3:15:00 AM 16.9 62.42 0.096 7.27 10.03 8.86
7/4/2021 3:30:00 AM 16.87 62.366 0.096 7.26 9.88 8.86
7/4/2021 3:45:00 AM 16.82 62.276 0.096 7.26 9.54 8.88
7/4/2021 4:00:00 AM 16.77 62.186 0.096 7.26 9.28 8.88
7/4/2021 4:15:00 AM 16.72 62.096 0.096 7.26 9.03 8.88
7/4/2021 4:30:00 AM 16.66 61.988 0.096 7.26 9.06 8.89
7/4/2021 4:45:00 AM 16.6 61.88 0.097 7.26 9.2 8.9
7/4/2021 5:00:00 AM 16.56 61.808 0.097 7.26 8.82 8.91
7/4/2021 5:15:00 AM 16.51 61.718 0.097 7.26 9.01 8.92
7/4/2021 5:30:00 AM 16.45 61.61 0.097 7.25 12.34 8.93
7/4/2021 5:45:00 AM 16.4 61.52 0.097 7.25 8.82 8.95
7/4/2021 6:00:00 AM 16.35 61.43 0.098 7.26 8.08 8.96
7/4/2021 6:15:00 AM 16.3 61.34 0.098 7.26 8.45 8.98
7/4/2021 6:30:00 AM 16.26 61.268 0.098 7.26 7.61 9.02
7/4/2021 6:45:00 AM 16.23 61.214 0.098 7.27 7.77 9.07
7/4/2021 7:00:00 AM 16.2 61.16 0.098 7.27 8.16 9.11
7/4/2021 7:15:00 AM 16.17 61.106 0.098 7.28 9.02 9.12
7/4/2021 7:30:00 AM 16.14 61.052 0.098 7.29 6.84 9.17
7/4/2021 7:45:00 AM 16.13 61.034 0.099 7.3 6.99 9.22
7/4/2021 8:00:00 AM 16.12 61.016 0.099 7.31 6.54 9.28
7/4/2021 8:15:00 AM 16.14 61.052 0.099 7.32 6.31 9.31
7/4/2021 8:30:00 AM 16.15 61.07 0.099 7.33 5.99 9.32
7/4/2021 8:45:00 AM 16.16 61.088 0.099 7.32 6.67 9.33
7/4/2021 9:00:00 AM 16.21 61.178 0.099 7.34 5.95 9.34
7/4/2021 9:15:00 AM 16.3 61.34 0.099 7.35 5.48 9.37
7/4/2021 9:30:00 AM 16.42 61.556 0.099 7.36 5.66 9.37
7/4/2021 9:45:00 AM 16.5 61.7 0.1 7.37 5.21 9.37
7/4/2021 10:00:00 AM 16.57 61.826 0.1 7.38 5.16 9.37
7/4/2021 10:15:00 AM 16.71 62.078 0.1 7.39 5.26 9.37
7/4/2021 10:30:00 AM 16.93 62.474 0.1 7.4 5.21 9.38
7/4/2021 10:45:00 AM 17.16 62.888 0.1 7.41 5.17 9.38
7/4/2021 11:00:00 AM 17.4 63.32 0.1 7.43 4.78 9.39
7/4/2021 11:15:00 AM 17.75 63.95 0.1 7.46 4.87 9.41
7/4/2021 11:30:00 AM 17.84 64.112 0.1 7.46 5.02 9.37
7/4/2021 11:45:00 AM 17.92 64.256 0.1 7.47 4.92 9.36
7/4/2021 12:00:00 PM 18.2 64.76 0.1 7.49 4.62 9.35
7/4/2021 12:15:00 PM 18.51 65.318 0.1 7.5 4.62 9.34
7/4/2021 12:30:00 PM 18.71 65.67799 0.1 7.51 4.47 9.29
7/4/2021 12:45:00 PM 18.93 66.074 0.1 7.51 4.37 9.26
7/4/2021 1:00:00 PM 19.19 66.542 0.1 7.52 4.57 9.22
7/4/2021 1:15:00 PM 19.36 66.848 0.101 7.53 4.34 9.22
7/4/2021 1:30:00 PM 19.66 67.388 0.101 7.54 4.56 9.24
7/4/2021 1:45:00 PM 19.83 67.694 0.101 7.56 4.38 9.21
7/4/2021 2:00:00 PM 20.06 68.108 0.101 7.57 4.63 9.19
7/4/2021 2:15:00 PM 20.22 68.396 0.101 7.58 4.32 9.14
7/4/2021 2:30:00 PM 20.33 68.594 0.101 7.56 4.63 9.08
7/4/2021 2:45:00 PM 20.42 68.756 0.101 7.57 4.39 9.03
7/4/2021 3:00:00 PM 20.5 68.9 0.101 7.56 4.52 9
7/4/2021 3:15:00 PM 20.62 69.116 0.101 7.56 4.67 8.98
7/4/2021 3:30:00 PM 20.81 69.458 0.101 7.56 4.44 8.99
7/4/2021 3:45:00 PM 20.84 69.512 0.101 7.57 4.72 8.94
7/4/2021 4:00:00 PM 20.82 69.476 0.101 7.56 4.71 8.89
7/4/2021 4:15:00 PM 20.86 69.548 0.101 7.55 4.8 8.86
7/4/2021 4:30:00 PM 20.91 69.638 0.101 7.54 4.41 8.88
7/4/2021 4:45:00 PM 21.01 69.818 0.101 7.55 4.61 8.89
7/4/2021 5:00:00 PM 21.08 69.944 0.101 7.56 4.62 8.88
7/4/2021 5:15:00 PM 21.07 69.926 0.101 7.55 4.45 8.84
7/4/2021 5:30:00 PM 21.02 69.836 0.102 7.53 4.5 8.77
7/4/2021 5:45:00 PM 20.92 69.656 0.102 7.51 4.73 8.71
7/4/2021 6:00:00 PM 20.86 69.548 0.102 7.5 4.42 8.7
7/4/2021 6:15:00 PM 20.84 69.512 0.102 7.49 4.15 8.72
7/4/2021 6:30:00 PM 20.79 69.422 0.102 7.48 4.58 8.68
7/4/2021 6:45:00 PM 20.69 69.242 0.102 7.47 4.46 8.63
7/4/2021 7:00:00 PM 20.58 69.044 0.102 7.45 4.62 8.58
7/4/2021 7:15:00 PM 20.41 68.738 0.102 7.43 4.53 8.52
7/4/2021 7:30:00 PM 20.26 68.468 0.102 7.4 5.03 8.47
7/4/2021 7:45:00 PM 20.12 68.216 0.102 7.38 4.68 8.43
7/4/2021 8:00:00 PM 19.98 67.964 0.103 7.37 4.73 8.4
7/4/2021 8:15:00 PM 19.85 67.73 0.103 7.34 5.74 8.36
7/4/2021 8:30:00 PM 19.72 67.496 0.103 7.33 5.45 8.32
7/4/2021 8:45:00 PM 19.6 67.28 0.103 7.31 4.84 8.3
7/4/2021 9:00:00 PM 19.47 67.046 0.103 7.3 5.03 8.29
7/4/2021 9:15:00 PM 19.37 66.866 0.103 7.28 4.94 8.26
7/4/2021 9:30:00 PM 19.25 66.65 0.103 7.27 4.93 8.27
7/4/2021 9:45:00 PM 19.14 66.452 0.103 7.27 5.06 8.26
7/4/2021 10:00:00 PM 19.03 66.254 0.103 7.25 4.87 8.27
7/4/2021 10:15:00 PM 18.92 66.056 0.104 7.26 4.83 8.29
7/4/2021 10:30:00 PM 18.81 65.858 0.104 7.25 4.86 8.29
7/4/2021 10:45:00 PM 18.71 65.67799 0.104 7.25 5.06 8.31
7/4/2021 11:00:00 PM 18.6 65.48 0.104 7.24 5.04 8.33
7/4/2021 11:15:00 PM 18.49 65.282 0.104 7.24 4.93 8.36
7/4/2021 11:30:00 PM 18.39 65.102 0.104 7.24 5.21 8.38
7/4/2021 11:45:00 PM 18.28 64.904 0.104 7.25 4.89 8.42
7/5/2021 12:00:00 AM 18.19 64.742 0.104 7.24 4.79 8.41
7/5/2021 12:15:00 AM 18.08 64.544 0.105 7.23 4.85 8.44
7/5/2021 12:30:00 AM 17.97 64.346 0.105 7.24 4.84 8.47
7/5/2021 12:45:00 AM 17.87 64.166 0.105 7.24 5.08 8.49
7/5/2021 1:00:00 AM 17.77 63.986 0.105 7.23 5.05 8.5
7/5/2021 1:15:00 AM 17.67 63.806 0.105 7.23 5.53 8.52
7/5/2021 1:30:00 AM 17.57 63.626 0.105 7.23 4.81 8.55
7/5/2021 1:45:00 AM 17.46 63.428 0.105 7.22 4.74 8.58
7/5/2021 2:00:00 AM 17.36 63.248 0.105 7.23 4.74 8.6
7/5/2021 2:15:00 AM 17.28 63.104 0.105 7.22 4.78 8.61
7/5/2021 2:30:00 AM 17.17 62.906 0.106 7.21 4.73 8.64
7/5/2021 2:45:00 AM 17.08 62.744 0.106 7.22 4.81 8.65
7/5/2021 3:00:00 AM 17 62.6 0.106 7.22 4.98 8.66
7/5/2021 3:15:00 AM 16.9 62.42 0.106 7.22 4.87 8.69
7/5/2021 3:30:00 AM 16.82 62.276 0.106 7.22 4.85 8.71
7/5/2021 3:45:00 AM 16.74 62.132 0.106 7.22 4.88 8.72
7/5/2021 4:00:00 AM 16.64 61.952 0.106 7.22 4.7 8.76
7/5/2021 4:15:00 AM 16.56 61.808 0.106 7.22 4.71 8.77
7/5/2021 4:30:00 AM 16.48 61.664 0.106 7.22 4.9 8.76
7/5/2021 4:45:00 AM 16.4 61.52 0.106 7.22 11.81 8.78
7/5/2021 5:00:00 AM 16.32 61.376 0.107 7.21 5.03 8.82
7/5/2021 5:15:00 AM 16.24 61.232 0.107 7.21 4.96 8.84
7/5/2021 5:30:00 AM 16.17 61.106 0.107 7.21 4.79 8.83
7/5/2021 5:45:00 AM 16.09 60.962 0.107 7.21 4.7 8.86
7/5/2021 6:00:00 AM 16.01 60.818 0.107 7.22 4.67 8.91
7/5/2021 6:15:00 AM 15.95 60.71 0.107 7.22 4.48 8.94
7/5/2021 6:30:00 AM 15.89 60.602 0.107 7.22 4.36 9
7/5/2021 6:45:00 AM 15.84 60.512 0.107 7.23 4.23 9.05
7/5/2021 7:00:00 AM 15.79 60.422 0.107 7.23 4.15 9.1
7/5/2021 7:15:00 AM 15.75 60.35 0.107 7.24 4.07 9.16
7/5/2021 7:30:00 AM 15.73 60.314 0.107 7.25 3.85 9.2
7/5/2021 7:45:00 AM 15.71 60.278 0.107 7.26 3.88 9.26
7/5/2021 8:00:00 AM 15.71 60.278 0.107 7.27 3.75 9.3
7/5/2021 8:15:00 AM 15.71 60.278 0.107 7.28 3.74 9.37
7/5/2021 8:30:00 AM 15.74 60.332 0.107 7.3 3.63 9.42
7/5/2021 8:45:00 AM 15.79 60.422 0.107 7.3 3.61 9.43
7/5/2021 9:00:00 AM 15.86 60.548 0.107 7.32 3.51 9.5
7/5/2021 9:15:00 AM 15.96 60.728 0.107 7.33 3.55 9.51
7/5/2021 9:30:00 AM 16.08 60.944 0.107 7.34 3.47 9.53
7/5/2021 9:45:00 AM 16.23 61.214 0.107 7.36 3.38 9.57
7/5/2021 10:00:00 AM 16.4 61.52 0.107 7.37 3.4 9.6
7/5/2021 10:15:00 AM 16.62 61.916 0.107 7.4 3.35 9.62
7/5/2021 10:30:00 AM 16.82 62.276 0.107 7.41 3.35 9.61
7/5/2021 10:45:00 AM 17.07 62.726 0.107 7.43 3.41 9.63
7/5/2021 11:00:00 AM 17.33 63.194 0.107 7.45 3.32 9.64
7/5/2021 11:15:00 AM 17.6 63.68 0.106 7.46 3.35 9.65
7/5/2021 11:30:00 AM 17.85 64.13 0.106 7.48 3.14 9.63
7/5/2021 11:45:00 AM 18.16 64.688 0.106 7.51 3.33 9.64
7/5/2021 12:00:00 PM 18.47 65.246 0.106 7.53 3.22 9.62
7/5/2021 12:15:00 PM 18.77 65.786 0.106 7.55 3.49 9.6
7/5/2021 12:30:00 PM 19.07 66.326 0.106 7.56 3.27 9.57
7/5/2021 12:45:00 PM 19.34 66.812 0.106 7.58 3.36 9.53
7/5/2021 1:00:00 PM 19.62 67.316 0.106 7.59 3.34 9.5
7/5/2021 1:15:00 PM 19.9 67.82 0.106 7.6 3.28 9.47
7/5/2021 1:30:00 PM 20.22 68.396 0.106 7.62 3.28 9.46
7/5/2021 1:45:00 PM 20.57 69.026 0.106 7.64 3.2 9.43
7/5/2021 2:00:00 PM 20.87 69.566 0.106 7.65 3.37 9.4
7/5/2021 2:15:00 PM 21.12 70.016 0.106 7.66 3.22 9.34
7/5/2021 2:30:00 PM 21.4 70.52 0.106 7.67 3.21 9.33
7/5/2021 2:45:00 PM 21.63 70.934 0.106 7.68 3.23 9.29
7/5/2021 3:00:00 PM 21.84 71.312 0.106 7.68 3.3 9.25
7/5/2021 3:15:00 PM 21.99 71.582 0.106 7.69 3.36 9.2
7/5/2021 3:30:00 PM 22.12 71.816 0.106 7.69 3.32 9.17
7/5/2021 3:45:00 PM 22.23 72.014 0.106 7.68 3.29 9.13
7/5/2021 4:00:00 PM 22.34 72.212 0.106 7.69 3.28 9.09
7/5/2021 4:15:00 PM 22.43 72.374 0.107 7.68 3.32 9.05
7/5/2021 4:30:00 PM 22.49 72.482 0.107 7.69 3.3 9.03
7/5/2021 4:45:00 PM 22.52 72.536 0.107 7.67 3.33 8.97
7/5/2021 5:00:00 PM 22.53 72.554 0.107 7.65 3.51 8.93
7/5/2021 5:15:00 PM 22.53 72.554 0.107 7.65 3.49 8.9
7/5/2021 5:30:00 PM 22.5 72.5 0.107 7.63 3.41 8.86
7/5/2021 5:45:00 PM 22.45 72.41 0.107 7.62 3.44 8.83
7/5/2021 6:00:00 PM 22.37 72.266 0.107 7.6 3.41 8.78
7/5/2021 6:15:00 PM 22.29 72.122 0.107 7.58 3.68 8.72
7/5/2021 6:30:00 PM 22.18 71.924 0.107 7.56 3.52 8.68
7/5/2021 6:45:00 PM 22.07 71.726 0.107 7.53 3.38 8.64
7/5/2021 7:00:00 PM 21.97 71.546 0.107 7.51 3.75 8.56
7/5/2021 7:15:00 PM 21.84 71.312 0.108 7.48 3.75 8.48
7/5/2021 7:30:00 PM 21.72 71.096 0.108 7.45 5.75 8.41
7/5/2021 7:45:00 PM 21.6 70.88 0.108 7.42 3.73 8.33
7/5/2021 8:00:00 PM 21.49 70.682 0.108 7.4 3.86 8.26
7/5/2021 8:15:00 PM 21.37 70.466 0.108 7.37 3.58 8.18
7/5/2021 8:30:00 PM 21.27 70.286 0.108 7.33 3.91 8.08
7/5/2021 8:45:00 PM 21.16 70.088 0.108 7.32 3.94 8
7/5/2021 9:00:00 PM 21.05 69.89 0.108 7.3 3.44 7.95
7/5/2021 9:15:00 PM 20.95 69.71 0.109 7.28 3.76 7.89
7/5/2021 9:30:00 PM 20.87 69.566 0.109 7.24 4.36 7.83
7/5/2021 9:45:00 PM 20.77 69.386 0.109 7.23 4.45 7.81
7/5/2021 10:00:00 PM 20.68 69.224 0.109 7.23 4.24 7.81
7/5/2021 10:15:00 PM 20.58 69.044 0.109 7.22 3.85 7.8
7/5/2021 10:30:00 PM 20.5 68.9 0.109 7.22 4 7.8
7/5/2021 10:45:00 PM 20.42 68.756 0.109 7.21 3.74 7.8
7/5/2021 11:00:00 PM 20.33 68.594 0.109 7.21 3.85 7.83
7/5/2021 11:15:00 PM 20.25 68.45 0.109 7.21 3.74 7.84
7/5/2021 11:30:00 PM 20.18 68.324 0.109 7.19 3.81 7.84
7/5/2021 11:45:00 PM 20.1 68.18 0.109 7.2 3.91 7.86
7/6/2021 12:00:00 AM 20.02 68.036 0.11 7.2 4.04 7.87
7/6/2021 12:15:00 AM 19.95 67.91 0.11 7.2 3.85 7.86
7/6/2021 12:30:00 AM 19.87 67.766 0.11 7.2 3.99 7.89
7/6/2021 12:45:00 AM 19.8 67.64 0.11 7.2 3.8 7.9
7/6/2021 1:00:00 AM 19.73 67.514 0.11 7.19 3.99 7.89
7/6/2021 1:15:00 AM 19.66 67.388 0.11 7.19 3.78 7.92
7/6/2021 1:30:00 AM 19.58 67.244 0.11 7.19 3.88 7.95
7/6/2021 1:45:00 AM 19.52 67.136 0.11 7.19 3.74 7.95
7/6/2021 2:00:00 AM 19.46 67.028 0.11 7.19 3.82 7.93
7/6/2021 2:15:00 AM 19.4 66.92 0.11 7.19 3.64 7.97
7/6/2021 2:30:00 AM 19.34 66.812 0.11 7.19 4.43 7.99
7/6/2021 2:45:00 AM 19.27 66.686 0.11 7.19 4.2 8.01
7/6/2021 3:00:00 AM 19.21 66.578 0.11 7.19 3.83 8.02
7/6/2021 3:15:00 AM 19.15 66.47 0.11 7.18 3.94 8.01
7/6/2021 3:30:00 AM 19.09 66.362 0.111 7.18 3.92 8.03
7/6/2021 3:45:00 AM 19.04 66.272 0.111 7.18 4.07 8.05
7/6/2021 4:00:00 AM 18.99 66.182 0.111 7.16 4.05 8.04
7/6/2021 4:15:00 AM 18.93 66.074 0.111 7.19 3.84 8.06
7/6/2021 4:30:00 AM 18.89 66.002 0.111 7.18 3.84 8.04
7/6/2021 4:45:00 AM 18.83 65.894 0.111 7.18 4.46 8.07
7/6/2021 5:00:00 AM 18.77 65.786 0.111 7.18 4.69 8.09
7/6/2021 5:15:00 AM 18.72 65.696 0.111 7.18 3.8 8.11
7/6/2021 5:30:00 AM 18.68 65.624 0.111 7.17 4.01 8.09
7/6/2021 5:45:00 AM 18.63 65.534 0.111 7.17 3.87 8.11
7/6/2021 6:00:00 AM 18.58 65.444 0.111 7.18 3.84 8.15
7/6/2021 6:15:00 AM 18.55 65.39 0.111 7.18 3.63 8.2
7/6/2021 6:30:00 AM 18.51 65.318 0.111 7.19 3.45 8.25
7/6/2021 6:45:00 AM 18.49 65.282 0.111 7.19 3.42 8.25
7/6/2021 7:00:00 AM 18.46 65.228 0.111 7.2 3.46 8.36
7/6/2021 7:15:00 AM 18.44 65.192 0.111 7.22 3.29 8.44
7/6/2021 7:30:00 AM 18.45 65.21 0.111 7.23 3.12 8.49
7/6/2021 7:45:00 AM 18.46 65.228 0.111 7.24 2.98 8.56
7/6/2021 8:00:00 AM 18.47 65.246 0.111 7.25 2.86 8.66
7/6/2021 8:15:00 AM 18.5 65.3 0.111 7.26 2.89 8.74
7/6/2021 8:30:00 AM 18.55 65.39 0.111 7.28 3.02 8.82
7/6/2021 8:45:00 AM 18.61 65.498 0.111 7.3 2.89 8.88
7/6/2021 9:00:00 AM 18.7 65.66 0.111 7.33 2.7 8.96
7/6/2021 9:15:00 AM 18.8 65.84 0.11 7.34 2.76 9.03
7/6/2021 9:30:00 AM 18.9 66.02 0.11 7.36 2.86 9.1
7/6/2021 9:45:00 AM 19.03 66.254 0.11 7.38 2.96 9.18
7/6/2021 10:00:00 AM 19.14 66.452 0.11 7.41 2.75 9.23
7/6/2021 10:15:00 AM 19.3 66.74 0.11 7.44 2.67 9.29
7/6/2021 10:30:00 AM 19.49 67.082 0.11 7.47 2.76 9.31
7/6/2021 10:45:00 AM 19.67 67.406 0.11 7.49 2.67 9.36
7/6/2021 11:00:00 AM 19.83 67.694 0.11 7.51 2.63 9.37
7/6/2021 11:15:00 AM 20.01 68.018 0.11 7.53 2.72 9.4
7/6/2021 11:30:00 AM 20.17 68.306 0.11 7.54 2.61 9.38
7/6/2021 11:45:00 AM 20.38 68.684 0.11 7.56 3.8 9.37
7/6/2021 12:00:00 PM 20.58 69.044 0.11 7.57 2.88 9.35
7/6/2021 12:15:00 PM 20.77 69.386 0.11 7.59 2.6 9.34
7/6/2021 12:30:00 PM 20.93 69.674 0.11 7.6 2.72 9.34
7/6/2021 12:45:00 PM 21.12 70.016 0.11 7.62 2.64 9.33
7/6/2021 1:00:00 PM 21.31 70.358 0.11 7.62 2.69 9.29
7/6/2021 1:15:00 PM 21.52 70.736 0.11 7.64 2.69 9.29
7/6/2021 1:30:00 PM 21.67 71.006 0.11 7.65 2.65 9.25
7/6/2021 1:45:00 PM 21.82 71.276 0.109 7.66 2.7 9.25
7/6/2021 2:00:00 PM 22.04 71.672 0.109 7.67 2.65 9.25
7/6/2021 2:15:00 PM 22.29 72.122 0.109 7.7 2.76 9.24
7/6/2021 2:30:00 PM 22.53 72.554 0.109 7.71 2.68 9.24
7/6/2021 2:45:00 PM 22.72 72.896 0.109 7.73 2.81 9.23
7/6/2021 3:00:00 PM 22.85 73.13 0.109 7.74 2.99 9.19
7/6/2021 3:15:00 PM 22.95 73.31 0.109 7.74 2.56 9.15
7/6/2021 3:30:00 PM 23.01 73.418 0.109 7.72 2.77 9.07
7/6/2021 3:45:00 PM 22.91 73.238 0.108 7.67 3.57 8.83
7/6/2021 4:00:00 PM 22.75 72.95 0.108 7.59 3.11 8.54
7/6/2021 4:15:00 PM 22.63 72.734 0.108 7.51 3.06 8.29
7/6/2021 4:30:00 PM 22.51 72.518 0.107 7.45 3.27 8.13
7/6/2021 4:45:00 PM 22.44 72.392 0.107 7.42 3.36 8.13
7/6/2021 5:00:00 PM 22.39 72.302 0.107 7.41 6.56 8.16
7/6/2021 5:15:00 PM 22.38 72.284 0.107 7.42 13.22 8.24
7/6/2021 5:30:00 PM 22.37 72.266 0.108 7.44 13.45 8.37
7/6/2021 5:45:00 PM 22.4 72.32 0.109 7.47 9.69 8.49
7/6/2021 6:00:00 PM 22.44 72.392 0.109 7.49 7.36 8.57
7/6/2021 6:15:00 PM 22.48 72.464 0.108 7.52 6.57 8.63
7/6/2021 6:30:00 PM 22.46 72.42799 0.108 7.5 6.75 8.6
7/6/2021 6:45:00 PM 22.4 72.32 0.107 7.49 6.62 8.47
7/6/2021 7:00:00 PM 22.29 72.122 0.107 7.46 6.63 8.31
7/6/2021 7:15:00 PM 22.16 71.888 0.106 7.42 6.15 8.21
7/6/2021 7:30:00 PM 22.03 71.654 0.106 7.4 5.09 8.18
7/6/2021 7:45:00 PM 21.94 71.492 0.106 7.38 4.91 8.11
7/6/2021 8:00:00 PM 21.86 71.348 0.107 7.36 4.82 8.08
7/6/2021 8:15:00 PM 21.79 71.222 0.108 7.35 5.56 8.03
7/6/2021 8:30:00 PM 21.71 71.078 0.108 7.35 5.45 8.03
7/6/2021 8:45:00 PM 21.64 70.952 0.108 7.32 5.15 7.95
7/6/2021 9:00:00 PM 21.56 70.808 0.109 7.3 4.74 7.84
7/6/2021 9:15:00 PM 21.48 70.664 0.109 7.29 4.6 7.83
7/6/2021 9:30:00 PM 21.41 70.538 0.109 7.28 7.52 7.79
7/6/2021 9:45:00 PM 21.35 70.43 0.108 7.26 4.41 7.74
7/6/2021 10:00:00 PM 21.27 70.286 0.108 7.25 4.28 7.76
7/6/2021 10:15:00 PM 21.21 70.17799 0.108 7.25 4.27 7.76
7/6/2021 10:30:00 PM 21.14 70.052 0.107 7.25 4.37 7.76
7/6/2021 10:45:00 PM 21.07 69.926 0.107 7.24 4.26 7.77
7/6/2021 11:00:00 PM 21.01 69.818 0.107 7.24 4.06 7.78
7/6/2021 11:15:00 PM 20.95 69.71 0.107 7.23 4.39 7.77
7/6/2021 11:30:00 PM 20.89 69.602 0.107 7.23 5.2 7.77
7/6/2021 11:45:00 PM 20.83 69.494 0.107 7.22 4.4 7.77
7/7/2021 12:00:00 AM 20.76 69.368 0.108 7.22 4.2 7.77
7/7/2021 12:15:00 AM 20.69 69.242 0.108 7.22 4.13 7.77
7/7/2021 12:30:00 AM 20.63 69.134 0.108 7.22 4.52 7.79
7/7/2021 12:45:00 AM 20.55 68.99 0.109 7.22 4.26 7.82
7/7/2021 1:00:00 AM 20.5 68.9 0.109 7.2 4.16 7.8
7/7/2021 1:15:00 AM 20.43 68.774 0.109 7.21 3.91 7.82
7/7/2021 1:30:00 AM 20.38 68.684 0.109 7.21 4.18 7.82
7/7/2021 1:45:00 AM 20.32 68.576 0.109 7.2 4.1 7.82
7/7/2021 2:00:00 AM 20.26 68.468 0.109 7.2 4.21 7.83
7/7/2021 2:15:00 AM 20.18 68.324 0.109 7.21 3.83 7.88
7/7/2021 2:30:00 AM 20.13 68.234 0.109 7.2 3.99 7.85
7/7/2021 2:45:00 AM 20.06 68.108 0.109 7.2 3.75 7.86
7/7/2021 3:00:00 AM 19.99 67.982 0.109 7.19 3.83 7.91
7/7/2021 3:15:00 AM 19.93 67.874 0.109 7.19 4.05 7.88
7/7/2021 3:30:00 AM 19.87 67.766 0.11 7.19 4.12 7.9
7/7/2021 3:45:00 AM 19.81 67.658 0.11 7.19 4.04 7.91
7/7/2021 4:00:00 AM 19.75 67.55 0.11 7.19 3.91 7.93
7/7/2021 4:15:00 AM 19.69 67.442 0.11 7.18 3.98 7.92
7/7/2021 4:30:00 AM 19.64 67.352 0.11 7.18 4.01 7.95
7/7/2021 4:45:00 AM 19.57 67.226 0.11 7.18 4.04 7.98
7/7/2021 5:00:00 AM 19.53 67.154 0.11 7.16 5.73 7.96
7/7/2021 5:15:00 AM 19.48 67.064 0.11 7.17 4.21 7.97
7/7/2021 5:30:00 AM 19.44 66.992 0.11 7.18 4.09 7.98
7/7/2021 5:45:00 AM 19.39 66.902 0.11 7.18 4.71 7.99
7/7/2021 6:00:00 AM 19.35 66.83 0.11 7.18 3.81 8.02
7/7/2021 6:15:00 AM 19.32 66.776 0.11 7.18 4.06 8.03
7/7/2021 6:30:00 AM 19.29 66.722 0.11 7.18 3.73 8.06
7/7/2021 6:45:00 AM 19.26 66.668 0.11 7.19 3.83 8.13
7/7/2021 7:00:00 AM 19.24 66.632 0.11 7.2 3.46 8.22
7/7/2021 7:15:00 AM 19.21 66.578 0.11 7.22 3.34 8.36
7/7/2021 7:30:00 AM 19.21 66.578 0.11 7.23 3.5 8.42
7/7/2021 7:45:00 AM 19.21 66.578 0.11 7.25 3.19 8.54
7/7/2021 8:00:00 AM 19.23 66.614 0.11 7.27 3.3 8.64
7/7/2021 8:15:00 AM 19.24 66.632 0.11 7.28 3.27 8.71
7/7/2021 8:30:00 AM 19.27 66.686 0.11 7.3 3.28 8.82
7/7/2021 8:45:00 AM 19.32 66.776 0.11 7.32 3.21 8.9
7/7/2021 9:00:00 AM 19.36 66.848 0.11 7.34 3.03 8.92
7/7/2021 9:15:00 AM 19.42 66.956 0.11 7.35 3 9
7/7/2021 9:30:00 AM 19.51 67.118 0.11 7.37 2.9 9.06
7/7/2021 9:45:00 AM 19.6 67.28 0.11 7.4 2.92 9.16
7/7/2021 10:00:00 AM 19.67 67.406 0.11 7.42 2.87 9.21
7/7/2021 10:15:00 AM 19.77 67.586 0.11 7.44 2.87 9.26
7/7/2021 10:30:00 AM 19.92 67.856 0.11 7.47 2.8 9.32
7/7/2021 10:45:00 AM 20.15 68.27 0.11 7.51 2.78 9.36
7/7/2021 11:00:00 AM 20.37 68.666 0.11 7.53 2.76 9.39
7/7/2021 11:15:00 AM 20.54 68.972 0.11 7.55 2.74 9.37
7/7/2021 11:30:00 AM 20.76 69.368 0.11 7.57 2.93 9.42
7/7/2021 11:45:00 AM 20.98 69.764 0.11 7.6 2.75 9.43
7/7/2021 12:00:00 PM 21.2 70.16 0.11 7.61 2.7 9.43
7/7/2021 12:15:00 PM 21.43 70.574 0.11 7.65 2.67 9.43
7/7/2021 12:30:00 PM 21.67 71.006 0.11 7.65 2.77 9.42
7/7/2021 12:45:00 PM 21.93 71.474 0.11 7.68 2.77 9.39
7/7/2021 1:00:00 PM 22.23 72.014 0.11 7.69 2.6 9.38
7/7/2021 1:15:00 PM 22.53 72.554 0.11 7.72 2.62 9.37
7/7/2021 1:30:00 PM 22.79 73.022 0.11 7.75 2.71 9.33
7/7/2021 1:45:00 PM 22.94 73.292 0.11 7.74 2.75 9.27
7/7/2021 2:00:00 PM 23.15 73.67 0.11 7.76 2.75 9.24
7/7/2021 2:15:00 PM 23.36 74.048 0.11 7.77 2.72 9.23
7/7/2021 2:30:00 PM 23.62 74.516 0.11 7.8 2.61 9.22
7/7/2021 2:45:00 PM 23.84 74.912 0.11 7.82 2.61 9.21
7/7/2021 3:00:00 PM 24.03 75.254 0.11 7.83 2.64 9.18
7/7/2021 3:15:00 PM 24.2 75.56 0.11 7.84 2.65 9.15
7/7/2021 3:30:00 PM 24.34 75.812 0.11 7.84 2.71 9.12
7/7/2021 3:45:00 PM 24.47 76.046 0.11 7.84 2.74 9.07
7/7/2021 4:00:00 PM 24.56 76.208 0.11 7.84 2.74 9.03
7/7/2021 4:15:00 PM 24.64 76.352 0.11 7.82 2.76 8.97
7/7/2021 4:30:00 PM 24.71 76.478 0.11 7.81 2.74 8.93
7/7/2021 4:45:00 PM 24.73 76.514 0.11 7.82 3.06 8.88
7/7/2021 5:00:00 PM 24.71 76.478 0.11 7.78 3.15 8.82
7/7/2021 5:15:00 PM 24.68 76.424 0.11 7.75 2.75 8.72
7/7/2021 5:30:00 PM 24.63 76.334 0.11 7.72 2.88 8.67
7/7/2021 5:45:00 PM 24.57 76.226 0.11 7.71 2.56 8.66
7/7/2021 6:00:00 PM 24.54 76.172 0.11 7.68 3 8.6
7/7/2021 6:15:00 PM 24.49 76.082 0.11 7.65 2.96 8.55
7/7/2021 6:30:00 PM 24.39 75.902 0.11 7.63 2.64 8.51
7/7/2021 6:45:00 PM 24.3 75.74 0.11 7.59 2.97 8.41
7/7/2021 7:00:00 PM 24.17 75.506 0.11 7.56 4.37 8.34
7/7/2021 7:15:00 PM 24.03 75.254 0.111 7.53 2.61 8.26
7/7/2021 7:30:00 PM 23.87 74.966 0.111 7.48 2.66 8.09
7/7/2021 7:45:00 PM 23.73 74.714 0.111 7.45 2.84 8.03
7/7/2021 8:00:00 PM 23.6 74.48 0.111 7.4 2.99 7.87
7/7/2021 8:15:00 PM 23.45 74.21 0.112 7.36 3.26 7.7
7/7/2021 8:30:00 PM 23.32 73.976 0.112 7.3 2.96 7.58
7/7/2021 8:45:00 PM 23.2 73.76 0.112 7.3 3.32 7.48
7/7/2021 9:00:00 PM 23.07 73.526 0.112 7.28 2.97 7.41
7/7/2021 9:15:00 PM 22.97 73.346 0.112 7.25 3.07 7.35
7/7/2021 9:30:00 PM 22.87 73.166 0.112 7.24 2.98 7.31
7/7/2021 9:45:00 PM 22.76 72.968 0.112 7.22 2.94 7.28
7/7/2021 10:00:00 PM 22.66 72.788 0.112 7.21 3.36 7.25
7/7/2021 10:15:00 PM 22.52 72.536 0.112 7.22 2.95 7.26
7/7/2021 10:30:00 PM 22.4 72.32 0.111 7.21 2.97 7.34
7/7/2021 10:45:00 PM 22.29 72.122 0.111 7.2 3.22 7.28
7/7/2021 11:00:00 PM 22.19 71.942 0.111 7.2 8.07 7.31
7/7/2021 11:15:00 PM 22.08 71.744 0.111 7.2 3.07 7.34
7/7/2021 11:30:00 PM 21.98 71.564 0.111 7.2 3.33 7.38
7/7/2021 11:45:00 PM 21.9 71.42 0.111 7.2 3.73 7.37
7/8/2021 12:00:00 AM 21.81 71.258 0.11 7.2 4.48 7.4
7/8/2021 12:15:00 AM 21.71 71.078 0.111 7.21 4.24 7.45
7/8/2021 12:30:00 AM 21.62 70.916 0.111 7.2 4.16 7.43
7/8/2021 12:45:00 AM 21.53 70.754 0.111 7.19 4.21 7.46
7/8/2021 1:00:00 AM 21.42 70.556 0.11 7.2 5.27 7.52
7/8/2021 1:15:00 AM 21.29 70.32201 0.11 7.22 7.8 7.64
7/8/2021 1:30:00 AM 21.2 70.16 0.109 7.25 8.01 7.73
7/8/2021 1:45:00 AM 21.08 69.944 0.108 7.26 8.69 7.81
7/8/2021 2:00:00 AM 20.93 69.674 0.106 7.28 9.25 7.92
7/8/2021 2:15:00 AM 20.8 69.44 0.105 7.28 12.71 7.98
7/8/2021 2:30:00 AM 20.66 69.188 0.103 7.3 15.36 8.05
7/8/2021 2:45:00 AM 20.54 68.972 0.102 7.3 16.85 8.11
7/8/2021 3:00:00 AM 20.44 68.792 0.102 7.3 17.9 8.15
7/8/2021 3:15:00 AM 20.35 68.63 0.102 7.3 18.52 8.18
7/8/2021 3:30:00 AM 20.26 68.468 0.102 7.3 18.1 8.21
7/8/2021 3:45:00 AM 20.18 68.324 0.102 7.29 16.67 8.21
7/8/2021 4:00:00 AM 20.1 68.18 0.101 7.29 16.48 8.24
7/8/2021 4:15:00 AM 20.04 68.07201 0.1 7.28 16.29 8.22
7/8/2021 4:30:00 AM 19.99 67.982 0.1 7.28 17.63 8.25
7/8/2021 4:45:00 AM 19.94 67.892 0.099 7.28 17.03 8.27
7/8/2021 5:00:00 AM 19.89 67.802 0.099 7.28 17.02 8.28
7/8/2021 5:15:00 AM 19.84 67.712 0.1 7.28 17.5 8.28
7/8/2021 5:30:00 AM 19.79 67.622 0.1 7.28 15.87 8.29
7/8/2021 5:45:00 AM 19.74 67.532 0.1 7.28 16.23 8.29
7/8/2021 6:00:00 AM 19.7 67.46 0.1 7.28 15.01 8.31
7/8/2021 6:15:00 AM 19.65 67.37 0.101 7.27 14.71 8.32
7/8/2021 6:30:00 AM 19.62 67.316 0.101 7.28 14.28 8.33
7/8/2021 6:45:00 AM 19.58 67.244 0.101 7.28 13.62 8.37
7/8/2021 7:00:00 AM 19.54 67.172 0.101 7.29 12.61 8.39
7/8/2021 7:15:00 AM 19.53 67.154 0.101 7.29 12.2 8.44
7/8/2021 7:30:00 AM 19.52 67.136 0.101 7.3 12.16 8.5
7/8/2021 7:45:00 AM 19.51 67.118 0.102 7.31 10.9 8.56
7/8/2021 8:00:00 AM 19.53 67.154 0.102 7.33 10.18 8.63
7/8/2021 8:15:00 AM 19.55 67.19 0.102 7.34 10.04 8.68
7/8/2021 8:30:00 AM 19.57 67.226 0.103 7.36 9.12 8.73
7/8/2021 8:45:00 AM 19.6 67.28 0.103 7.37 8.53 8.78
7/8/2021 9:00:00 AM 19.65 67.37 0.103 7.39 8.22 8.8
7/8/2021 9:15:00 AM 19.72 67.496 0.103 7.41 7.95 8.86
7/8/2021 9:30:00 AM 19.77 67.586 0.103 7.42 8.3 8.91
7/8/2021 9:45:00 AM 19.85 67.73 0.103 7.45 7.63 8.97
7/8/2021 10:00:00 AM 19.91 67.838 0.103 7.46 7.45 8.97
7/8/2021 10:15:00 AM 19.97 67.946 0.103 7.47 6.9 8.95
7/8/2021 10:30:00 AM 20.06 68.108 0.103 7.5 6.59 9.04
7/8/2021 10:45:00 AM 20.13 68.234 0.103 7.51 6.17 9.05
7/8/2021 11:00:00 AM 20.26 68.468 0.103 7.53 6.12 9.12
7/8/2021 11:15:00 AM 20.42 68.756 0.103 7.55 6.05 9.15
7/8/2021 11:30:00 AM 20.55 68.99 0.103 7.59 5.64 9.18
7/8/2021 11:45:00 AM 20.64 69.152 0.103 7.61 5.56 9.19
7/8/2021 12:00:00 PM 20.72 69.296 0.103 7.62 5.32 9.15
7/8/2021 12:15:00 PM 20.77 69.386 0.104 7.61 5.16 9.1
7/8/2021 12:30:00 PM 20.83 69.494 0.104 7.6 5.2 9.09
7/8/2021 12:45:00 PM 20.85 69.53 0.104 7.62 4.78 9.05
7/8/2021 1:00:00 PM 20.84 69.512 0.104 7.59 4.77 8.96
7/8/2021 1:15:00 PM 20.87 69.566 0.104 7.58 4.6 8.93
7/8/2021 1:30:00 PM 20.92 69.656 0.104 7.59 4.34 8.97
7/8/2021 1:45:00 PM 20.97 69.746 0.104 7.6 9.78 8.99
7/8/2021 2:00:00 PM 21.03 69.854 0.104 7.62 4.26 9.04
7/8/2021 2:15:00 PM 21.1 69.98 0.104 7.64 4.04 9.06
7/8/2021 2:30:00 PM 21.2 70.16 0.104 7.67 4.16 9.14
7/8/2021 2:45:00 PM 21.28 70.304 0.104 7.69 3.98 9.17
7/8/2021 3:00:00 PM 21.36 70.448 0.104 7.72 3.93 9.21
7/8/2021 3:15:00 PM 21.42 70.556 0.104 7.72 3.92 9.17
7/8/2021 3:30:00 PM 21.43 70.574 0.104 7.71 4.01 9.1
7/8/2021 3:45:00 PM 21.43 70.574 0.104 7.69 3.99 9.02
7/8/2021 4:00:00 PM 21.43 70.574 0.104 7.66 3.77 8.96
7/8/2021 4:15:00 PM 21.44 70.592 0.104 7.64 3.93 8.92
7/8/2021 4:30:00 PM 21.47 70.646 0.104 7.64 3.83 8.93
7/8/2021 4:45:00 PM 21.51 70.718 0.105 7.65 3.69 8.96
7/8/2021 5:00:00 PM 21.51 70.718 0.105 7.65 3.61 8.9
7/8/2021 5:15:00 PM 21.47 70.646 0.105 7.6 3.66 8.76
7/8/2021 5:30:00 PM 21.44 70.592 0.105 7.57 3.72 8.68
7/8/2021 5:45:00 PM 21.42 70.556 0.106 7.55 3.69 8.64
7/8/2021 6:00:00 PM 21.37 70.466 0.106 7.52 3.66 8.56
7/8/2021 6:15:00 PM 21.33 70.394 0.107 7.49 3.68 8.43
7/8/2021 6:30:00 PM 21.28 70.304 0.107 7.46 3.85 8.34
7/8/2021 6:45:00 PM 21.24 70.232 0.108 7.43 3.7 8.24
7/8/2021 7:00:00 PM 21.2 70.16 0.108 7.41 3.74 8.24
7/8/2021 7:15:00 PM 21.17 70.106 0.108 7.4 3.81 8.25
7/8/2021 7:30:00 PM 21.15 70.07 0.109 7.39 3.9 8.21
7/8/2021 7:45:00 PM 21.11 69.998 0.109 7.38 3.95 8.2
7/8/2021 8:00:00 PM 21.06 69.908 0.11 7.37 4.34 8.14
7/8/2021 8:15:00 PM 21.01 69.818 0.11 7.35 4.05 8.08
7/8/2021 8:30:00 PM 20.95 69.71 0.111 7.33 3.93 8.03
7/8/2021 8:45:00 PM 20.89 69.602 0.111 7.33 4.16 8.01
7/8/2021 9:00:00 PM 20.83 69.494 0.111 7.32 3.85 7.99
7/8/2021 9:15:00 PM 20.77 69.386 0.112 7.31 4.04 7.96
7/8/2021 9:30:00 PM 20.72 69.296 0.112 7.3 4 7.95
7/8/2021 9:45:00 PM 20.67 69.206 0.112 7.3 4.43 7.94
7/8/2021 10:00:00 PM 20.62 69.116 0.113 7.28 4.62 7.94
7/8/2021 10:15:00 PM 20.58 69.044 0.113 7.29 4.73 7.95
7/8/2021 10:30:00 PM 20.53 68.954 0.113 7.29 4.78 7.95
7/8/2021 10:45:00 PM 20.49 68.882 0.114 7.28 4.98 7.94
7/8/2021 11:00:00 PM 20.45 68.81 0.114 7.28 4.58 7.95
7/8/2021 11:15:00 PM 20.41 68.738 0.114 7.27 4.51 7.99
7/8/2021 11:30:00 PM 20.37 68.666 0.114 7.28 4.58 7.95
7/8/2021 11:45:00 PM 20.33 68.594 0.115 7.28 4.73 7.99
7/9/2021 12:00:00 AM 20.29 68.522 0.115 7.28 4.51 8.01
7/9/2021 12:15:00 AM 20.26 68.468 0.115 7.28 4.45 8.03
7/9/2021 12:30:00 AM 20.22 68.396 0.115 7.28 4.48 8.03
7/9/2021 12:45:00 AM 20.19 68.342 0.115 7.28 4.39 8.03
7/9/2021 1:00:00 AM 20.15 68.27 0.115 7.28 4.38 8.05
7/9/2021 1:15:00 AM 20.12 68.216 0.116 7.28 4.58 8.06
7/9/2021 1:30:00 AM 20.09 68.162 0.116 7.29 4.68 8.08
7/9/2021 1:45:00 AM 20.06 68.108 0.116 7.28 4.55 8.08
7/9/2021 2:00:00 AM 20.03 68.054 0.116 7.28 4.8 8.08
7/9/2021 2:15:00 AM 19.99 67.982 0.116 7.29 4.5 8.1
7/9/2021 2:30:00 AM 19.97 67.946 0.116 7.28 4.47 8.09
7/9/2021 2:45:00 AM 19.94 67.892 0.116 7.29 4.84 8.11
7/9/2021 3:00:00 AM 19.91 67.838 0.116 7.28 5.05 8.11
7/9/2021 3:15:00 AM 19.87 67.766 0.116 7.28 4.69 8.11
7/9/2021 3:30:00 AM 19.83 67.694 0.116 7.28 4.64 8.12
7/9/2021 3:45:00 AM 19.8 67.64 0.116 7.28 4.58 8.13
7/9/2021 4:00:00 AM 19.77 67.586 0.116 7.28 4.6 8.13
7/9/2021 4:15:00 AM 19.74 67.532 0.116 7.27 4.67 8.12
7/9/2021 4:30:00 AM 19.7 67.46 0.116 7.27 4.62 8.14
7/9/2021 4:45:00 AM 19.66 67.388 0.116 7.26 4.85 8.14
7/9/2021 5:00:00 AM 19.62 67.316 0.116 7.26 5.83 8.14
7/9/2021 5:15:00 AM 19.58 67.244 0.116 7.26 4.54 8.15
7/9/2021 5:30:00 AM 19.55 67.19 0.117 7.25 4.99 8.15
7/9/2021 5:45:00 AM 19.53 67.154 0.117 7.26 4.85 8.14
7/9/2021 6:00:00 AM 19.5 67.1 0.117 7.25 4.76 8.16
7/9/2021 6:15:00 AM 19.47 67.046 0.117 7.27 5.46 8.18
7/9/2021 6:30:00 AM 19.45 67.01 0.117 7.27 4.49 8.22
7/9/2021 6:45:00 AM 19.43 66.974 0.117 7.28 4.51 8.26
7/9/2021 7:00:00 AM 19.42 66.956 0.117 7.29 4.33 8.35
7/9/2021 7:15:00 AM 19.41 66.938 0.117 7.31 4.23 8.44
7/9/2021 7:30:00 AM 19.42 66.956 0.117 7.31 4.01 8.54
7/9/2021 7:45:00 AM 19.43 66.974 0.118 7.35 3.88 8.62
7/9/2021 8:00:00 AM 19.45 67.01 0.118 7.36 3.94 8.7
7/9/2021 8:15:00 AM 19.47 67.046 0.118 7.38 3.79 8.76
7/9/2021 8:30:00 AM 19.5 67.1 0.118 7.4 3.77 8.85
7/9/2021 8:45:00 AM 19.53 67.154 0.118 7.42 3.47 8.91
7/9/2021 9:00:00 AM 19.58 67.244 0.118 7.45 3.6 8.98
7/9/2021 9:15:00 AM 19.68 67.424 0.118 7.47 3.66 9.06
7/9/2021 9:30:00 AM 19.72 67.496 0.117 7.49 3.4 9.09
7/9/2021 9:45:00 AM 19.76 67.568 0.117 7.5 3.64 9.08
7/9/2021 10:00:00 AM 19.82 67.676 0.117 7.52 3.49 9.11
7/9/2021 10:15:00 AM 19.88 67.784 0.117 7.53 3.95 9.12
7/9/2021 10:30:00 AM 19.93 67.874 0.117 7.55 3.39 9.11
7/9/2021 10:45:00 AM 20.06 68.108 0.116 7.56 3.39 9.17
7/9/2021 11:00:00 AM 20.31 68.558 0.116 7.6 3.19 9.24
7/9/2021 11:15:00 AM 20.49 68.882 0.116 7.62 3.25 9.27
7/9/2021 11:30:00 AM 20.59 69.062 0.116 7.64 3.17 9.28
7/9/2021 11:45:00 AM 20.74 69.332 0.116 7.67 3.15 9.3
7/9/2021 12:00:00 PM 20.93 69.674 0.116 7.68 3.09 9.28
7/9/2021 12:15:00 PM 21.05 69.89 0.116 7.7 3.17 9.24
7/9/2021 12:30:00 PM 21.2 70.16 0.116 7.71 3.08 9.26
7/9/2021 12:45:00 PM 21.39 70.502 0.116 7.73 3.14 9.25
7/9/2021 1:00:00 PM 21.61 70.898 0.115 7.75 3.01 9.26
7/9/2021 1:15:00 PM 21.83 71.294 0.115 7.77 2.95 9.28
7/9/2021 1:30:00 PM 21.93 71.474 0.115 7.78 3.09 9.22
7/9/2021 1:45:00 PM 21.95 71.51 0.115 7.77 3 9.15
7/9/2021 2:00:00 PM 21.97 71.546 0.115 7.76 3.02 9.06
7/9/2021 2:15:00 PM 21.98 71.564 0.115 7.72 3.04 8.98
7/9/2021 2:30:00 PM 22.02 71.636 0.115 7.73 2.87 8.98
7/9/2021 2:45:00 PM 22.04 71.672 0.115 7.73 2.99 8.99
7/9/2021 3:00:00 PM 22.13 71.834 0.115 7.75 3.09 9.04
7/9/2021 3:15:00 PM 22.22 71.996 0.115 7.77 3.16 9.1
7/9/2021 3:30:00 PM 22.3 72.14 0.115 7.79 3.11 9.12
7/9/2021 3:45:00 PM 22.44 72.392 0.115 7.82 3.08 9.14
7/9/2021 4:00:00 PM 22.58 72.644 0.115 7.83 2.96 9.14
7/9/2021 4:15:00 PM 22.75 72.95 0.115 7.84 3.15 9.12
7/9/2021 4:30:00 PM 22.77 72.986 0.115 7.81 3.05 8.98
7/9/2021 4:45:00 PM 22.68 72.824 0.115 7.73 3.04 8.75
7/9/2021 5:00:00 PM 22.44 72.392 0.113 7.64 3.25 8.48
7/9/2021 5:15:00 PM 22.32 72.176 0.113 7.57 3.35 8.4
7/9/2021 5:30:00 PM 22.25 72.05 0.112 7.54 3.26 8.4
7/9/2021 5:45:00 PM 22.21 71.978 0.112 7.53 5.2 8.38
7/9/2021 6:00:00 PM 22.18 71.924 0.113 7.49 51.04 8.2
7/9/2021 6:15:00 PM 22.15 71.87 0.113 7.47 41.75 8.19
7/9/2021 6:30:00 PM 22.12 71.816 0.114 7.48 18.11 8.33
7/9/2021 6:45:00 PM 22.07 71.726 0.114 7.49 10.74 8.38
7/9/2021 7:00:00 PM 21.98 71.564 0.113 7.48 9.51 8.32
7/9/2021 7:15:00 PM 21.87 71.366 0.113 7.48 9.45 8.3
7/9/2021 7:30:00 PM 21.78 71.204 0.113 7.46 8.12 8.28
7/9/2021 7:45:00 PM 21.68 71.024 0.114 7.47 8.12 8.25
7/9/2021 8:00:00 PM 21.59 70.862 0.115 7.45 9.29 8.18
7/9/2021 8:15:00 PM 21.51 70.718 0.116 7.45 12.26 8.15
7/9/2021 8:30:00 PM 21.4 70.52 0.116 7.45 13.01 8.14
7/9/2021 8:45:00 PM 21.22 70.196 0.113 7.42 14.62 8.14
7/9/2021 9:00:00 PM 21.03 69.854 0.111 7.38 16.13 8.14
7/9/2021 9:15:00 PM 20.89 69.602 0.111 7.36 16.04 8.15
7/9/2021 9:30:00 PM 20.78 69.404 0.11 7.35 16.49 8.15
7/9/2021 9:45:00 PM 20.7 69.26 0.11 7.34 16.36 8.16
7/9/2021 10:00:00 PM 20.62 69.116 0.109 7.33 17.33 8.17
7/9/2021 10:15:00 PM 20.55 68.99 0.108 7.33 16.86 8.17
7/9/2021 10:30:00 PM 20.48 68.864 0.107 7.31 15.7 8.17
7/9/2021 10:45:00 PM 20.4 68.72 0.106 7.32 14.69 8.18
7/9/2021 11:00:00 PM 20.33 68.594 0.106 7.31 16.69 8.18
7/9/2021 11:15:00 PM 20.26 68.468 0.106 7.3 15.57 8.18
7/9/2021 11:30:00 PM 20.2 68.36 0.106 7.3 14.79 8.19
7/9/2021 11:45:00 PM 20.15 68.27 0.106 7.3 14.37 8.18
7/10/2021 12:00:00 AM 20.09 68.162 0.106 7.29 14.08 8.19
7/10/2021 12:15:00 AM 20.04 68.07201 0.106 7.29 12.96 8.19
7/10/2021 12:30:00 AM 20 68 0.106 7.29 13.25 8.19
7/10/2021 12:45:00 AM 19.95 67.91 0.106 7.28 12 8.19
7/10/2021 1:00:00 AM 19.9 67.82 0.107 7.29 11.54 8.2
7/10/2021 1:15:00 AM 19.87 67.766 0.107 7.28 11.07 8.2
7/10/2021 1:30:00 AM 19.82 67.676 0.107 7.29 10.2 8.2
7/10/2021 1:45:00 AM 19.79 67.622 0.108 7.28 9.81 8.21
7/10/2021 2:00:00 AM 19.75 67.55 0.108 7.28 9.33 8.2
7/10/2021 2:15:00 AM 19.72 67.496 0.108 7.29 8.48 8.2
7/10/2021 2:30:00 AM 19.68 67.424 0.108 7.28 8.52 8.21
7/10/2021 2:45:00 AM 19.65 67.37 0.108 7.28 8.05 8.2
7/10/2021 3:00:00 AM 19.61 67.298 0.108 7.28 7.5 8.21
7/10/2021 3:15:00 AM 19.57 67.226 0.108 7.28 7.68 8.22
7/10/2021 3:30:00 AM 19.54 67.172 0.108 7.28 6.52 8.22
7/10/2021 3:45:00 AM 19.51 67.118 0.108 7.28 7.42 8.23
7/10/2021 4:00:00 AM 19.47 67.046 0.108 7.28 6.45 8.23
7/10/2021 4:15:00 AM 19.44 66.992 0.108 7.28 6.32 8.22
7/10/2021 4:30:00 AM 19.4 66.92 0.108 7.27 6.25 8.22
7/10/2021 4:45:00 AM 19.36 66.848 0.108 7.28 6.48 8.23
7/10/2021 5:00:00 AM 19.33 66.794 0.108 7.27 7.13 8.24
7/10/2021 5:15:00 AM 19.29 66.722 0.108 7.28 6.28 8.24
7/10/2021 5:30:00 AM 19.26 66.668 0.108 7.27 6.05 8.24
7/10/2021 5:45:00 AM 19.22 66.596 0.108 7.27 5.91 8.21
7/10/2021 6:00:00 AM 19.19 66.542 0.108 7.27 5.93 8.27
7/10/2021 6:15:00 AM 19.16 66.488 0.108 7.27 5.66 8.27
7/10/2021 6:30:00 AM 19.13 66.434 0.108 7.28 5.4 8.31
7/10/2021 6:45:00 AM 19.11 66.398 0.108 7.29 5.05 8.35
7/10/2021 7:00:00 AM 19.09 66.362 0.108 7.29 4.95 8.39
7/10/2021 7:15:00 AM 19.07 66.326 0.109 7.3 5.01 8.43
7/10/2021 7:30:00 AM 19.05 66.29 0.109 7.31 4.8 8.46
7/10/2021 7:45:00 AM 19.03 66.254 0.109 7.32 4.57 8.52
7/10/2021 8:00:00 AM 19.03 66.254 0.109 7.32 4.56 8.58
7/10/2021 8:15:00 AM 19.03 66.254 0.109 7.34 4.39 8.67
7/10/2021 8:30:00 AM 19.03 66.254 0.109 7.36 4.03 8.75
7/10/2021 8:45:00 AM 19.04 66.272 0.109 7.37 4.07 8.82
7/10/2021 9:00:00 AM 19.05 66.29 0.109 7.4 4 8.87
7/10/2021 9:15:00 AM 19.08 66.344 0.109 7.41 3.9 8.98
7/10/2021 9:30:00 AM 19.09 66.362 0.109 7.44 3.9 9.01
7/10/2021 9:45:00 AM 19.11 66.398 0.109 7.45 3.86 9.05
7/10/2021 10:00:00 AM 19.14 66.452 0.109 7.47 3.83 9.12
7/10/2021 10:15:00 AM 19.17 66.506 0.109 7.49 3.9 9.19
7/10/2021 10:30:00 AM 19.2 66.56 0.109 7.52 3.6 9.23
7/10/2021 10:45:00 AM 19.22 66.596 0.109 7.53 3.62 9.25
7/10/2021 11:00:00 AM 19.25 66.65 0.109 7.54 3.68 9.21
7/10/2021 11:15:00 AM 19.3 66.74 0.109 7.55 3.45 9.27
7/10/2021 11:30:00 AM 19.35 66.83 0.109 7.57 3.54 9.29
7/10/2021 11:45:00 AM 19.45 67.01 0.109 7.6 3.49 9.4
7/10/2021 12:00:00 PM 19.54 67.172 0.108 7.65 3.17 9.5
7/10/2021 12:15:00 PM 19.64 67.352 0.108 7.67 3.15 9.51
7/10/2021 12:30:00 PM 19.75 67.55 0.108 7.7 3.3 9.55
7/10/2021 12:45:00 PM 19.86 67.748 0.108 7.73 3.21 9.59
7/10/2021 1:00:00 PM 19.99 67.982 0.108 7.75 3.07 9.58
7/10/2021 1:15:00 PM 20.07 68.126 0.108 7.77 3.13 9.57
7/10/2021 1:30:00 PM 20.2 68.36 0.108 7.79 3.08 9.6
7/10/2021 1:45:00 PM 20.43 68.774 0.108 7.8 3.17 9.57
7/10/2021 2:00:00 PM 20.67 69.206 0.108 7.82 3.06 9.55
7/10/2021 2:15:00 PM 20.84 69.512 0.108 7.83 2.96 9.53
7/10/2021 2:30:00 PM 21.07 69.926 0.108 7.84 3.16 9.46
7/10/2021 2:45:00 PM 21.3 70.34 0.108 7.85 2.98 9.48
7/10/2021 3:00:00 PM 21.38 70.484 0.108 7.85 2.91 9.42
7/10/2021 3:15:00 PM 21.41 70.538 0.108 7.83 3.1 9.38
7/10/2021 3:30:00 PM 21.55 70.79 0.108 7.85 2.94 9.37
7/10/2021 3:45:00 PM 21.67 71.006 0.108 7.84 2.92 9.34
7/10/2021 4:00:00 PM 21.72 71.096 0.109 7.84 3.03 9.31
7/10/2021 4:15:00 PM 21.78 71.204 0.109 7.83 2.98 9.25
7/10/2021 4:30:00 PM 21.69 71.042 0.109 7.8 2.95 9.18
7/10/2021 4:45:00 PM 21.67 71.006 0.109 7.77 3.1 9.12
7/10/2021 5:00:00 PM 21.68 71.024 0.109 7.74 3.1 9.06
7/10/2021 5:15:00 PM 21.72 71.096 0.109 7.71 3.03 9.02
7/10/2021 5:30:00 PM 21.72 71.096 0.109 7.71 3.16 8.99
7/10/2021 5:45:00 PM 21.72 71.096 0.109 7.69 3.2 8.94
7/10/2021 6:00:00 PM 21.69 71.042 0.109 7.66 3.56 8.89
7/10/2021 6:15:00 PM 21.61 70.898 0.109 7.63 3.46 8.82
7/10/2021 6:30:00 PM 21.49 70.682 0.109 7.6 3.64 8.77
7/10/2021 6:45:00 PM 21.38 70.484 0.11 7.57 3.22 8.71
7/10/2021 7:00:00 PM 21.28 70.304 0.11 7.54 3.28 8.64
7/10/2021 7:15:00 PM 21.17 70.106 0.11 7.5 3.26 8.56
7/10/2021 7:30:00 PM 21.07 69.926 0.11 7.48 3.2 8.46
7/10/2021 7:45:00 PM 20.96 69.728 0.11 7.45 3.49 8.39
7/10/2021 8:00:00 PM 20.87 69.566 0.11 7.42 3.64 8.32
7/10/2021 8:15:00 PM 20.79 69.422 0.11 7.39 3.49 8.22
7/10/2021 8:30:00 PM 20.71 69.278 0.111 7.36 3.53 8.15
7/10/2021 8:45:00 PM 20.63 69.134 0.111 7.34 3.68 8.07
7/10/2021 9:00:00 PM 20.55 68.99 0.111 7.32 3.62 8.01
7/10/2021 9:15:00 PM 20.47 68.846 0.111 7.29 3.3 7.96
7/10/2021 9:30:00 PM 20.37 68.666 0.111 7.29 3.41 7.96
7/10/2021 9:45:00 PM 20.29 68.522 0.111 7.27 3.6 7.93
7/10/2021 10:00:00 PM 20.19 68.342 0.111 7.26 3.27 7.92
7/10/2021 10:15:00 PM 20.1 68.18 0.111 7.26 3.81 7.93
7/10/2021 10:30:00 PM 20.01 68.018 0.112 7.23 3.41 7.93
7/10/2021 10:45:00 PM 19.92 67.856 0.112 7.25 3.18 7.95
7/10/2021 11:00:00 PM 19.82 67.676 0.112 7.24 3.37 7.97
7/10/2021 11:15:00 PM 19.72 67.496 0.112 7.24 3.48 7.97
7/10/2021 11:30:00 PM 19.64 67.352 0.112 7.21 3.35 7.98
7/10/2021 11:45:00 PM 19.54 67.172 0.112 7.22 3.17 8
7/11/2021 12:00:00 AM 19.45 67.01 0.112 7.23 3.32 8
7/11/2021 12:15:00 AM 19.36 66.848 0.112 7.21 3.49 8
7/11/2021 12:30:00 AM 19.26 66.668 0.112 7.23 3.34 8.03
7/11/2021 12:45:00 AM 19.17 66.506 0.112 7.22 3.41 8.06
7/11/2021 1:00:00 AM 19.07 66.326 0.112 7.22 3.31 8.08
7/11/2021 1:15:00 AM 18.98 66.164 0.112 7.2 3.3 8.1
7/11/2021 1:30:00 AM 18.88 65.984 0.113 7.22 3.37 8.09
7/11/2021 1:45:00 AM 18.8 65.84 0.113 7.21 3.4 8.14
7/11/2021 2:00:00 AM 18.72 65.696 0.113 7.21 3.32 8.14
7/11/2021 2:15:00 AM 18.63 65.534 0.113 7.2 3.41 8.16
7/11/2021 2:30:00 AM 18.55 65.39 0.113 7.2 3.33 8.18
7/11/2021 2:45:00 AM 18.47 65.246 0.113 7.21 3.23 8.2
7/11/2021 3:00:00 AM 18.38 65.084 0.113 7.21 3.33 8.22
7/11/2021 3:15:00 AM 18.3 64.94 0.113 7.19 3.54 8.24
7/11/2021 3:30:00 AM 18.24 64.832 0.113 7.21 3.41 8.24
7/11/2021 3:45:00 AM 18.16 64.688 0.113 7.21 3.19 8.27
7/11/2021 4:00:00 AM 18.09 64.562 0.113 7.2 3.36 8.26
7/11/2021 4:15:00 AM 18.02 64.436 0.113 7.2 3.36 8.25
7/11/2021 4:30:00 AM 17.95 64.31 0.113 7.2 3.53 8.31
7/11/2021 4:45:00 AM 17.89 64.202 0.113 7.19 3.47 8.31
7/11/2021 5:00:00 AM 17.84 64.112 0.113 7.19 3.77 8.33
7/11/2021 5:15:00 AM 17.78 64.004 0.113 7.2 3.61 8.33
7/11/2021 5:30:00 AM 17.73 63.914 0.113 7.2 3.73 8.34
7/11/2021 5:45:00 AM 17.69 63.842 0.113 7.2 3.78 8.33
7/11/2021 6:00:00 AM 17.63 63.734 0.113 7.2 3.24 8.35
7/11/2021 6:15:00 AM 17.59 63.662 0.113 7.2 3.37 8.4
7/11/2021 6:30:00 AM 17.56 63.608 0.113 7.2 3.18 8.39
7/11/2021 6:45:00 AM 17.52 63.536 0.113 7.19 3.3 8.39
7/11/2021 7:00:00 AM 17.49 63.482 0.113 7.21 3.09 8.5
7/11/2021 7:15:00 AM 17.47 63.446 0.113 7.22 3.11 8.58
7/11/2021 7:30:00 AM 17.46 63.428 0.113 7.23 3.05 8.66
7/11/2021 7:45:00 AM 17.45 63.41 0.113 7.25 2.99 8.7
7/11/2021 8:00:00 AM 17.45 63.41 0.113 7.26 3 8.8
7/11/2021 8:15:00 AM 17.46 63.428 0.113 7.28 2.87 8.95
7/11/2021 8:30:00 AM 17.48 63.464 0.113 7.29 2.88 9.08
7/11/2021 8:45:00 AM 17.53 63.554 0.113 7.32 2.86 9.21
7/11/2021 9:00:00 AM 17.59 63.662 0.113 7.35 2.88 9.24
7/11/2021 9:15:00 AM 17.66 63.788 0.113 7.38 2.81 9.38
7/11/2021 9:30:00 AM 17.73 63.914 0.113 7.41 2.81 9.49
7/11/2021 9:45:00 AM 17.79 64.022 0.112 7.42 2.84 9.5
7/11/2021 10:00:00 AM 17.85 64.13 0.112 7.45 2.84 9.53
7/11/2021 10:15:00 AM 17.9 64.22 0.112 7.45 2.74 9.56
7/11/2021 10:30:00 AM 17.95 64.31 0.112 7.47 2.68 9.55
7/11/2021 10:45:00 AM 17.99 64.382 0.112 7.48 2.75 9.51
7/11/2021 11:00:00 AM 18.01 64.418 0.112 7.47 2.75 9.46
7/11/2021 11:15:00 AM 18.03 64.454 0.112 7.46 2.69 9.38
7/11/2021 11:30:00 AM 18.05 64.49 0.112 7.45 8.57 9.29
7/11/2021 11:45:00 AM 18.08 64.544 0.112 7.44 11.42 9.27
7/11/2021 12:00:00 PM 18.11 64.598 0.112 7.43 2.86 9.26
7/11/2021 12:15:00 PM 18.15 64.67 0.112 7.45 2.55 9.33
7/11/2021 12:30:00 PM 18.19 64.742 0.112 7.45 2.51 9.29
7/11/2021 12:45:00 PM 18.24 64.832 0.112 7.46 2.49 9.32
7/11/2021 1:00:00 PM 18.29 64.922 0.112 7.47 2.36 9.4
7/11/2021 1:15:00 PM 18.33 64.994 0.111 7.47 2.74 9.41
7/11/2021 1:30:00 PM 18.36 65.048 0.111 7.48 3.26 9.38
7/11/2021 1:45:00 PM 18.4 65.12 0.111 7.49 2.53 9.39
7/11/2021 2:00:00 PM 18.42 65.156 0.111 7.49 2.3 9.35
7/11/2021 2:15:00 PM 18.44 65.192 0.111 7.49 2.48 9.31
7/11/2021 2:30:00 PM 18.45 65.21 0.111 7.47 2.33 9.26
7/11/2021 2:45:00 PM 18.48 65.264 0.111 7.46 2.32 9.25
7/11/2021 3:00:00 PM 18.51 65.318 0.111 7.48 2.25 9.25
7/11/2021 3:15:00 PM 18.54 65.372 0.111 7.47 2.28 9.23
7/11/2021 3:30:00 PM 18.55 65.39 0.111 7.47 2.28 9.19
7/11/2021 3:45:00 PM 18.57 65.426 0.111 7.46 2.36 9.09
7/11/2021 4:00:00 PM 18.58 65.444 0.111 7.44 2.46 9.04
7/11/2021 4:15:00 PM 18.6 65.48 0.111 7.44 2.45 9.04
7/11/2021 4:30:00 PM 18.63 65.534 0.111 7.43 2.35 9.08
7/11/2021 4:45:00 PM 18.64 65.552 0.111 7.45 2.3 9.07
7/11/2021 5:00:00 PM 18.65 65.57 0.111 7.43 2.42 9.03
7/11/2021 5:15:00 PM 18.65 65.57 0.111 7.43 2.43 8.99
7/11/2021 5:30:00 PM 18.65 65.57 0.111 7.42 2.35 8.9
7/11/2021 5:45:00 PM 18.65 65.57 0.111 7.4 2.44 8.88
7/11/2021 6:00:00 PM 18.64 65.552 0.111 7.39 2.42 8.81
7/11/2021 6:15:00 PM 18.63 65.534 0.111 7.38 2.42 8.77
7/11/2021 6:30:00 PM 18.62 65.516 0.112 7.37 2.33 8.73
7/11/2021 6:45:00 PM 18.61 65.498 0.112 7.36 2.49 8.67
7/11/2021 7:00:00 PM 18.59 65.462 0.112 7.35 2.4 8.62
7/11/2021 7:15:00 PM 18.57 65.426 0.112 7.32 2.58 8.59
7/11/2021 7:30:00 PM 18.56 65.408 0.112 7.31 2.6 8.52
7/11/2021 7:45:00 PM 18.53 65.354 0.112 7.3 2.7 8.5
7/11/2021 8:00:00 PM 18.51 65.318 0.112 7.29 2.54 8.44
7/11/2021 8:15:00 PM 18.48 65.264 0.112 7.29 2.79 8.43
7/11/2021 8:30:00 PM 18.46 65.228 0.112 7.28 2.69 8.36
7/11/2021 8:45:00 PM 18.44 65.192 0.112 7.28 2.81 8.37
7/11/2021 9:00:00 PM 18.41 65.138 0.112 7.27 2.82 8.34
7/11/2021 9:15:00 PM 18.39 65.102 0.112 7.26 2.87 8.34
7/11/2021 9:30:00 PM 18.37 65.066 0.112 7.27 3.05 8.31
7/11/2021 9:45:00 PM 18.34 65.012 0.111 7.25 2.59 8.32
7/11/2021 10:00:00 PM 18.32 64.976 0.111 7.25 3.07 8.34
7/11/2021 10:15:00 PM 18.3 64.94 0.111 7.26 2.86 8.36
7/11/2021 10:30:00 PM 18.28 64.904 0.111 7.25 3.54 8.33
7/11/2021 10:45:00 PM 18.25 64.85 0.111 7.24 4.35 8.34
7/11/2021 11:00:00 PM 18.23 64.814 0.111 7.26 5.57 8.35
7/11/2021 11:15:00 PM 18.21 64.778 0.111 7.26 5.75 8.38
7/11/2021 11:30:00 PM 18.19 64.742 0.111 7.26 7.18 8.34
7/11/2021 11:45:00 PM 18.17 64.706 0.111 7.26 7.37 8.42
7/12/2021 12:00:00 AM 18.15 64.67 0.111 7.25 7.54 8.41
7/12/2021 12:15:00 AM 18.14 64.652 0.111 7.27 6.77 8.42
7/12/2021 12:30:00 AM 18.12 64.616 0.111 7.27 6.23 8.45
7/12/2021 12:45:00 AM 18.1 64.58 0.112 7.28 5.93 8.47
7/12/2021 1:00:00 AM 18.09 64.562 0.112 7.29 5.82 8.48
7/12/2021 1:15:00 AM 18.07 64.526 0.113 7.29 5.68 8.52
7/12/2021 1:30:00 AM 18.06 64.508 0.113 7.3 6.54 8.54
7/12/2021 1:45:00 AM 18.05 64.49 0.114 7.31 6.01 8.57
7/12/2021 2:00:00 AM 18.03 64.454 0.114 7.32 6.1 8.6
7/12/2021 2:15:00 AM 18.02 64.436 0.114 7.33 7.22 8.63
7/12/2021 2:30:00 AM 18 64.4 0.114 7.31 6.85 8.65
7/12/2021 2:45:00 AM 17.98 64.364 0.114 7.32 7.93 8.66
7/12/2021 3:00:00 AM 17.97 64.346 0.113 7.33 8.17 8.67
7/12/2021 3:15:00 AM 17.95 64.31 0.112 7.32 8.56 8.69
7/12/2021 3:30:00 AM 17.93 64.274 0.112 7.32 9 8.7
7/12/2021 3:45:00 AM 17.91 64.238 0.111 7.3 8.46 8.69
7/12/2021 4:00:00 AM 17.9 64.22 0.111 7.3 8.83 8.7
7/12/2021 4:15:00 AM 17.89 64.202 0.111 7.3 9.34 8.7
7/12/2021 4:30:00 AM 17.88 64.184 0.11 7.29 8.35 8.7
7/12/2021 4:45:00 AM 17.87 64.166 0.11 7.3 8.2 8.7
7/12/2021 5:00:00 AM 17.86 64.148 0.11 7.29 7.5 8.69
7/12/2021 5:15:00 AM 17.85 64.13 0.11 7.29 7.42 8.69
7/12/2021 5:30:00 AM 17.84 64.112 0.11 7.28 7.41 8.69
7/12/2021 5:45:00 AM 17.84 64.112 0.11 7.28 6.99 8.69
7/12/2021 6:00:00 AM 17.83 64.094 0.11 7.27 6.98 8.69
7/12/2021 6:15:00 AM 17.83 64.094 0.11 7.27 6.76 8.68
7/12/2021 6:30:00 AM 17.83 64.094 0.11 7.28 6.31 8.71
7/12/2021 6:45:00 AM 17.83 64.094 0.11 7.27 6.34 8.73
7/12/2021 7:00:00 AM 17.84 64.112 0.11 7.28 6.1 8.79
7/12/2021 7:15:00 AM 17.86 64.148 0.11 7.3 5.85 8.87
7/12/2021 7:30:00 AM 17.89 64.202 0.11 7.32 5.57 8.94
7/12/2021 7:45:00 AM 17.92 64.256 0.11 7.34 5.59 9
7/12/2021 8:00:00 AM 17.95 64.31 0.11 7.35 5.38 9.03
7/12/2021 8:15:00 AM 18.04 64.472 0.11 7.38 5.07 9.13
7/12/2021 8:30:00 AM 18.08 64.544 0.109 7.4 5.22 9.21
7/12/2021 8:45:00 AM 18.15 64.67 0.109 7.43 5.18 9.3
7/12/2021 9:00:00 AM 18.21 64.778 0.109 7.46 5.05 9.34
7/12/2021 9:15:00 AM 18.27 64.886 0.109 7.48 4.76 9.36
7/12/2021 9:30:00 AM 18.35 65.03 0.108 7.48 5.07 9.39
7/12/2021 9:45:00 AM 18.42 65.156 0.108 7.51 4.89 9.41
7/12/2021 10:00:00 AM 18.51 65.318 0.108 7.54 4.84 9.45
7/12/2021 10:15:00 AM 18.6 65.48 0.108 7.56 4.75 9.5
7/12/2021 10:30:00 AM 18.67 65.606 0.108 7.57 4.59 9.49
7/12/2021 10:45:00 AM 18.74 65.732 0.108 7.58 4.52 9.46
7/12/2021 11:00:00 AM 18.8 65.84 0.107 7.57 4.19 9.43
7/12/2021 11:15:00 AM 18.9 66.02 0.107 7.59 4.23 9.45
7/12/2021 11:30:00 AM 18.97 66.146 0.107 7.6 4.15 9.42
7/12/2021 11:45:00 AM 19.02 66.236 0.107 7.6 4.12 9.4
7/12/2021 12:00:00 PM 19.11 66.398 0.107 7.59 3.91 9.4
7/12/2021 12:15:00 PM 19.18 66.524 0.107 7.61 3.81 9.43
7/12/2021 12:30:00 PM 19.25 66.65 0.107 7.63 3.9 9.42
7/12/2021 12:45:00 PM 19.35 66.83 0.107 7.64 3.63 9.46
7/12/2021 1:00:00 PM 19.45 67.01 0.107 7.65 3.69 9.5
7/12/2021 1:15:00 PM 19.57 67.226 0.107 7.69 3.58 9.54
7/12/2021 1:30:00 PM 19.75 67.55 0.107 7.71 3.4 9.58
7/12/2021 1:45:00 PM 19.99 67.982 0.107 7.74 3.45 9.61
7/12/2021 2:00:00 PM 20.05 68.09 0.107 7.76 3.39 9.57
7/12/2021 2:15:00 PM 20.13 68.234 0.107 7.76 3.39 9.55
7/12/2021 2:30:00 PM 20.41 68.738 0.107 7.78 3.16 9.56
7/12/2021 2:45:00 PM 20.59 69.062 0.107 7.79 3.11 9.55
7/12/2021 3:00:00 PM 20.76 69.368 0.107 7.83 3.28 9.55
7/12/2021 3:15:00 PM 20.93 69.674 0.107 7.83 3.2 9.52
7/12/2021 3:30:00 PM 21.14 70.052 0.107 7.85 3.13 9.5
7/12/2021 3:45:00 PM 21.32 70.376 0.107 7.85 3.12 9.45
7/12/2021 4:00:00 PM 21.51 70.718 0.107 7.84 3.14 9.44
7/12/2021 4:15:00 PM 21.55 70.79 0.107 7.83 3.19 9.34
7/12/2021 4:30:00 PM 21.45 70.61 0.107 7.78 3.03 9.21
7/12/2021 4:45:00 PM 21.47 70.646 0.107 7.76 2.94 9.17
7/12/2021 5:00:00 PM 21.54 70.772 0.107 7.75 3.34 9.16
7/12/2021 5:15:00 PM 21.57 70.826 0.107 7.74 3.14 9.12
7/12/2021 5:30:00 PM 21.55 70.79 0.108 7.71 3.11 9.07
7/12/2021 5:45:00 PM 21.49 70.682 0.108 7.7 3 9.01
7/12/2021 6:00:00 PM 21.41 70.538 0.108 7.65 3.01 8.89
7/12/2021 6:15:00 PM 21.32 70.376 0.108 7.57 3.18 8.72
7/12/2021 6:30:00 PM 21.24 70.232 0.108 7.53 3.29 8.56
7/12/2021 6:45:00 PM 21.2 70.16 0.107 7.48 3.39 8.41
7/12/2021 7:00:00 PM 21.15 70.07 0.107 7.44 3.42 8.3
7/12/2021 7:15:00 PM 21.13 70.034 0.108 7.41 3.17 8.3
7/12/2021 7:30:00 PM 21.09 69.962 0.108 7.41 3.09 8.29
7/12/2021 7:45:00 PM 21.04 69.872 0.109 7.4 3.07 8.27
7/12/2021 8:00:00 PM 20.99 69.782 0.109 7.38 3.37 8.22
7/12/2021 8:15:00 PM 20.94 69.692 0.109 7.36 3.21 8.15
7/12/2021 8:30:00 PM 20.87 69.566 0.109 7.34 3.11 8.09
7/12/2021 8:45:00 PM 20.82 69.476 0.109 7.33 3.3 8.05
7/12/2021 9:00:00 PM 20.77 69.386 0.109 7.31 3.84 8.03
7/12/2021 9:15:00 PM 20.71 69.278 0.109 7.29 4.58 8.01
7/12/2021 9:30:00 PM 20.64 69.152 0.109 7.33 39.57 8.14
7/12/2021 9:45:00 PM 20.58 69.044 0.103 7.26 375.6 8.34
7/12/2021 10:00:00 PM 20.52 68.936 0.08 7.15 651.07 8.39
7/12/2021 10:15:00 PM 20.43 68.774 0.07 7.08 636.39 8.42
7/12/2021 10:30:00 PM 20.36 68.648 0.068 7.07 386.77 8.45
7/12/2021 10:45:00 PM 20.29 68.522 0.069 7.07 262.03 8.47
7/12/2021 11:00:00 PM 20.22 68.396 0.069 7.09 220.96 8.48
7/12/2021 11:15:00 PM 20.17 68.306 0.071 7.12 210.51 8.5
7/12/2021 11:30:00 PM 20.1 68.18 0.072 7.14 130.85 8.51
7/12/2021 11:45:00 PM 20.05 68.09 0.073 7.15 107.4 8.52
7/13/2021 12:00:00 AM 19.99 67.982 0.074 7.15 100.96 8.53
7/13/2021 12:15:00 AM 19.93 67.874 0.074 7.16 90.94 8.55
7/13/2021 12:30:00 AM 19.87 67.766 0.074 7.17 69.47 8.56
7/13/2021 12:45:00 AM 19.81 67.658 0.075 7.17 90.7 8.57
7/13/2021 1:00:00 AM 19.75 67.55 0.075 7.18 63.05 8.58
7/13/2021 1:15:00 AM 19.7 67.46 0.075 7.17 70.22 8.59
7/13/2021 1:30:00 AM 19.65 67.37 0.076 7.17 58.51 8.6
7/13/2021 1:45:00 AM 19.61 67.298 0.077 7.19 56.18 8.61
7/13/2021 2:00:00 AM 19.56 67.208 0.078 7.16 48.8 8.62
7/13/2021 2:15:00 AM 19.52 67.136 0.079 7.01 45.22 8.63
7/13/2021 2:30:00 AM 19.47 67.046 0.08 6.98 43.06 8.64
7/13/2021 2:45:00 AM 19.42 66.956 0.08 7.03 37.18 8.65
7/13/2021 3:00:00 AM 19.38 66.884 0.081 7.08 38.23 8.66
7/13/2021 3:15:00 AM 19.35 66.83 0.081 7.13 40.39 8.66
7/13/2021 3:30:00 AM 19.32 66.776 0.082 7.17 38.93 8.66
7/13/2021 3:45:00 AM 19.29 66.722 0.082 7.19 37.04 8.66
7/13/2021 4:00:00 AM 19.27 66.686 0.083 7.2 39.45 8.66
7/13/2021 4:15:00 AM 19.26 66.668 0.083 7.22 32.82 8.66
7/13/2021 4:30:00 AM 19.25 66.65 0.083 7.22 25.52 8.66
7/13/2021 4:45:00 AM 19.25 66.65 0.084 7.23 30.13 8.65
7/13/2021 5:00:00 AM 19.24 66.632 0.084 7.23 29.35 8.65
7/13/2021 5:15:00 AM 19.23 66.614 0.084 7.24 26.73 8.65
7/13/2021 5:30:00 AM 19.22 66.596 0.084 7.23 25.29 8.65
7/13/2021 5:45:00 AM 19.21 66.578 0.085 7.24 24.43 8.64
7/13/2021 6:00:00 AM 19.2 66.56 0.085 7.24 21.18 8.64
7/13/2021 6:15:00 AM 19.19 66.542 0.085 7.24 22.04 8.65
7/13/2021 6:30:00 AM 19.19 66.542 0.086 7.24 20.76 8.66
7/13/2021 6:45:00 AM 19.18 66.524 0.086 7.24 19.86 8.66
7/13/2021 7:00:00 AM 19.18 66.524 0.086 7.23 18.67 8.67
7/13/2021 7:15:00 AM 19.18 66.524 0.086 7.25 17.93 8.68
7/13/2021 7:30:00 AM 19.19 66.542 0.087 7.25 17.06 8.7
7/13/2021 7:45:00 AM 19.19 66.542 0.087 7.25 15.77 8.72
7/13/2021 8:00:00 AM 19.22 66.596 0.087 7.26 15.18 8.76
7/13/2021 8:15:00 AM 19.24 66.632 0.087 7.28 15.07 8.79
7/13/2021 8:30:00 AM 19.27 66.686 0.087 7.29 14.48 8.81
7/13/2021 8:45:00 AM 19.3 66.74 0.087 7.31 14.12 8.83
7/13/2021 9:00:00 AM 19.34 66.812 0.088 7.32 13.14 8.85
7/13/2021 9:15:00 AM 19.38 66.884 0.088 7.33 13.03 8.86
7/13/2021 9:30:00 AM 19.42 66.956 0.088 7.34 12.75 8.85
7/13/2021 9:45:00 AM 19.45 67.01 0.088 7.35 12.14 8.87
7/13/2021 10:00:00 AM 19.5 67.1 0.088 7.36 12.11 8.9
7/13/2021 10:15:00 AM 19.59 67.262 0.088 7.37 11.45 8.94
7/13/2021 10:30:00 AM 19.75 67.55 0.088 7.41 11.07 9
7/13/2021 10:45:00 AM 19.79 67.622 0.089 7.42 10.89 9.01
7/13/2021 11:00:00 AM 19.83 67.694 0.089 7.42 10.92 8.97
7/13/2021 11:15:00 AM 19.87 67.766 0.089 7.42 12.2 8.92
7/13/2021 11:30:00 AM 20 68 0.089 7.42 13.15 8.95
7/13/2021 11:45:00 AM 20.09 68.162 0.089 7.45 14.11 8.96
7/13/2021 12:00:00 PM 20.21 68.378 0.089 7.45 17.82 8.95
7/13/2021 12:15:00 PM 20.43 68.774 0.089 7.47 20.12 8.99
7/13/2021 12:30:00 PM 20.68 69.224 0.089 7.49 21.9 9.02
7/13/2021 12:45:00 PM 20.93 69.674 0.089 7.51 18.31 9.05
7/13/2021 1:00:00 PM 21.15 70.07 0.089 7.53 15.63 9.05
7/13/2021 1:15:00 PM 21.38 70.484 0.09 7.55 13.42 9.04
7/13/2021 1:30:00 PM 21.5 70.7 0.09 7.56 11.75 9
7/13/2021 1:45:00 PM 21.56 70.808 0.09 7.56 10.97 8.94
7/13/2021 2:00:00 PM 21.58 70.844 0.09 7.56 12.03 8.87
7/13/2021 2:15:00 PM 21.68 71.024 0.09 7.54 15.31 8.85
7/13/2021 2:30:00 PM 21.72 71.096 0.09 7.54 16.23 8.84
7/13/2021 2:45:00 PM 21.77 71.186 0.09 7.54 15.23 8.79
7/13/2021 3:00:00 PM 21.86 71.348 0.09 7.53 12.58 8.79
7/13/2021 3:15:00 PM 21.9 71.42 0.09 7.54 11.71 8.76
7/13/2021 3:30:00 PM 21.95 71.51 0.09 7.53 10.43 8.73
7/13/2021 3:45:00 PM 22.08 71.744 0.09 7.54 9.64 8.75
7/13/2021 4:00:00 PM 22.2 71.96 0.09 7.56 9.32 8.76
7/13/2021 4:15:00 PM 22.29 72.122 0.091 7.56 9.45 8.77
7/13/2021 4:30:00 PM 22.29 72.122 0.091 7.55 9.47 8.73
7/13/2021 4:45:00 PM 22.27 72.086 0.091 7.54 8.67 8.67
7/13/2021 5:00:00 PM 22.29 72.122 0.091 7.54 8.49 8.65
7/13/2021 5:15:00 PM 22.25 72.05 0.091 7.53 8.49 8.6
7/13/2021 5:30:00 PM 22.21 71.978 0.091 7.51 8.31 8.58
7/13/2021 5:45:00 PM 22.15 71.87 0.091 7.5 8.39 8.56
7/13/2021 6:00:00 PM 22.1 71.78 0.091 7.5 7.98 8.55
7/13/2021 6:15:00 PM 22.04 71.672 0.091 7.47 7.94 8.52
7/13/2021 6:30:00 PM 21.97 71.546 0.092 7.47 7.96 8.49
7/13/2021 6:45:00 PM 21.93 71.474 0.092 7.45 7.95 8.45
7/13/2021 7:00:00 PM 21.87 71.366 0.092 7.44 7.83 8.43
7/13/2021 7:15:00 PM 21.8 71.24 0.092 7.43 7.71 8.4
7/13/2021 7:30:00 PM 21.7 71.06 0.092 7.4 7.76 8.33
7/13/2021 7:45:00 PM 21.62 70.916 0.092 7.38 7.53 8.28
7/13/2021 8:00:00 PM 21.55 70.79 0.092 7.37 7.8 8.24
7/13/2021 8:15:00 PM 21.46 70.628 0.093 7.35 7.72 8.2
7/13/2021 8:30:00 PM 21.37 70.466 0.093 7.33 7.43 8.17
7/13/2021 8:45:00 PM 21.28 70.304 0.093 7.31 7.51 8.15
7/13/2021 9:00:00 PM 21.2 70.16 0.093 7.3 7.5 8.14
7/13/2021 9:15:00 PM 21.12 70.016 0.093 7.28 7.32 8.13
7/13/2021 9:30:00 PM 21.05 69.89 0.093 7.28 7.43 8.14
7/13/2021 9:45:00 PM 20.99 69.782 0.094 7.27 7.36 8.14
7/13/2021 10:00:00 PM 20.92 69.656 0.094 7.26 7.26 8.14
7/13/2021 10:15:00 PM 20.86 69.548 0.094 7.27 7.16 8.15
7/13/2021 10:30:00 PM 20.76 69.368 0.094 7.27 7.47 8.18
7/13/2021 10:45:00 PM 20.65 69.17 0.093 7.28 7.24 8.22
7/13/2021 11:00:00 PM 20.58 69.044 0.092 7.28 7.44 8.22
7/13/2021 11:15:00 PM 20.5 68.9 0.093 7.27 34.18 8.24
7/13/2021 11:30:00 PM 20.42 68.756 0.093 7.28 20.69 8.25
7/13/2021 11:45:00 PM 20.34 68.612 0.092 7.28 13.24 8.29
7/14/2021 12:00:00 AM 20.25 68.45 0.092 7.28 19.55 8.31
7/14/2021 12:15:00 AM 20.15 68.27 0.092 7.29 32.84 8.38
7/14/2021 12:30:00 AM 20.02 68.036 0.093 7.3 46.74 8.45
7/14/2021 12:45:00 AM 19.88 67.784 0.092 7.3 52.12 8.51
7/14/2021 1:00:00 AM 19.73 67.514 0.09 7.29 105.42 8.56
7/14/2021 1:15:00 AM 19.63 67.334 0.087 7.28 90.92 8.59
7/14/2021 1:30:00 AM 19.59 67.262 0.086 7.27 79.88 8.6
7/14/2021 1:45:00 AM 19.56 67.208 0.085 7.27 69.09 8.61
7/14/2021 2:00:00 AM 19.53 67.154 0.085 7.26 69.61 8.62
7/14/2021 2:15:00 AM 19.51 67.118 0.085 7.26 65.75 8.61
7/14/2021 2:30:00 AM 19.49 67.082 0.085 7.25 40.01 8.62
7/14/2021 2:45:00 AM 19.47 67.046 0.085 7.26 41.99 8.61
7/14/2021 3:00:00 AM 19.43 66.974 0.084 7.26 36.76 8.61
7/14/2021 3:15:00 AM 19.39 66.902 0.084 7.27 47.12 8.61
7/14/2021 3:30:00 AM 19.35 66.83 0.083 7.27 32.81 8.61
7/14/2021 3:45:00 AM 19.31 66.758 0.083 7.26 26.12 8.62
7/14/2021 4:00:00 AM 19.28 66.704 0.083 7.26 24.66 8.62
7/14/2021 4:15:00 AM 19.25 66.65 0.084 7.27 24.23 8.62
7/14/2021 4:30:00 AM 19.22 66.596 0.084 7.26 22.25 8.62
7/14/2021 4:45:00 AM 19.19 66.542 0.084 7.27 19.96 8.62
7/14/2021 5:00:00 AM 19.16 66.488 0.085 7.27 19.2 8.63
7/14/2021 5:15:00 AM 19.13 66.434 0.085 7.26 18.56 8.63
7/14/2021 5:30:00 AM 19.1 66.38 0.086 7.27 17.58 8.63
7/14/2021 5:45:00 AM 19.08 66.344 0.086 7.27 16.12 8.63
7/14/2021 6:00:00 AM 19.05 66.29 0.087 7.27 15.53 8.64
7/14/2021 6:15:00 AM 19.02 66.236 0.087 7.27 14.84 8.64
7/14/2021 6:30:00 AM 19 66.2 0.087 7.26 14.5 8.66
7/14/2021 6:45:00 AM 18.98 66.164 0.088 7.28 14.01 8.69
7/14/2021 7:00:00 AM 18.96 66.128 0.088 7.27 13.22 8.7
7/14/2021 7:15:00 AM 18.95 66.11 0.089 7.28 13.02 8.73
7/14/2021 7:30:00 AM 18.95 66.11 0.089 7.29 11.85 8.76
7/14/2021 7:45:00 AM 18.96 66.128 0.089 7.29 11.5 8.8
7/14/2021 8:00:00 AM 19 66.2 0.09 7.32 11.29 8.85
7/14/2021 8:15:00 AM 19.01 66.218 0.09 7.32 10.72 8.86
7/14/2021 8:30:00 AM 19.03 66.254 0.091 7.33 10.35 8.87
7/14/2021 8:45:00 AM 19.06 66.308 0.091 7.32 10.13 8.88
7/14/2021 9:00:00 AM 19.08 66.344 0.092 7.34 9.58 8.88
7/14/2021 9:15:00 AM 19.15 66.47 0.092 7.35 9.55 8.92
7/14/2021 9:30:00 AM 19.26 66.668 0.092 7.38 9.04 8.97
7/14/2021 9:45:00 AM 19.33 66.794 0.093 7.4 8.97 9
7/14/2021 10:00:00 AM 19.44 66.992 0.093 7.42 8.63 9.08
7/14/2021 10:15:00 AM 19.59 67.262 0.094 7.44 8.77 9.07
7/14/2021 10:30:00 AM 19.66 67.388 0.094 7.45 8.42 9.07
7/14/2021 10:45:00 AM 19.86 67.748 0.094 7.47 8.08 9.08
7/14/2021 11:00:00 AM 19.9 67.82 0.095 7.48 8.02 9.03
7/14/2021 11:15:00 AM 20.07 68.126 0.095 7.48 8.06 9.04
7/14/2021 11:30:00 AM 20.23 68.414 0.095 7.5 7.4 9.05
7/14/2021 11:45:00 AM 20.37 68.666 0.095 7.51 7.35 9.05
7/14/2021 12:00:00 PM 20.47 68.846 0.095 7.52 7.27 9.04
7/14/2021 12:15:00 PM 20.73 69.314 0.096 7.55 7.08 9.05
7/14/2021 12:30:00 PM 20.86 69.548 0.096 7.55 7 9.03
7/14/2021 12:45:00 PM 21.02 69.836 0.096 7.57 6.84 9.03
7/14/2021 1:00:00 PM 21.13 70.034 0.096 7.58 7.32 9.01
7/14/2021 1:15:00 PM 21.24 70.232 0.096 7.58 7.33 8.95
7/14/2021 1:30:00 PM 21.49 70.682 0.097 7.59 7.17 8.96
7/14/2021 1:45:00 PM 21.66 70.988 0.097 7.61 7.78 8.94
7/14/2021 2:00:00 PM 21.86 71.348 0.098 7.61 8.74 8.93
7/14/2021 2:15:00 PM 21.82 71.276 0.099 7.61 8.73 8.9
7/14/2021 2:30:00 PM 21.84 71.312 0.102 7.6 8.67 8.86
7/14/2021 2:45:00 PM 21.91 71.438 0.105 7.6 9.75 8.86
7/14/2021 3:00:00 PM 22.02 71.636 0.105 7.6 10.84 8.85
7/14/2021 3:15:00 PM 22.13 71.834 0.102 7.61 11.76 8.85
7/14/2021 3:30:00 PM 22.26 72.068 0.099 7.62 11.68 8.86
7/14/2021 3:45:00 PM 22.13 71.834 0.097 7.57 10.94 8.67
7/14/2021 4:00:00 PM 22.07 71.726 0.096 7.53 9.68 8.61
7/14/2021 4:15:00 PM 22.01 71.618 0.095 7.51 8.88 8.56
7/14/2021 4:30:00 PM 21.92 71.456 0.095 7.47 9.48 8.46
7/14/2021 4:45:00 PM 21.92 71.456 0.095 7.46 9.47 8.47
7/14/2021 5:00:00 PM 21.94 71.492 0.094 7.47 9.38 8.55
7/14/2021 5:15:00 PM 21.92 71.456 0.094 7.47 9.34 8.55
7/14/2021 5:30:00 PM 21.85 71.33 0.095 7.46 8.99 8.52
7/14/2021 5:45:00 PM 21.77 71.186 0.095 7.44 9.53 8.45
7/14/2021 6:00:00 PM 21.76 71.168 0.095 7.43 9.1 8.48
7/14/2021 6:15:00 PM 21.79 71.222 0.095 7.45 9.09 8.56
7/14/2021 6:30:00 PM 21.74 71.132 0.095 7.46 8.55 8.55
7/14/2021 6:45:00 PM 21.67 71.006 0.095 7.44 8.84 8.5
7/14/2021 7:00:00 PM 21.63 70.934 0.096 7.43 8.86 8.47
7/14/2021 7:15:00 PM 21.54 70.772 0.096 7.41 8.58 8.43
7/14/2021 7:30:00 PM 21.42 70.556 0.096 7.39 8.71 8.38
7/14/2021 7:45:00 PM 21.31 70.358 0.096 7.37 8.24 8.34
7/14/2021 8:00:00 PM 21.23 70.214 0.097 7.36 7.46 8.31
7/14/2021 8:15:00 PM 21.14 70.052 0.097 7.35 7.38 8.3
7/14/2021 8:30:00 PM 21.07 69.926 0.097 7.33 7.59 8.28
7/14/2021 8:45:00 PM 21 69.8 0.097 7.32 7.23 8.25
7/14/2021 9:00:00 PM 20.91 69.638 0.097 7.3 7.14 8.22
7/14/2021 9:15:00 PM 20.82 69.476 0.097 7.29 7.18 8.22
7/14/2021 9:30:00 PM 20.74 69.332 0.098 7.28 7.1 8.21
7/14/2021 9:45:00 PM 20.66 69.188 0.098 7.28 7.27 8.21
7/14/2021 10:00:00 PM 20.58 69.044 0.098 7.25 7.04 8.22
7/14/2021 10:15:00 PM 20.51 68.918 0.098 7.27 6.76 8.23
7/14/2021 10:30:00 PM 20.43 68.774 0.098 7.26 7.02 8.24
7/14/2021 10:45:00 PM 20.35 68.63 0.098 7.25 6.54 8.26
7/14/2021 11:00:00 PM 20.27 68.486 0.098 7.25 6.46 8.27
7/14/2021 11:15:00 PM 20.2 68.36 0.099 7.23 6.58 8.28
7/14/2021 11:30:00 PM 20.12 68.216 0.099 7.24 6.52 8.29
7/14/2021 11:45:00 PM 20.05 68.09 0.099 7.25 6.46 8.31
7/15/2021 12:00:00 AM 19.98 67.964 0.099 7.25 6.46 8.32
7/15/2021 12:15:00 AM 19.91 67.838 0.099 7.25 6.89 8.33
7/15/2021 12:30:00 AM 19.84 67.712 0.099 7.24 6.44 8.34
7/15/2021 12:45:00 AM 19.78 67.604 0.099 7.24 6.43 8.36
7/15/2021 1:00:00 AM 19.72 67.496 0.099 7.24 6.47 8.36
7/15/2021 1:15:00 AM 19.67 67.406 0.099 7.24 6.67 8.38
7/15/2021 1:30:00 AM 19.61 67.298 0.099 7.22 6.47 8.38
7/15/2021 1:45:00 AM 19.56 67.208 0.1 7.23 6.2 8.39
7/15/2021 2:00:00 AM 19.5 67.1 0.1 7.22 6.11 8.4
7/15/2021 2:15:00 AM 19.45 67.01 0.1 7.22 6.4 8.41
7/15/2021 2:30:00 AM 19.41 66.938 0.1 7.23 6.34 8.42
7/15/2021 2:45:00 AM 19.37 66.866 0.1 7.23 6.56 8.43
7/15/2021 3:00:00 AM 19.33 66.794 0.1 7.24 6.27 8.43
7/15/2021 3:15:00 AM 19.3 66.74 0.1 7.24 6.21 8.44
7/15/2021 3:30:00 AM 19.26 66.668 0.1 7.23 7.36 8.44
7/15/2021 3:45:00 AM 19.22 66.596 0.1 7.24 6.77 8.46
7/15/2021 4:00:00 AM 19.19 66.542 0.1 7.24 7 8.46
7/15/2021 4:15:00 AM 19.15 66.47 0.1 7.24 6.25 8.46
7/15/2021 4:30:00 AM 19.11 66.398 0.1 7.24 6.02 8.47
7/15/2021 4:45:00 AM 19.08 66.344 0.1 7.24 7.27 8.48
7/15/2021 5:00:00 AM 19.04 66.272 0.1 7.23 6.42 8.48
7/15/2021 5:15:00 AM 19 66.2 0.1 7.23 6.8 8.48
7/15/2021 5:30:00 AM 18.96 66.128 0.1 7.23 6.67 8.49
7/15/2021 5:45:00 AM 18.92 66.056 0.1 7.23 6.19 8.5
7/15/2021 6:00:00 AM 18.89 66.002 0.1 7.23 6.36 8.52
7/15/2021 6:15:00 AM 18.85 65.93 0.1 7.23 6.37 8.53
7/15/2021 6:30:00 AM 18.82 65.876 0.1 7.22 6.18 8.57
7/15/2021 6:45:00 AM 18.79 65.82201 0.1 7.24 5.75 8.6
7/15/2021 7:00:00 AM 18.78 65.804 0.1 7.25 5.64 8.65
7/15/2021 7:15:00 AM 18.76 65.768 0.1 7.25 5.84 8.7
7/15/2021 7:30:00 AM 18.75 65.75 0.1 7.27 5.37 8.76
7/15/2021 7:45:00 AM 18.75 65.75 0.1 7.29 5.34 8.84
7/15/2021 8:00:00 AM 18.74 65.732 0.1 7.3 5.23 8.87
7/15/2021 8:15:00 AM 18.75 65.75 0.1 7.3 4.98 8.91
7/15/2021 8:30:00 AM 18.76 65.768 0.1 7.33 5.17 8.95
7/15/2021 8:45:00 AM 18.79 65.82201 0.1 7.34 5.01 9
7/15/2021 9:00:00 AM 18.84 65.912 0.1 7.35 4.93 9.02
7/15/2021 9:15:00 AM 18.91 66.038 0.099 7.37 4.89 9.06
7/15/2021 9:30:00 AM 18.99 66.182 0.099 7.39 4.97 9.11
7/15/2021 9:45:00 AM 19.09 66.362 0.099 7.4 4.76 9.13
7/15/2021 10:00:00 AM 19.22 66.596 0.099 7.42 4.9 9.15
7/15/2021 10:15:00 AM 19.36 66.848 0.099 7.44 4.47 9.18
7/15/2021 10:30:00 AM 19.51 67.118 0.099 7.47 4.43 9.21
7/15/2021 10:45:00 AM 19.68 67.424 0.099 7.49 4.32 9.23
7/15/2021 11:00:00 AM 19.86 67.748 0.099 7.51 4.29 9.24
7/15/2021 11:15:00 AM 20.03 68.054 0.099 7.52 4.41 9.24
7/15/2021 11:30:00 AM 20.18 68.324 0.099 7.54 4.31 9.22
7/15/2021 11:45:00 AM 20.41 68.738 0.099 7.57 4.29 9.24
7/15/2021 12:00:00 PM 20.64 69.152 0.099 7.59 4.28 9.25
7/15/2021 12:15:00 PM 20.81 69.458 0.099 7.6 4.35 9.18
7/15/2021 12:30:00 PM 21.01 69.818 0.099 7.6 4.79 9.14
7/15/2021 12:45:00 PM 21.17 70.106 0.099 7.61 4.33 9.14
7/15/2021 1:00:00 PM 21.43 70.574 0.099 7.64 4.38 9.18
7/15/2021 1:15:00 PM 21.73 71.114 0.099 7.67 4.31 9.2
7/15/2021 1:30:00 PM 21.94 71.492 0.099 7.69 4.33 9.18
7/15/2021 1:45:00 PM 22.09 71.762 0.099 7.69 4.66 9.12
7/15/2021 2:00:00 PM 22.27 72.086 0.1 7.71 4.59 9.1
7/15/2021 2:15:00 PM 22.39 72.302 0.1 7.71 4.28 9.05
7/15/2021 2:30:00 PM 22.63 72.734 0.1 7.71 4.5 9.06
7/15/2021 2:45:00 PM 22.88 73.184 0.099 7.74 4.66 9.07
7/15/2021 3:00:00 PM 23.07 73.526 0.099 7.76 4.65 9.07
7/15/2021 3:15:00 PM 23.18 73.724 0.099 7.77 4.49 9.03
7/15/2021 3:30:00 PM 23.24 73.832 0.099 7.76 4.39 8.97
7/15/2021 3:45:00 PM 23.21 73.778 0.099 7.72 4.51 8.91
7/15/2021 4:00:00 PM 23.28 73.904 0.099 7.73 4.95 8.9
7/15/2021 4:15:00 PM 23.36 74.048 0.099 7.73 4.8 8.89
7/15/2021 4:30:00 PM 23.39 74.102 0.099 7.73 4.92 8.87
7/15/2021 4:45:00 PM 23.37 74.066 0.099 7.7 4.89 8.83
7/15/2021 5:00:00 PM 23.31 73.958 0.099 7.69 4.83 8.78
7/15/2021 5:15:00 PM 23.27 73.886 0.099 7.68 4.7 8.76
7/15/2021 5:30:00 PM 23.21 73.778 0.099 7.66 4.45 8.72
7/15/2021 5:45:00 PM 23.13 73.634 0.1 7.64 4.41 8.67
7/15/2021 6:00:00 PM 23.05 73.49 0.1 7.63 4.43 8.65
7/15/2021 6:15:00 PM 22.96 73.328 0.1 7.6 4.38 8.61
7/15/2021 6:30:00 PM 22.85 73.13 0.101 7.58 4.41 8.55
7/15/2021 6:45:00 PM 22.73 72.914 0.101 7.55 4.47 8.49
7/15/2021 7:00:00 PM 22.61 72.698 0.101 7.51 4.4 8.42
7/15/2021 7:15:00 PM 22.5 72.5 0.101 7.48 4.44 8.33
7/15/2021 7:30:00 PM 22.38 72.284 0.102 7.45 4.89 8.26
7/15/2021 7:45:00 PM 22.26 72.068 0.102 7.41 4.39 8.15
7/15/2021 8:00:00 PM 22.14 71.852 0.102 7.38 4.5 8.08
7/15/2021 8:15:00 PM 22.04 71.672 0.103 7.35 4.19 8.04
7/15/2021 8:30:00 PM 21.94 71.492 0.103 7.32 4.33 7.98
7/15/2021 8:45:00 PM 21.83 71.294 0.103 7.31 4.31 7.93
7/15/2021 9:00:00 PM 21.73 71.114 0.103 7.29 4.25 7.9
7/15/2021 9:15:00 PM 21.63 70.934 0.103 7.27 4.29 7.88
7/15/2021 9:30:00 PM 21.54 70.772 0.104 7.26 4.2 7.86
7/15/2021 9:45:00 PM 21.44 70.592 0.104 7.25 4.25 7.86
7/15/2021 10:00:00 PM 21.34 70.412 0.104 7.24 4.41 7.87
7/15/2021 10:15:00 PM 21.25 70.25 0.104 7.22 4.4 7.88
7/15/2021 10:30:00 PM 21.16 70.088 0.105 7.24 4.58 7.89
7/15/2021 10:45:00 PM 21.07 69.926 0.105 7.23 4.24 7.9
7/15/2021 11:00:00 PM 20.98 69.764 0.105 7.23 4.4 7.93
7/15/2021 11:15:00 PM 20.89 69.602 0.105 7.22 4.52 7.93
7/15/2021 11:30:00 PM 20.81 69.458 0.105 7.21 4.07 7.94
7/15/2021 11:45:00 PM 20.72 69.296 0.105 7.22 4.19 7.96
7/16/2021 12:00:00 AM 20.64 69.152 0.105 7.2 4.2 7.97
7/16/2021 12:15:00 AM 20.56 69.008 0.105 7.21 4.4 8
7/16/2021 12:30:00 AM 20.49 68.882 0.105 7.21 4.16 8
7/16/2021 12:45:00 AM 20.42 68.756 0.106 7.21 4.42 8.02
7/16/2021 1:00:00 AM 20.35 68.63 0.106 7.22 4.03 8.02
7/16/2021 1:15:00 AM 20.28 68.504 0.106 7.22 4.64 8.03
7/16/2021 1:30:00 AM 20.22 68.396 0.106 7.22 4.29 8.05
7/16/2021 1:45:00 AM 20.15 68.27 0.106 7.21 4.21 8.07
7/16/2021 2:00:00 AM 20.09 68.162 0.106 7.2 4.5 8.07
7/16/2021 2:15:00 AM 20.04 68.07201 0.105 7.22 5.9 8.08
7/16/2021 2:30:00 AM 19.98 67.964 0.106 7.22 4.2 8.09
7/16/2021 2:45:00 AM 19.92 67.856 0.106 7.22 4.01 8.11
7/16/2021 3:00:00 AM 19.87 67.766 0.106 7.22 4.12 8.13
7/16/2021 3:15:00 AM 19.81 67.658 0.106 7.22 4.05 8.14
7/16/2021 3:30:00 AM 19.76 67.568 0.106 7.2 4.15 8.13
7/16/2021 3:45:00 AM 19.7 67.46 0.106 7.21 4.32 8.15
7/16/2021 4:00:00 AM 19.65 67.37 0.106 7.21 3.9 8.16
7/16/2021 4:15:00 AM 19.6 67.28 0.106 7.21 4.31 8.17
7/16/2021 4:30:00 AM 19.55 67.19 0.106 7.21 4.26 8.18
7/16/2021 4:45:00 AM 19.5 67.1 0.106 7.19 4.26 8.19
7/16/2021 5:00:00 AM 19.45 67.01 0.106 7.21 4.19 8.19
7/16/2021 5:15:00 AM 19.4 66.92 0.106 7.21 4.27 8.21
7/16/2021 5:30:00 AM 19.36 66.848 0.106 7.2 4.41 8.22
7/16/2021 5:45:00 AM 19.31 66.758 0.106 7.21 4.45 8.24
7/16/2021 6:00:00 AM 19.27 66.686 0.106 7.19 4.22 8.24
7/16/2021 6:15:00 AM 19.24 66.632 0.106 7.2 4.3 8.27
7/16/2021 6:30:00 AM 19.21 66.578 0.106 7.21 3.94 8.3
7/16/2021 6:45:00 AM 19.18 66.524 0.106 7.21 3.96 8.35
7/16/2021 7:00:00 AM 19.15 66.47 0.106 7.22 3.77 8.42
7/16/2021 7:15:00 AM 19.13 66.434 0.106 7.24 4.01 8.48
7/16/2021 7:30:00 AM 19.12 66.416 0.106 7.23 3.77 8.53
7/16/2021 7:45:00 AM 19.11 66.398 0.106 7.27 3.55 8.61
7/16/2021 8:00:00 AM 19.11 66.398 0.106 7.28 3.56 8.68
7/16/2021 8:15:00 AM 19.12 66.416 0.106 7.29 3.54 8.74
7/16/2021 8:30:00 AM 19.14 66.452 0.106 7.32 3.48 8.8
7/16/2021 8:45:00 AM 19.18 66.524 0.106 7.33 3.55 8.86
7/16/2021 9:00:00 AM 19.24 66.632 0.106 7.35 3.8 8.92
7/16/2021 9:15:00 AM 19.31 66.758 0.106 7.37 3.65 8.98
7/16/2021 9:30:00 AM 19.42 66.956 0.106 7.4 3.41 9.04
7/16/2021 9:45:00 AM 19.55 67.19 0.106 7.43 3.29 9.15
7/16/2021 10:00:00 AM 19.66 67.388 0.106 7.46 3.35 9.25
7/16/2021 10:15:00 AM 19.78 67.604 0.106 7.5 3.39 9.29
7/16/2021 10:30:00 AM 19.93 67.874 0.105 7.53 3.32 9.31
7/16/2021 10:45:00 AM 20.07 68.126 0.105 7.56 3.31 9.35